<?xml version="1.0" encoding="UTF-8" standalone="no" ?>
<gpx xmlns="http://www.topografix.com/GPX/1/1" xmlns:xsi="http://www.w3.org/2001/XMLSchema-instance" xsi:schemaLocation="http://www.topografix.com/GPX/1/1 http://www.topografix.com/GPX/1/1/gpx.xsd" version="1.1" creator="VisuGPX - https://www.visugpx.com">
  <metadata>
    <name>Le pied du Vercors</name>
    <desc><![CDATA[Le pied du Vercors]]></desc>
  </metadata>
  <trk>
    <name><![CDATA[Pied du vercors]]></name>
    <cmt><![CDATA[Seul]]></cmt>
    <trkseg>
      <trkpt lat="45.11572" lon="4.96422">
        <ele>206.25100708008</ele>
        <time>2009-09-17T12:03:51Z</time>
      </trkpt>
      <trkpt lat="45.11567" lon="4.96425">
        <ele>206.65199279785</ele>
        <time>2009-09-17T12:04:28Z</time>
      </trkpt>
      <trkpt lat="45.11562" lon="4.96437">
        <ele>205.44500732422</ele>
        <time>2009-09-17T12:04:36Z</time>
      </trkpt>
      <trkpt lat="45.11576" lon="4.96447">
        <ele>206.14500427246</ele>
        <time>2009-09-17T12:04:44Z</time>
      </trkpt>
      <trkpt lat="45.11578" lon="4.96448">
        <ele>206.08299255371</ele>
        <time>2009-09-17T12:04:47Z</time>
      </trkpt>
      <trkpt lat="45.11582" lon="4.96466">
        <ele>205.66400146484</ele>
        <time>2009-09-17T12:04:54Z</time>
      </trkpt>
      <trkpt lat="45.11581" lon="4.96477">
        <ele>205.41200256348</ele>
        <time>2009-09-17T12:04:56Z</time>
      </trkpt>
      <trkpt lat="45.11578" lon="4.96484">
        <ele>205.10499572754</ele>
        <time>2009-09-17T12:04:59Z</time>
      </trkpt>
      <trkpt lat="45.11566" lon="4.96469">
        <ele>204.41000366211</ele>
        <time>2009-09-17T12:05:05Z</time>
      </trkpt>
      <trkpt lat="45.11535" lon="4.96418">
        <ele>204.36700439453</ele>
        <time>2009-09-17T12:05:14Z</time>
      </trkpt>
      <trkpt lat="45.11508" lon="4.96375">
        <ele>204.74800109863</ele>
        <time>2009-09-17T12:05:21Z</time>
      </trkpt>
      <trkpt lat="45.11473" lon="4.96321">
        <ele>205.78900146484</ele>
        <time>2009-09-17T12:05:30Z</time>
      </trkpt>
      <trkpt lat="45.11435" lon="4.96258">
        <ele>205.95399475098</ele>
        <time>2009-09-17T12:05:40Z</time>
      </trkpt>
      <trkpt lat="45.11396" lon="4.96179">
        <ele>206.18600463867</ele>
        <time>2009-09-17T12:05:51Z</time>
      </trkpt>
      <trkpt lat="45.11308" lon="4.96019">
        <ele>203.63299560547</ele>
        <time>2009-09-17T12:06:10Z</time>
      </trkpt>
      <trkpt lat="45.11241" lon="4.95905">
        <ele>202.40299987793</ele>
        <time>2009-09-17T12:06:23Z</time>
      </trkpt>
      <trkpt lat="45.1112" lon="4.95711">
        <ele>202.05200195312</ele>
        <time>2009-09-17T12:06:46Z</time>
      </trkpt>
      <trkpt lat="45.11047" lon="4.95625">
        <ele>202.81799316406</ele>
        <time>2009-09-17T12:06:59Z</time>
      </trkpt>
      <trkpt lat="45.10972" lon="4.9551">
        <ele>200.99699401856</ele>
        <time>2009-09-17T12:07:13Z</time>
      </trkpt>
      <trkpt lat="45.10935" lon="4.95373">
        <ele>199.47500610352</ele>
        <time>2009-09-17T12:07:25Z</time>
      </trkpt>
      <trkpt lat="45.10922" lon="4.9533">
        <ele>200.07099914551</ele>
        <time>2009-09-17T12:07:29Z</time>
      </trkpt>
      <trkpt lat="45.10875" lon="4.95253">
        <ele>199.53300476074</ele>
        <time>2009-09-17T12:07:38Z</time>
      </trkpt>
      <trkpt lat="45.10812" lon="4.95181">
        <ele>199.45100402832</ele>
        <time>2009-09-17T12:07:49Z</time>
      </trkpt>
      <trkpt lat="45.107" lon="4.95082">
        <ele>198.83099365234</ele>
        <time>2009-09-17T12:08:07Z</time>
      </trkpt>
      <trkpt lat="45.10536" lon="4.95007">
        <ele>196.80799865723</ele>
        <time>2009-09-17T12:08:29Z</time>
      </trkpt>
      <trkpt lat="45.10493" lon="4.94986">
        <ele>196.23599243164</ele>
        <time>2009-09-17T12:08:35Z</time>
      </trkpt>
      <trkpt lat="45.10439" lon="4.94957">
        <ele>195.90899658203</ele>
        <time>2009-09-17T12:08:43Z</time>
      </trkpt>
      <trkpt lat="45.10424" lon="4.94951">
        <ele>195.49699401856</ele>
        <time>2009-09-17T12:08:45Z</time>
      </trkpt>
      <trkpt lat="45.10264" lon="4.94861">
        <ele>193.72799682617</ele>
        <time>2009-09-17T12:09:07Z</time>
      </trkpt>
      <trkpt lat="45.10103" lon="4.94749">
        <ele>192.08700561523</ele>
        <time>2009-09-17T12:09:28Z</time>
      </trkpt>
      <trkpt lat="45.10064" lon="4.94718">
        <ele>190.35200500488</ele>
        <time>2009-09-17T12:09:33Z</time>
      </trkpt>
      <trkpt lat="45.09919" lon="4.94573">
        <ele>187.4109954834</ele>
        <time>2009-09-17T12:09:53Z</time>
      </trkpt>
      <trkpt lat="45.09819" lon="4.94449">
        <ele>190.09399414062</ele>
        <time>2009-09-17T12:10:10Z</time>
      </trkpt>
      <trkpt lat="45.0976" lon="4.94392">
        <ele>193</ele>
        <time>2009-09-17T12:10:22Z</time>
      </trkpt>
      <trkpt lat="45.0969" lon="4.94328">
        <ele>194.95300292969</ele>
        <time>2009-09-17T12:10:36Z</time>
      </trkpt>
      <trkpt lat="45.09635" lon="4.9426">
        <ele>196.96699523926</ele>
        <time>2009-09-17T12:10:48Z</time>
      </trkpt>
      <trkpt lat="45.09556" lon="4.94116">
        <ele>196.61099243164</ele>
        <time>2009-09-17T12:11:07Z</time>
      </trkpt>
      <trkpt lat="45.09484" lon="4.93975">
        <ele>194.35699462891</ele>
        <time>2009-09-17T12:11:22Z</time>
      </trkpt>
      <trkpt lat="45.09401" lon="4.93813">
        <ele>194.31399536133</ele>
        <time>2009-09-17T12:11:40Z</time>
      </trkpt>
      <trkpt lat="45.0931" lon="4.93705">
        <ele>193.34800720215</ele>
        <time>2009-09-17T12:11:55Z</time>
      </trkpt>
      <trkpt lat="45.09197" lon="4.93658">
        <ele>192.90400695801</ele>
        <time>2009-09-17T12:12:10Z</time>
      </trkpt>
      <trkpt lat="45.09014" lon="4.93612">
        <ele>192.90299987793</ele>
        <time>2009-09-17T12:12:34Z</time>
      </trkpt>
      <trkpt lat="45.088" lon="4.93566">
        <ele>189.35200500488</ele>
        <time>2009-09-17T12:13:01Z</time>
      </trkpt>
      <trkpt lat="45.08671" lon="4.936">
        <ele>188.12399291992</ele>
        <time>2009-09-17T12:13:17Z</time>
      </trkpt>
      <trkpt lat="45.08508" lon="4.93681">
        <ele>183.77900695801</ele>
        <time>2009-09-17T12:13:37Z</time>
      </trkpt>
      <trkpt lat="45.08337" lon="4.93711">
        <ele>181.52200317383</ele>
        <time>2009-09-17T12:13:57Z</time>
      </trkpt>
      <trkpt lat="45.08163" lon="4.93739">
        <ele>180.23100280762</ele>
        <time>2009-09-17T12:14:18Z</time>
      </trkpt>
      <trkpt lat="45.08014" lon="4.93723">
        <ele>180.37699890137</ele>
        <time>2009-09-17T12:14:38Z</time>
      </trkpt>
      <trkpt lat="45.07828" lon="4.93669">
        <ele>179.40199279785</ele>
        <time>2009-09-17T12:15:04Z</time>
      </trkpt>
      <trkpt lat="45.07618" lon="4.93607">
        <ele>177.22099304199</ele>
        <time>2009-09-17T12:15:32Z</time>
      </trkpt>
      <trkpt lat="45.07492" lon="4.93568">
        <ele>175.63900756836</ele>
        <time>2009-09-17T12:15:48Z</time>
      </trkpt>
      <trkpt lat="45.07331" lon="4.93517">
        <ele>175.16299438477</ele>
        <time>2009-09-17T12:16:09Z</time>
      </trkpt>
      <trkpt lat="45.07162" lon="4.93435">
        <ele>175.24099731445</ele>
        <time>2009-09-17T12:16:32Z</time>
      </trkpt>
      <trkpt lat="45.06995" lon="4.93359">
        <ele>173.83599853516</ele>
        <time>2009-09-17T12:16:54Z</time>
      </trkpt>
      <trkpt lat="45.06799" lon="4.93279">
        <ele>172.43600463867</ele>
        <time>2009-09-17T12:17:19Z</time>
      </trkpt>
      <trkpt lat="45.06605" lon="4.93209">
        <ele>170.62199401856</ele>
        <time>2009-09-17T12:17:43Z</time>
      </trkpt>
      <trkpt lat="45.06452" lon="4.9317">
        <ele>170.78500366211</ele>
        <time>2009-09-17T12:18:03Z</time>
      </trkpt>
      <trkpt lat="45.06243" lon="4.93071">
        <ele>170.30400085449</ele>
        <time>2009-09-17T12:18:31Z</time>
      </trkpt>
      <trkpt lat="45.06067" lon="4.92973">
        <ele>168.40800476074</ele>
        <time>2009-09-17T12:18:54Z</time>
      </trkpt>
      <trkpt lat="45.05877" lon="4.9284">
        <ele>166.31599426269</ele>
        <time>2009-09-17T12:19:19Z</time>
      </trkpt>
      <trkpt lat="45.05724" lon="4.9265">
        <ele>164.77099609375</ele>
        <time>2009-09-17T12:19:44Z</time>
      </trkpt>
      <trkpt lat="45.05707" lon="4.92626">
        <ele>164.39799499512</ele>
        <time>2009-09-17T12:19:47Z</time>
      </trkpt>
      <trkpt lat="45.05689" lon="4.92563">
        <ele>163.54499816894</ele>
        <time>2009-09-17T12:19:53Z</time>
      </trkpt>
      <trkpt lat="45.05693" lon="4.9253">
        <ele>162.44299316406</ele>
        <time>2009-09-17T12:19:56Z</time>
      </trkpt>
      <trkpt lat="45.05672" lon="4.92519">
        <ele>161.58000183106</ele>
        <time>2009-09-17T12:20:01Z</time>
      </trkpt>
      <trkpt lat="45.05652" lon="4.92534">
        <ele>161.19000244141</ele>
        <time>2009-09-17T12:20:04Z</time>
      </trkpt>
      <trkpt lat="45.05585" lon="4.9254">
        <ele>161.1369934082</ele>
        <time>2009-09-17T12:20:12Z</time>
      </trkpt>
      <trkpt lat="45.05568" lon="4.92544">
        <ele>161.32200622559</ele>
        <time>2009-09-17T12:20:14Z</time>
      </trkpt>
      <trkpt lat="45.05541" lon="4.92575">
        <ele>160.85600280762</ele>
        <time>2009-09-17T12:20:18Z</time>
      </trkpt>
      <trkpt lat="45.05529" lon="4.92593">
        <ele>161.64999389648</ele>
        <time>2009-09-17T12:20:20Z</time>
      </trkpt>
      <trkpt lat="45.05499" lon="4.92691">
        <ele>160.68699645996</ele>
        <time>2009-09-17T12:20:29Z</time>
      </trkpt>
      <trkpt lat="45.05494" lon="4.92729">
        <ele>160.50100708008</ele>
        <time>2009-09-17T12:20:32Z</time>
      </trkpt>
      <trkpt lat="45.0546" lon="4.9277">
        <ele>160.49699401856</ele>
        <time>2009-09-17T12:20:38Z</time>
      </trkpt>
      <trkpt lat="45.05448" lon="4.92809">
        <ele>160.78399658203</ele>
        <time>2009-09-17T12:20:42Z</time>
      </trkpt>
      <trkpt lat="45.05418" lon="4.92966">
        <ele>160.15199279785</ele>
        <time>2009-09-17T12:20:56Z</time>
      </trkpt>
      <trkpt lat="45.05388" lon="4.93092">
        <ele>160.5299987793</ele>
        <time>2009-09-17T12:21:08Z</time>
      </trkpt>
      <trkpt lat="45.0536" lon="4.93097">
        <ele>160.17999267578</ele>
        <time>2009-09-17T12:21:13Z</time>
      </trkpt>
      <trkpt lat="45.0533" lon="4.93069">
        <ele>159.74000549316</ele>
        <time>2009-09-17T12:21:18Z</time>
      </trkpt>
      <trkpt lat="45.05309" lon="4.93058">
        <ele>159.3690032959</ele>
        <time>2009-09-17T12:21:21Z</time>
      </trkpt>
      <trkpt lat="45.05174" lon="4.93065">
        <ele>156.67300415039</ele>
        <time>2009-09-17T12:21:38Z</time>
      </trkpt>
      <trkpt lat="45.04965" lon="4.93112">
        <ele>151.93800354004</ele>
        <time>2009-09-17T12:22:02Z</time>
      </trkpt>
      <trkpt lat="45.04787" lon="4.93165">
        <ele>151.80400085449</ele>
        <time>2009-09-17T12:22:24Z</time>
      </trkpt>
      <trkpt lat="45.04644" lon="4.93197">
        <ele>151.12199401856</ele>
        <time>2009-09-17T12:22:43Z</time>
      </trkpt>
      <trkpt lat="45.04517" lon="4.9318">
        <ele>151.08500671387</ele>
        <time>2009-09-17T12:23:00Z</time>
      </trkpt>
      <trkpt lat="45.04351" lon="4.9311">
        <ele>151.16000366211</ele>
        <time>2009-09-17T12:23:23Z</time>
      </trkpt>
      <trkpt lat="45.0421" lon="4.93057">
        <ele>151.08500671387</ele>
        <time>2009-09-17T12:23:42Z</time>
      </trkpt>
      <trkpt lat="45.04051" lon="4.93044">
        <ele>150.98899841309</ele>
        <time>2009-09-17T12:24:03Z</time>
      </trkpt>
      <trkpt lat="45.03933" lon="4.93072">
        <ele>150.67199707031</ele>
        <time>2009-09-17T12:24:19Z</time>
      </trkpt>
      <trkpt lat="45.03773" lon="4.93138">
        <ele>149.93699645996</ele>
        <time>2009-09-17T12:24:40Z</time>
      </trkpt>
      <trkpt lat="45.03621" lon="4.9318">
        <ele>149.23500061035</ele>
        <time>2009-09-17T12:25:00Z</time>
      </trkpt>
      <trkpt lat="45.03461" lon="4.93148">
        <ele>146.98100280762</ele>
        <time>2009-09-17T12:25:19Z</time>
      </trkpt>
      <trkpt lat="45.03311" lon="4.93103">
        <ele>146.66000366211</ele>
        <time>2009-09-17T12:25:39Z</time>
      </trkpt>
      <trkpt lat="45.03246" lon="4.93042">
        <ele>147.34899902344</ele>
        <time>2009-09-17T12:25:49Z</time>
      </trkpt>
      <trkpt lat="45.03198" lon="4.9304">
        <ele>146.62899780273</ele>
        <time>2009-09-17T12:25:55Z</time>
      </trkpt>
      <trkpt lat="45.03163" lon="4.93068">
        <ele>146.57600402832</ele>
        <time>2009-09-17T12:26:00Z</time>
      </trkpt>
      <trkpt lat="45.03147" lon="4.93072">
        <ele>146.90899658203</ele>
        <time>2009-09-17T12:26:02Z</time>
      </trkpt>
      <trkpt lat="45.03088" lon="4.93073">
        <ele>146.38999938965</ele>
        <time>2009-09-17T12:26:09Z</time>
      </trkpt>
      <trkpt lat="45.03054" lon="4.93076">
        <ele>146.4640045166</ele>
        <time>2009-09-17T12:26:13Z</time>
      </trkpt>
      <trkpt lat="45.02903" lon="4.93126">
        <ele>146.16499328613</ele>
        <time>2009-09-17T12:26:32Z</time>
      </trkpt>
      <trkpt lat="45.02753" lon="4.93226">
        <ele>144.17799377441</ele>
        <time>2009-09-17T12:26:52Z</time>
      </trkpt>
      <trkpt lat="45.02616" lon="4.93317">
        <ele>142.87899780273</ele>
        <time>2009-09-17T12:27:10Z</time>
      </trkpt>
      <trkpt lat="45.02476" lon="4.93364">
        <ele>143.77900695801</ele>
        <time>2009-09-17T12:27:29Z</time>
      </trkpt>
      <trkpt lat="45.02265" lon="4.93351">
        <ele>143.94299316406</ele>
        <time>2009-09-17T12:27:56Z</time>
      </trkpt>
      <trkpt lat="45.02171" lon="4.93389">
        <ele>143.88999938965</ele>
        <time>2009-09-17T12:28:09Z</time>
      </trkpt>
      <trkpt lat="45.02012" lon="4.93526">
        <ele>141.91900634766</ele>
        <time>2009-09-17T12:28:33Z</time>
      </trkpt>
      <trkpt lat="45.01937" lon="4.93597">
        <ele>139.03799438477</ele>
        <time>2009-09-17T12:28:43Z</time>
      </trkpt>
      <trkpt lat="45.01892" lon="4.93637">
        <ele>138.60899353027</ele>
        <time>2009-09-17T12:28:49Z</time>
      </trkpt>
      <trkpt lat="45.01773" lon="4.93743">
        <ele>136.25999450684</ele>
        <time>2009-09-17T12:29:06Z</time>
      </trkpt>
      <trkpt lat="45.01675" lon="4.9383">
        <ele>137.48899841309</ele>
        <time>2009-09-17T12:29:21Z</time>
      </trkpt>
      <trkpt lat="45.01593" lon="4.93897">
        <ele>137.31500244141</ele>
        <time>2009-09-17T12:29:34Z</time>
      </trkpt>
      <trkpt lat="45.01554" lon="4.93929">
        <ele>139.74899291992</ele>
        <time>2009-09-17T12:29:42Z</time>
      </trkpt>
      <trkpt lat="45.01542" lon="4.93944">
        <ele>140.67599487305</ele>
        <time>2009-09-17T12:29:45Z</time>
      </trkpt>
      <trkpt lat="45.01532" lon="4.93958">
        <ele>141.74000549316</ele>
        <time>2009-09-17T12:29:48Z</time>
      </trkpt>
      <trkpt lat="45.01519" lon="4.93972">
        <ele>143.43299865723</ele>
        <time>2009-09-17T12:29:52Z</time>
      </trkpt>
      <trkpt lat="45.01508" lon="4.93989">
        <ele>145.19400024414</ele>
        <time>2009-09-17T12:29:57Z</time>
      </trkpt>
      <trkpt lat="45.01497" lon="4.94008">
        <ele>147.33000183106</ele>
        <time>2009-09-17T12:30:02Z</time>
      </trkpt>
      <trkpt lat="45.01488" lon="4.94054">
        <ele>150.66499328613</ele>
        <time>2009-09-17T12:30:13Z</time>
      </trkpt>
      <trkpt lat="45.01511" lon="4.94105">
        <ele>153.40899658203</ele>
        <time>2009-09-17T12:30:25Z</time>
      </trkpt>
      <trkpt lat="45.01539" lon="4.94176">
        <ele>157.21200561523</ele>
        <time>2009-09-17T12:30:41Z</time>
      </trkpt>
      <trkpt lat="45.01568" lon="4.94246">
        <ele>161.08799743652</ele>
        <time>2009-09-17T12:30:58Z</time>
      </trkpt>
      <trkpt lat="45.01585" lon="4.94313">
        <ele>163.56700134277</ele>
        <time>2009-09-17T12:31:12Z</time>
      </trkpt>
      <trkpt lat="45.01575" lon="4.94385">
        <ele>166.11799621582</ele>
        <time>2009-09-17T12:31:26Z</time>
      </trkpt>
      <trkpt lat="45.01553" lon="4.94436">
        <ele>168.14500427246</ele>
        <time>2009-09-17T12:31:37Z</time>
      </trkpt>
      <trkpt lat="45.01533" lon="4.94517">
        <ele>171.34899902344</ele>
        <time>2009-09-17T12:31:53Z</time>
      </trkpt>
      <trkpt lat="45.01507" lon="4.94594">
        <ele>175.06900024414</ele>
        <time>2009-09-17T12:32:09Z</time>
      </trkpt>
      <trkpt lat="45.01481" lon="4.94682">
        <ele>178.6309967041</ele>
        <time>2009-09-17T12:32:26Z</time>
      </trkpt>
      <trkpt lat="45.01445" lon="4.9479">
        <ele>181.54299926758</ele>
        <time>2009-09-17T12:32:45Z</time>
      </trkpt>
      <trkpt lat="45.01406" lon="4.949">
        <ele>185.55999755859</ele>
        <time>2009-09-17T12:33:05Z</time>
      </trkpt>
      <trkpt lat="45.01351" lon="4.94962">
        <ele>189.56100463867</ele>
        <time>2009-09-17T12:33:22Z</time>
      </trkpt>
      <trkpt lat="45.01294" lon="4.9499">
        <ele>192.75500488281</ele>
        <time>2009-09-17T12:33:37Z</time>
      </trkpt>
      <trkpt lat="45.01252" lon="4.95011">
        <ele>195.50100708008</ele>
        <time>2009-09-17T12:33:48Z</time>
      </trkpt>
      <trkpt lat="45.01188" lon="4.95042">
        <ele>199.60099792481</ele>
        <time>2009-09-17T12:34:05Z</time>
      </trkpt>
      <trkpt lat="45.01126" lon="4.95099">
        <ele>200.93099975586</ele>
        <time>2009-09-17T12:34:22Z</time>
      </trkpt>
      <trkpt lat="45.01081" lon="4.95224">
        <ele>201.44400024414</ele>
        <time>2009-09-17T12:34:39Z</time>
      </trkpt>
      <trkpt lat="45.01075" lon="4.95288">
        <ele>200.10499572754</ele>
        <time>2009-09-17T12:34:46Z</time>
      </trkpt>
      <trkpt lat="45.01078" lon="4.9536">
        <ele>198.06100463867</ele>
        <time>2009-09-17T12:34:53Z</time>
      </trkpt>
      <trkpt lat="45.01073" lon="4.95425">
        <ele>195.79699707031</ele>
        <time>2009-09-17T12:34:59Z</time>
      </trkpt>
      <trkpt lat="45.01066" lon="4.9546">
        <ele>194.63200378418</ele>
        <time>2009-09-17T12:35:02Z</time>
      </trkpt>
      <trkpt lat="45.01052" lon="4.9552">
        <ele>191.74000549316</ele>
        <time>2009-09-17T12:35:07Z</time>
      </trkpt>
      <trkpt lat="45.01034" lon="4.95599">
        <ele>187.84100341797</ele>
        <time>2009-09-17T12:35:13Z</time>
      </trkpt>
      <trkpt lat="45.01021" lon="4.95653">
        <ele>185.63400268555</ele>
        <time>2009-09-17T12:35:17Z</time>
      </trkpt>
      <trkpt lat="45.01008" lon="4.95708">
        <ele>183.68200683594</ele>
        <time>2009-09-17T12:35:21Z</time>
      </trkpt>
      <trkpt lat="45.00998" lon="4.95764">
        <ele>181.87699890137</ele>
        <time>2009-09-17T12:35:25Z</time>
      </trkpt>
      <trkpt lat="45.00997" lon="4.95896">
        <ele>177.57299804688</ele>
        <time>2009-09-17T12:35:34Z</time>
      </trkpt>
      <trkpt lat="45.01008" lon="4.96116">
        <ele>173.91200256348</ele>
        <time>2009-09-17T12:35:50Z</time>
      </trkpt>
      <trkpt lat="45.01007" lon="4.96282">
        <ele>172.16600036621</ele>
        <time>2009-09-17T12:36:03Z</time>
      </trkpt>
      <trkpt lat="45.00977" lon="4.96387">
        <ele>172.69400024414</ele>
        <time>2009-09-17T12:36:13Z</time>
      </trkpt>
      <trkpt lat="45.00913" lon="4.96532">
        <ele>172.49600219727</ele>
        <time>2009-09-17T12:36:29Z</time>
      </trkpt>
      <trkpt lat="45.00829" lon="4.96678">
        <ele>172.18600463867</ele>
        <time>2009-09-17T12:36:47Z</time>
      </trkpt>
      <trkpt lat="45.00739" lon="4.96795">
        <ele>171.98899841309</ele>
        <time>2009-09-17T12:37:04Z</time>
      </trkpt>
      <trkpt lat="45.00655" lon="4.96979">
        <ele>172.19500732422</ele>
        <time>2009-09-17T12:37:25Z</time>
      </trkpt>
      <trkpt lat="45.00596" lon="4.97115">
        <ele>175.2619934082</ele>
        <time>2009-09-17T12:37:44Z</time>
      </trkpt>
      <trkpt lat="45.00561" lon="4.97255">
        <ele>177.23699951172</ele>
        <time>2009-09-17T12:38:03Z</time>
      </trkpt>
      <trkpt lat="45.00518" lon="4.97438">
        <ele>179.55499267578</ele>
        <time>2009-09-17T12:38:27Z</time>
      </trkpt>
      <trkpt lat="45.00491" lon="4.97589">
        <ele>180.42300415039</ele>
        <time>2009-09-17T12:38:46Z</time>
      </trkpt>
      <trkpt lat="45.00465" lon="4.9775">
        <ele>180.33599853516</ele>
        <time>2009-09-17T12:39:05Z</time>
      </trkpt>
      <trkpt lat="45.00439" lon="4.97902">
        <ele>176.32200622559</ele>
        <time>2009-09-17T12:39:19Z</time>
      </trkpt>
      <trkpt lat="45.00383" lon="4.98109">
        <ele>173.46200561523</ele>
        <time>2009-09-17T12:39:35Z</time>
      </trkpt>
      <trkpt lat="45.00316" lon="4.98323">
        <ele>174.29100036621</ele>
        <time>2009-09-17T12:39:54Z</time>
      </trkpt>
      <trkpt lat="45.00298" lon="4.98501">
        <ele>173.25</ele>
        <time>2009-09-17T12:40:08Z</time>
      </trkpt>
      <trkpt lat="45.00293" lon="4.98559">
        <ele>174.0299987793</ele>
        <time>2009-09-17T12:40:13Z</time>
      </trkpt>
      <trkpt lat="45.00284" lon="4.98598">
        <ele>174.48500061035</ele>
        <time>2009-09-17T12:40:17Z</time>
      </trkpt>
      <trkpt lat="45.00277" lon="4.98647">
        <ele>174.75</ele>
        <time>2009-09-17T12:40:22Z</time>
      </trkpt>
      <trkpt lat="45.00274" lon="4.988">
        <ele>174.83700561523</ele>
        <time>2009-09-17T12:40:36Z</time>
      </trkpt>
      <trkpt lat="45.00259" lon="4.98957">
        <ele>174.72900390625</ele>
        <time>2009-09-17T12:40:51Z</time>
      </trkpt>
      <trkpt lat="45.00225" lon="4.99123">
        <ele>174.57800292969</ele>
        <time>2009-09-17T12:41:08Z</time>
      </trkpt>
      <trkpt lat="45.00147" lon="4.99288">
        <ele>173.00500488281</ele>
        <time>2009-09-17T12:41:26Z</time>
      </trkpt>
      <trkpt lat="45.00133" lon="4.99346">
        <ele>174.20300292969</ele>
        <time>2009-09-17T12:41:32Z</time>
      </trkpt>
      <trkpt lat="45.00107" lon="4.99419">
        <ele>176.53100585938</ele>
        <time>2009-09-17T12:41:41Z</time>
      </trkpt>
      <trkpt lat="45.00042" lon="4.99524">
        <ele>175.77799987793</ele>
        <time>2009-09-17T12:41:55Z</time>
      </trkpt>
      <trkpt lat="44.99958" lon="4.99661">
        <ele>175.06399536133</ele>
        <time>2009-09-17T12:42:13Z</time>
      </trkpt>
      <trkpt lat="44.99941" lon="4.99675">
        <ele>175.54400634766</ele>
        <time>2009-09-17T12:42:17Z</time>
      </trkpt>
      <trkpt lat="44.99932" lon="4.99677">
        <ele>175.48100280762</ele>
        <time>2009-09-17T12:42:19Z</time>
      </trkpt>
      <trkpt lat="44.99912" lon="4.99704">
        <ele>175.36099243164</ele>
        <time>2009-09-17T12:42:24Z</time>
      </trkpt>
      <trkpt lat="44.99846" lon="4.99757">
        <ele>171.64300537109</ele>
        <time>2009-09-17T12:42:34Z</time>
      </trkpt>
      <trkpt lat="44.99757" lon="4.99864">
        <ele>170.47599792481</ele>
        <time>2009-09-17T12:42:48Z</time>
      </trkpt>
      <trkpt lat="44.99738" lon="4.99895">
        <ele>171.27900695801</ele>
        <time>2009-09-17T12:42:52Z</time>
      </trkpt>
      <trkpt lat="44.99724" lon="4.99927">
        <ele>172.08799743652</ele>
        <time>2009-09-17T12:42:56Z</time>
      </trkpt>
      <trkpt lat="44.99715" lon="4.99959">
        <ele>173.45100402832</ele>
        <time>2009-09-17T12:43:00Z</time>
      </trkpt>
      <trkpt lat="44.99709" lon="4.99983">
        <ele>174.16299438477</ele>
        <time>2009-09-17T12:43:03Z</time>
      </trkpt>
      <trkpt lat="44.99689" lon="5.00045">
        <ele>175.88999938965</ele>
        <time>2009-09-17T12:43:11Z</time>
      </trkpt>
      <trkpt lat="44.99672" lon="5.00104">
        <ele>175.97799682617</ele>
        <time>2009-09-17T12:43:18Z</time>
      </trkpt>
      <trkpt lat="44.99666" lon="5.0011">
        <ele>175.89900207519</ele>
        <time>2009-09-17T12:43:19Z</time>
      </trkpt>
      <trkpt lat="44.99571" lon="5.00217">
        <ele>175.85400390625</ele>
        <time>2009-09-17T12:43:35Z</time>
      </trkpt>
      <trkpt lat="44.99478" lon="5.00302">
        <ele>175.09199523926</ele>
        <time>2009-09-17T12:43:49Z</time>
      </trkpt>
      <trkpt lat="44.99347" lon="5.00351">
        <ele>173.68099975586</ele>
        <time>2009-09-17T12:44:05Z</time>
      </trkpt>
      <trkpt lat="44.99181" lon="5.00413">
        <ele>173.71000671387</ele>
        <time>2009-09-17T12:44:26Z</time>
      </trkpt>
      <trkpt lat="44.99059" lon="5.0054">
        <ele>174.89300537109</ele>
        <time>2009-09-17T12:44:45Z</time>
      </trkpt>
      <trkpt lat="44.98937" lon="5.00651">
        <ele>175.1190032959</ele>
        <time>2009-09-17T12:45:04Z</time>
      </trkpt>
      <trkpt lat="44.98779" lon="5.00765">
        <ele>174.82400512695</ele>
        <time>2009-09-17T12:45:26Z</time>
      </trkpt>
      <trkpt lat="44.98676" lon="5.00878">
        <ele>174.48500061035</ele>
        <time>2009-09-17T12:45:42Z</time>
      </trkpt>
      <trkpt lat="44.98576" lon="5.01022">
        <ele>173.68499755859</ele>
        <time>2009-09-17T12:46:00Z</time>
      </trkpt>
      <trkpt lat="44.98451" lon="5.01199">
        <ele>174.54600524902</ele>
        <time>2009-09-17T12:46:23Z</time>
      </trkpt>
      <trkpt lat="44.98375" lon="5.01311">
        <ele>176.02499389648</ele>
        <time>2009-09-17T12:46:39Z</time>
      </trkpt>
      <trkpt lat="44.98234" lon="5.01506">
        <ele>176.16200256348</ele>
        <time>2009-09-17T12:47:05Z</time>
      </trkpt>
      <trkpt lat="44.98136" lon="5.0165">
        <ele>178.24699401856</ele>
        <time>2009-09-17T12:47:24Z</time>
      </trkpt>
      <trkpt lat="44.98071" lon="5.0172">
        <ele>181.94200134277</ele>
        <time>2009-09-17T12:47:38Z</time>
      </trkpt>
      <trkpt lat="44.98025" lon="5.01768">
        <ele>184.76499938965</ele>
        <time>2009-09-17T12:47:49Z</time>
      </trkpt>
      <trkpt lat="44.97997" lon="5.01799">
        <ele>186.61999511719</ele>
        <time>2009-09-17T12:47:56Z</time>
      </trkpt>
      <trkpt lat="44.97925" lon="5.01911">
        <ele>188.27900695801</ele>
        <time>2009-09-17T12:48:16Z</time>
      </trkpt>
      <trkpt lat="44.97857" lon="5.0207">
        <ele>185.82000732422</ele>
        <time>2009-09-17T12:48:33Z</time>
      </trkpt>
      <trkpt lat="44.97791" lon="5.02222">
        <ele>183.32800292969</ele>
        <time>2009-09-17T12:48:48Z</time>
      </trkpt>
      <trkpt lat="44.9774" lon="5.02344">
        <ele>182.81500244141</ele>
        <time>2009-09-17T12:49:00Z</time>
      </trkpt>
      <trkpt lat="44.97659" lon="5.02534">
        <ele>184.22799682617</ele>
        <time>2009-09-17T12:49:21Z</time>
      </trkpt>
      <trkpt lat="44.97599" lon="5.0267">
        <ele>184.21499633789</ele>
        <time>2009-09-17T12:49:36Z</time>
      </trkpt>
      <trkpt lat="44.97579" lon="5.02714">
        <ele>184.56300354004</ele>
        <time>2009-09-17T12:49:41Z</time>
      </trkpt>
      <trkpt lat="44.97555" lon="5.02745">
        <ele>185.19799804688</ele>
        <time>2009-09-17T12:49:46Z</time>
      </trkpt>
      <trkpt lat="44.97528" lon="5.02768">
        <ele>186.07600402832</ele>
        <time>2009-09-17T12:49:52Z</time>
      </trkpt>
      <trkpt lat="44.97495" lon="5.02773">
        <ele>186.24299621582</ele>
        <time>2009-09-17T12:50:00Z</time>
      </trkpt>
      <trkpt lat="44.97489" lon="5.02796">
        <ele>185.56300354004</ele>
        <time>2009-09-17T12:50:03Z</time>
      </trkpt>
      <trkpt lat="44.97482" lon="5.0281">
        <ele>185.66700744629</ele>
        <time>2009-09-17T12:50:05Z</time>
      </trkpt>
      <trkpt lat="44.97479" lon="5.02827">
        <ele>186.53900146484</ele>
        <time>2009-09-17T12:50:07Z</time>
      </trkpt>
      <trkpt lat="44.97455" lon="5.0295">
        <ele>187.86599731445</ele>
        <time>2009-09-17T12:50:21Z</time>
      </trkpt>
      <trkpt lat="44.97452" lon="5.02968">
        <ele>188.06500244141</ele>
        <time>2009-09-17T12:50:23Z</time>
      </trkpt>
      <trkpt lat="44.97452" lon="5.0317">
        <ele>188.24200439453</ele>
        <time>2009-09-17T12:50:43Z</time>
      </trkpt>
      <trkpt lat="44.97456" lon="5.03389">
        <ele>188.96499633789</ele>
        <time>2009-09-17T12:51:04Z</time>
      </trkpt>
      <trkpt lat="44.97466" lon="5.03581">
        <ele>190.44700622559</ele>
        <time>2009-09-17T12:51:23Z</time>
      </trkpt>
      <trkpt lat="44.97462" lon="5.03783">
        <ele>192.08099365234</ele>
        <time>2009-09-17T12:51:43Z</time>
      </trkpt>
      <trkpt lat="44.9742" lon="5.04002">
        <ele>194.17900085449</ele>
        <time>2009-09-17T12:52:05Z</time>
      </trkpt>
      <trkpt lat="44.97375" lon="5.04232">
        <ele>196.51899719238</ele>
        <time>2009-09-17T12:52:29Z</time>
      </trkpt>
      <trkpt lat="44.97327" lon="5.04397">
        <ele>198.95399475098</ele>
        <time>2009-09-17T12:52:48Z</time>
      </trkpt>
      <trkpt lat="44.97261" lon="5.04594">
        <ele>201.51699829102</ele>
        <time>2009-09-17T12:53:11Z</time>
      </trkpt>
      <trkpt lat="44.97242" lon="5.04665">
        <ele>202.20899963379</ele>
        <time>2009-09-17T12:53:19Z</time>
      </trkpt>
      <trkpt lat="44.97237" lon="5.04684">
        <ele>202.66900634766</ele>
        <time>2009-09-17T12:53:21Z</time>
      </trkpt>
      <trkpt lat="44.97235" lon="5.04693">
        <ele>202.79899597168</ele>
        <time>2009-09-17T12:53:22Z</time>
      </trkpt>
      <trkpt lat="44.97224" lon="5.04761">
        <ele>203.51499938965</ele>
        <time>2009-09-17T12:53:29Z</time>
      </trkpt>
      <trkpt lat="44.97221" lon="5.0481">
        <ele>203.62699890137</ele>
        <time>2009-09-17T12:53:34Z</time>
      </trkpt>
      <trkpt lat="44.97217" lon="5.04966">
        <ele>204.92900085449</ele>
        <time>2009-09-17T12:53:50Z</time>
      </trkpt>
      <trkpt lat="44.97212" lon="5.05141">
        <ele>207.08099365234</ele>
        <time>2009-09-17T12:54:07Z</time>
      </trkpt>
      <trkpt lat="44.97199" lon="5.05318">
        <ele>208.64700317383</ele>
        <time>2009-09-17T12:54:25Z</time>
      </trkpt>
      <trkpt lat="44.97166" lon="5.05531">
        <ele>212.04299926758</ele>
        <time>2009-09-17T12:54:50Z</time>
      </trkpt>
      <trkpt lat="44.9714" lon="5.0564">
        <ele>215.41999816894</ele>
        <time>2009-09-17T12:55:07Z</time>
      </trkpt>
      <trkpt lat="44.97127" lon="5.05693">
        <ele>217.44700622559</ele>
        <time>2009-09-17T12:55:16Z</time>
      </trkpt>
      <trkpt lat="44.97116" lon="5.05724">
        <ele>217.94099426269</ele>
        <time>2009-09-17T12:55:21Z</time>
      </trkpt>
      <trkpt lat="44.97074" lon="5.05817">
        <ele>220.1190032959</ele>
        <time>2009-09-17T12:55:37Z</time>
      </trkpt>
      <trkpt lat="44.97014" lon="5.05923">
        <ele>221.48599243164</ele>
        <time>2009-09-17T12:55:54Z</time>
      </trkpt>
      <trkpt lat="44.96951" lon="5.06082">
        <ele>221.06700134277</ele>
        <time>2009-09-17T12:56:13Z</time>
      </trkpt>
      <trkpt lat="44.96886" lon="5.06237">
        <ele>223.34599304199</ele>
        <time>2009-09-17T12:56:33Z</time>
      </trkpt>
      <trkpt lat="44.9681" lon="5.06405">
        <ele>225.71499633789</ele>
        <time>2009-09-17T12:56:55Z</time>
      </trkpt>
      <trkpt lat="44.96743" lon="5.06545">
        <ele>227.85000610352</ele>
        <time>2009-09-17T12:57:13Z</time>
      </trkpt>
      <trkpt lat="44.96675" lon="5.06712">
        <ele>230.44500732422</ele>
        <time>2009-09-17T12:57:34Z</time>
      </trkpt>
      <trkpt lat="44.96642" lon="5.06885">
        <ele>232.64100646973</ele>
        <time>2009-09-17T12:57:53Z</time>
      </trkpt>
      <trkpt lat="44.96597" lon="5.07027">
        <ele>234.50399780273</ele>
        <time>2009-09-17T12:58:10Z</time>
      </trkpt>
      <trkpt lat="44.9654" lon="5.07157">
        <ele>237.73599243164</ele>
        <time>2009-09-17T12:58:28Z</time>
      </trkpt>
      <trkpt lat="44.96516" lon="5.07312">
        <ele>239.37600708008</ele>
        <time>2009-09-17T12:58:46Z</time>
      </trkpt>
      <trkpt lat="44.96498" lon="5.07484">
        <ele>241.99800109863</ele>
        <time>2009-09-17T12:59:06Z</time>
      </trkpt>
      <trkpt lat="44.96493" lon="5.07591">
        <ele>243.81199645996</ele>
        <time>2009-09-17T12:59:18Z</time>
      </trkpt>
      <trkpt lat="44.96494" lon="5.07636">
        <ele>245.5299987793</ele>
        <time>2009-09-17T12:59:23Z</time>
      </trkpt>
      <trkpt lat="44.96497" lon="5.0768">
        <ele>245.9640045166</ele>
        <time>2009-09-17T12:59:28Z</time>
      </trkpt>
      <trkpt lat="44.96496" lon="5.07765">
        <ele>247.64900207519</ele>
        <time>2009-09-17T12:59:38Z</time>
      </trkpt>
      <trkpt lat="44.96491" lon="5.07797">
        <ele>248.1309967041</ele>
        <time>2009-09-17T12:59:42Z</time>
      </trkpt>
      <trkpt lat="44.96447" lon="5.07935">
        <ele>250.56300354004</ele>
        <time>2009-09-17T12:59:59Z</time>
      </trkpt>
      <trkpt lat="44.96445" lon="5.07944">
        <ele>250.75100708008</ele>
        <time>2009-09-17T13:00:00Z</time>
      </trkpt>
      <trkpt lat="44.96434" lon="5.07986">
        <ele>251.18699645996</ele>
        <time>2009-09-17T13:00:05Z</time>
      </trkpt>
      <trkpt lat="44.96417" lon="5.08001">
        <ele>252.77900695801</ele>
        <time>2009-09-17T13:00:09Z</time>
      </trkpt>
      <trkpt lat="44.96401" lon="5.07996">
        <ele>252.35000610352</ele>
        <time>2009-09-17T13:00:12Z</time>
      </trkpt>
      <trkpt lat="44.96296" lon="5.0795">
        <ele>254.08999633789</ele>
        <time>2009-09-17T13:00:29Z</time>
      </trkpt>
      <trkpt lat="44.96209" lon="5.07976">
        <ele>256.12600708008</ele>
        <time>2009-09-17T13:00:43Z</time>
      </trkpt>
      <trkpt lat="44.96184" lon="5.07975">
        <ele>257.29400634766</ele>
        <time>2009-09-17T13:00:47Z</time>
      </trkpt>
      <trkpt lat="44.96095" lon="5.07943">
        <ele>257.63598632812</ele>
        <time>2009-09-17T13:01:01Z</time>
      </trkpt>
      <trkpt lat="44.95969" lon="5.0797">
        <ele>259.16900634766</ele>
        <time>2009-09-17T13:01:19Z</time>
      </trkpt>
      <trkpt lat="44.95962" lon="5.0797">
        <ele>259.23999023438</ele>
        <time>2009-09-17T13:01:20Z</time>
      </trkpt>
      <trkpt lat="44.95865" lon="5.07965">
        <ele>261.78298950195</ele>
        <time>2009-09-17T13:01:35Z</time>
      </trkpt>
      <trkpt lat="44.9577" lon="5.08018">
        <ele>263.95001220703</ele>
        <time>2009-09-17T13:01:51Z</time>
      </trkpt>
      <trkpt lat="44.95657" lon="5.08092">
        <ele>264.18499755859</ele>
        <time>2009-09-17T13:02:08Z</time>
      </trkpt>
      <trkpt lat="44.95522" lon="5.08187">
        <ele>266.97299194336</ele>
        <time>2009-09-17T13:02:29Z</time>
      </trkpt>
      <trkpt lat="44.95488" lon="5.08201">
        <ele>267.20098876953</ele>
        <time>2009-09-17T13:02:34Z</time>
      </trkpt>
      <trkpt lat="44.95414" lon="5.08208">
        <ele>268.51400756836</ele>
        <time>2009-09-17T13:02:45Z</time>
      </trkpt>
      <trkpt lat="44.95389" lon="5.08222">
        <ele>269.30499267578</ele>
        <time>2009-09-17T13:02:49Z</time>
      </trkpt>
      <trkpt lat="44.95313" lon="5.0832">
        <ele>271.20700073242</ele>
        <time>2009-09-17T13:03:05Z</time>
      </trkpt>
      <trkpt lat="44.95221" lon="5.08446">
        <ele>274.90701293945</ele>
        <time>2009-09-17T13:03:26Z</time>
      </trkpt>
      <trkpt lat="44.9512" lon="5.08581">
        <ele>277.91299438477</ele>
        <time>2009-09-17T13:03:49Z</time>
      </trkpt>
      <trkpt lat="44.95077" lon="5.08639">
        <ele>279.89999389648</ele>
        <time>2009-09-17T13:03:59Z</time>
      </trkpt>
      <trkpt lat="44.95033" lon="5.08647">
        <ele>281.19400024414</ele>
        <time>2009-09-17T13:04:07Z</time>
      </trkpt>
      <trkpt lat="44.94952" lon="5.08596">
        <ele>282.51400756836</ele>
        <time>2009-09-17T13:04:21Z</time>
      </trkpt>
      <trkpt lat="44.94907" lon="5.08604">
        <ele>283.10800170898</ele>
        <time>2009-09-17T13:04:28Z</time>
      </trkpt>
      <trkpt lat="44.94772" lon="5.08702">
        <ele>285.48498535156</ele>
        <time>2009-09-17T13:04:50Z</time>
      </trkpt>
      <trkpt lat="44.94652" lon="5.08791">
        <ele>288.125</ele>
        <time>2009-09-17T13:05:11Z</time>
      </trkpt>
      <trkpt lat="44.94576" lon="5.08873">
        <ele>290.32299804688</ele>
        <time>2009-09-17T13:05:26Z</time>
      </trkpt>
      <trkpt lat="44.94556" lon="5.08908">
        <ele>291.56500244141</ele>
        <time>2009-09-17T13:05:31Z</time>
      </trkpt>
      <trkpt lat="44.94516" lon="5.08935">
        <ele>291.83401489258</ele>
        <time>2009-09-17T13:05:38Z</time>
      </trkpt>
      <trkpt lat="44.9438" lon="5.08944">
        <ele>291.47698974609</ele>
        <time>2009-09-17T13:05:57Z</time>
      </trkpt>
      <trkpt lat="44.94291" lon="5.08953">
        <ele>290.92001342773</ele>
        <time>2009-09-17T13:06:10Z</time>
      </trkpt>
      <trkpt lat="44.9426" lon="5.08976">
        <ele>290.54501342773</ele>
        <time>2009-09-17T13:06:15Z</time>
      </trkpt>
      <trkpt lat="44.94234" lon="5.09017">
        <ele>290.75500488281</ele>
        <time>2009-09-17T13:06:21Z</time>
      </trkpt>
      <trkpt lat="44.94224" lon="5.09046">
        <ele>291.26998901367</ele>
        <time>2009-09-17T13:06:25Z</time>
      </trkpt>
      <trkpt lat="44.94216" lon="5.09079">
        <ele>291.61898803711</ele>
        <time>2009-09-17T13:06:34Z</time>
      </trkpt>
      <trkpt lat="44.94225" lon="5.09094">
        <ele>291.59399414062</ele>
        <time>2009-09-17T13:06:37Z</time>
      </trkpt>
      <trkpt lat="44.94235" lon="5.09121">
        <ele>292.6969909668</ele>
        <time>2009-09-17T13:06:41Z</time>
      </trkpt>
      <trkpt lat="44.94257" lon="5.09226">
        <ele>295.06698608398</ele>
        <time>2009-09-17T13:06:56Z</time>
      </trkpt>
      <trkpt lat="44.94271" lon="5.09305">
        <ele>296.5719909668</ele>
        <time>2009-09-17T13:07:07Z</time>
      </trkpt>
      <trkpt lat="44.94269" lon="5.09343">
        <ele>297.37799072266</ele>
        <time>2009-09-17T13:07:12Z</time>
      </trkpt>
      <trkpt lat="44.94227" lon="5.09474">
        <ele>300.98300170898</ele>
        <time>2009-09-17T13:07:31Z</time>
      </trkpt>
      <trkpt lat="44.94183" lon="5.09629">
        <ele>303.03201293945</ele>
        <time>2009-09-17T13:07:51Z</time>
      </trkpt>
      <trkpt lat="44.94158" lon="5.09777">
        <ele>305.47299194336</ele>
        <time>2009-09-17T13:08:09Z</time>
      </trkpt>
      <trkpt lat="44.94148" lon="5.09862">
        <ele>307.53298950195</ele>
        <time>2009-09-17T13:08:20Z</time>
      </trkpt>
      <trkpt lat="44.9417" lon="5.09985">
        <ele>311.59799194336</ele>
        <time>2009-09-17T13:08:38Z</time>
      </trkpt>
      <trkpt lat="44.94193" lon="5.10076">
        <ele>314.88400268555</ele>
        <time>2009-09-17T13:08:53Z</time>
      </trkpt>
      <trkpt lat="44.94226" lon="5.10172">
        <ele>317.72698974609</ele>
        <time>2009-09-17T13:09:09Z</time>
      </trkpt>
      <trkpt lat="44.94231" lon="5.10183">
        <ele>318.12298583984</ele>
        <time>2009-09-17T13:09:11Z</time>
      </trkpt>
      <trkpt lat="44.9425" lon="5.10231">
        <ele>319.88000488281</ele>
        <time>2009-09-17T13:09:19Z</time>
      </trkpt>
      <trkpt lat="44.94288" lon="5.10347">
        <ele>323.60000610352</ele>
        <time>2009-09-17T13:09:37Z</time>
      </trkpt>
      <trkpt lat="44.94294" lon="5.10381">
        <ele>324.77200317383</ele>
        <time>2009-09-17T13:09:42Z</time>
      </trkpt>
      <trkpt lat="44.94321" lon="5.10536">
        <ele>328.85800170898</ele>
        <time>2009-09-17T13:10:04Z</time>
      </trkpt>
      <trkpt lat="44.94345" lon="5.10683">
        <ele>332.82998657227</ele>
        <time>2009-09-17T13:10:25Z</time>
      </trkpt>
      <trkpt lat="44.94347" lon="5.10827">
        <ele>337.51400756836</ele>
        <time>2009-09-17T13:10:44Z</time>
      </trkpt>
      <trkpt lat="44.94342" lon="5.10856">
        <ele>337.94900512695</ele>
        <time>2009-09-17T13:10:48Z</time>
      </trkpt>
      <trkpt lat="44.94286" lon="5.10998">
        <ele>344.32699584961</ele>
        <time>2009-09-17T13:11:08Z</time>
      </trkpt>
      <trkpt lat="44.94246" lon="5.11142">
        <ele>348.89099121094</ele>
        <time>2009-09-17T13:11:27Z</time>
      </trkpt>
      <trkpt lat="44.94204" lon="5.1131">
        <ele>354.91101074219</ele>
        <time>2009-09-17T13:11:50Z</time>
      </trkpt>
      <trkpt lat="44.94157" lon="5.11479">
        <ele>361.29098510742</ele>
        <time>2009-09-17T13:12:12Z</time>
      </trkpt>
      <trkpt lat="44.94102" lon="5.11611">
        <ele>366.57998657227</ele>
        <time>2009-09-17T13:12:32Z</time>
      </trkpt>
      <trkpt lat="44.94052" lon="5.11723">
        <ele>369.79400634766</ele>
        <time>2009-09-17T13:12:50Z</time>
      </trkpt>
      <trkpt lat="44.94011" lon="5.11736">
        <ele>371.1130065918</ele>
        <time>2009-09-17T13:12:59Z</time>
      </trkpt>
      <trkpt lat="44.93934" lon="5.1168">
        <ele>372.90200805664</ele>
        <time>2009-09-17T13:13:16Z</time>
      </trkpt>
      <trkpt lat="44.93929" lon="5.11677">
        <ele>373.0539855957</ele>
        <time>2009-09-17T13:13:17Z</time>
      </trkpt>
      <trkpt lat="44.93914" lon="5.11668">
        <ele>373.04000854492</ele>
        <time>2009-09-17T13:13:20Z</time>
      </trkpt>
      <trkpt lat="44.939" lon="5.11657">
        <ele>372.31799316406</ele>
        <time>2009-09-17T13:13:23Z</time>
      </trkpt>
      <trkpt lat="44.93867" lon="5.11636">
        <ele>370.85101318359</ele>
        <time>2009-09-17T13:13:29Z</time>
      </trkpt>
      <trkpt lat="44.93849" lon="5.11584">
        <ele>368.9469909668</ele>
        <time>2009-09-17T13:13:35Z</time>
      </trkpt>
      <trkpt lat="44.93848" lon="5.11504">
        <ele>365.95199584961</ele>
        <time>2009-09-17T13:13:42Z</time>
      </trkpt>
      <trkpt lat="44.93848" lon="5.11445">
        <ele>364.23199462891</ele>
        <time>2009-09-17T13:13:47Z</time>
      </trkpt>
      <trkpt lat="44.93848" lon="5.11408">
        <ele>362.61700439453</ele>
        <time>2009-09-17T13:13:50Z</time>
      </trkpt>
      <trkpt lat="44.93848" lon="5.11396">
        <ele>362.41000366211</ele>
        <time>2009-09-17T13:13:51Z</time>
      </trkpt>
      <trkpt lat="44.93847" lon="5.11298">
        <ele>359.48300170898</ele>
        <time>2009-09-17T13:13:59Z</time>
      </trkpt>
      <trkpt lat="44.93844" lon="5.11234">
        <ele>357.49700927734</ele>
        <time>2009-09-17T13:14:04Z</time>
      </trkpt>
      <trkpt lat="44.9383" lon="5.11156">
        <ele>353.89700317383</ele>
        <time>2009-09-17T13:14:10Z</time>
      </trkpt>
      <trkpt lat="44.93827" lon="5.10988">
        <ele>347.16198730469</ele>
        <time>2009-09-17T13:14:21Z</time>
      </trkpt>
      <trkpt lat="44.93826" lon="5.10957">
        <ele>346.09201049805</ele>
        <time>2009-09-17T13:14:23Z</time>
      </trkpt>
      <trkpt lat="44.93826" lon="5.10926">
        <ele>345.09298706055</ele>
        <time>2009-09-17T13:14:25Z</time>
      </trkpt>
      <trkpt lat="44.93822" lon="5.10864">
        <ele>343.0710144043</ele>
        <time>2009-09-17T13:14:29Z</time>
      </trkpt>
      <trkpt lat="44.938" lon="5.10743">
        <ele>338.46798706055</ele>
        <time>2009-09-17T13:14:37Z</time>
      </trkpt>
      <trkpt lat="44.9375" lon="5.10498">
        <ele>327.33999633789</ele>
        <time>2009-09-17T13:14:52Z</time>
      </trkpt>
      <trkpt lat="44.9374" lon="5.10426">
        <ele>322.77301025391</ele>
        <time>2009-09-17T13:14:56Z</time>
      </trkpt>
      <trkpt lat="44.93726" lon="5.10298">
        <ele>316.22399902344</ele>
        <time>2009-09-17T13:15:03Z</time>
      </trkpt>
      <trkpt lat="44.93718" lon="5.10243">
        <ele>313.56201171875</ele>
        <time>2009-09-17T13:15:06Z</time>
      </trkpt>
      <trkpt lat="44.93711" lon="5.10208">
        <ele>313.11099243164</ele>
        <time>2009-09-17T13:15:08Z</time>
      </trkpt>
      <trkpt lat="44.93703" lon="5.10175">
        <ele>312.38101196289</ele>
        <time>2009-09-17T13:15:10Z</time>
      </trkpt>
      <trkpt lat="44.93673" lon="5.10067">
        <ele>311.10101318359</ele>
        <time>2009-09-17T13:15:18Z</time>
      </trkpt>
      <trkpt lat="44.93663" lon="5.1003">
        <ele>311.34399414062</ele>
        <time>2009-09-17T13:15:21Z</time>
      </trkpt>
      <trkpt lat="44.93659" lon="5.09941">
        <ele>312.35501098633</ele>
        <time>2009-09-17T13:15:29Z</time>
      </trkpt>
      <trkpt lat="44.93657" lon="5.09925">
        <ele>312.95401000977</ele>
        <time>2009-09-17T13:15:31Z</time>
      </trkpt>
      <trkpt lat="44.93657" lon="5.09909">
        <ele>313.08200073242</ele>
        <time>2009-09-17T13:15:33Z</time>
      </trkpt>
      <trkpt lat="44.93661" lon="5.09883">
        <ele>313.48001098633</ele>
        <time>2009-09-17T13:15:36Z</time>
      </trkpt>
      <trkpt lat="44.93675" lon="5.09851">
        <ele>313.97900390625</ele>
        <time>2009-09-17T13:15:40Z</time>
      </trkpt>
      <trkpt lat="44.93686" lon="5.09818">
        <ele>313.875</ele>
        <time>2009-09-17T13:15:44Z</time>
      </trkpt>
      <trkpt lat="44.93698" lon="5.0977">
        <ele>312.97698974609</ele>
        <time>2009-09-17T13:15:49Z</time>
      </trkpt>
      <trkpt lat="44.93706" lon="5.09647">
        <ele>308.91799926758</ele>
        <time>2009-09-17T13:16:00Z</time>
      </trkpt>
      <trkpt lat="44.93707" lon="5.09626">
        <ele>308.75299072266</ele>
        <time>2009-09-17T13:16:02Z</time>
      </trkpt>
      <trkpt lat="44.93708" lon="5.09579">
        <ele>308.72100830078</ele>
        <time>2009-09-17T13:16:07Z</time>
      </trkpt>
      <trkpt lat="44.93711" lon="5.09569">
        <ele>309.39401245117</ele>
        <time>2009-09-17T13:16:14Z</time>
      </trkpt>
      <trkpt lat="44.93706" lon="5.0959">
        <ele>309.49899291992</ele>
        <time>2009-09-17T13:16:18Z</time>
      </trkpt>
      <trkpt lat="44.93706" lon="5.09603">
        <ele>309.89498901367</ele>
        <time>2009-09-17T13:16:20Z</time>
      </trkpt>
      <trkpt lat="44.93701" lon="5.09666">
        <ele>311.2200012207</ele>
        <time>2009-09-17T13:16:33Z</time>
      </trkpt>
      <trkpt lat="44.93699" lon="5.09722">
        <ele>311.88598632812</ele>
        <time>2009-09-17T13:16:44Z</time>
      </trkpt>
      <trkpt lat="44.93695" lon="5.09762">
        <ele>312.81799316406</ele>
        <time>2009-09-17T13:16:49Z</time>
      </trkpt>
      <trkpt lat="44.93694" lon="5.09783">
        <ele>313.53100585938</ele>
        <time>2009-09-17T13:16:52Z</time>
      </trkpt>
      <trkpt lat="44.93689" lon="5.09827">
        <ele>314.22299194336</ele>
        <time>2009-09-17T13:16:59Z</time>
      </trkpt>
      <trkpt lat="44.93663" lon="5.09902">
        <ele>313.88900756836</ele>
        <time>2009-09-17T13:17:10Z</time>
      </trkpt>
      <trkpt lat="44.93653" lon="5.09938">
        <ele>313.09698486328</ele>
        <time>2009-09-17T13:17:14Z</time>
      </trkpt>
      <trkpt lat="44.93641" lon="5.09961">
        <ele>314.40301513672</ele>
        <time>2009-09-17T13:17:18Z</time>
      </trkpt>
      <trkpt lat="44.93621" lon="5.09973">
        <ele>317.10101318359</ele>
        <time>2009-09-17T13:17:24Z</time>
      </trkpt>
      <trkpt lat="44.93611" lon="5.09978">
        <ele>318.89498901367</ele>
        <time>2009-09-17T13:17:28Z</time>
      </trkpt>
      <trkpt lat="44.93584" lon="5.09986">
        <ele>321.27801513672</ele>
        <time>2009-09-17T13:17:39Z</time>
      </trkpt>
      <trkpt lat="44.93541" lon="5.09995">
        <ele>324.67999267578</ele>
        <time>2009-09-17T13:17:52Z</time>
      </trkpt>
      <trkpt lat="44.93499" lon="5.1">
        <ele>328.74899291992</ele>
        <time>2009-09-17T13:18:06Z</time>
      </trkpt>
      <trkpt lat="44.93476" lon="5.10003">
        <ele>331.61401367188</ele>
        <time>2009-09-17T13:18:15Z</time>
      </trkpt>
      <trkpt lat="44.93451" lon="5.10007">
        <ele>335.08700561523</ele>
        <time>2009-09-17T13:18:27Z</time>
      </trkpt>
      <trkpt lat="44.93416" lon="5.10011">
        <ele>339.42098999023</ele>
        <time>2009-09-17T13:18:43Z</time>
      </trkpt>
      <trkpt lat="44.93387" lon="5.10014">
        <ele>342.77099609375</ele>
        <time>2009-09-17T13:18:56Z</time>
      </trkpt>
      <trkpt lat="44.93346" lon="5.10012">
        <ele>345.93798828125</ele>
        <time>2009-09-17T13:19:10Z</time>
      </trkpt>
      <trkpt lat="44.93307" lon="5.10027">
        <ele>346.77200317383</ele>
        <time>2009-09-17T13:19:22Z</time>
      </trkpt>
      <trkpt lat="44.93292" lon="5.10032">
        <ele>347.20098876953</ele>
        <time>2009-09-17T13:19:26Z</time>
      </trkpt>
      <trkpt lat="44.93262" lon="5.10036">
        <ele>347.89001464844</ele>
        <time>2009-09-17T13:19:36Z</time>
      </trkpt>
      <trkpt lat="44.93258" lon="5.10043">
        <ele>348.28601074219</ele>
        <time>2009-09-17T13:21:14Z</time>
      </trkpt>
      <trkpt lat="44.93257" lon="5.10044">
        <ele>348.27398681641</ele>
        <time>2009-09-17T13:21:15Z</time>
      </trkpt>
      <trkpt lat="44.93228" lon="5.10054">
        <ele>349.22299194336</ele>
        <time>2009-09-17T13:21:24Z</time>
      </trkpt>
      <trkpt lat="44.93174" lon="5.10097">
        <ele>348.69000244141</ele>
        <time>2009-09-17T13:21:38Z</time>
      </trkpt>
      <trkpt lat="44.93165" lon="5.10107">
        <ele>348.3219909668</ele>
        <time>2009-09-17T13:21:40Z</time>
      </trkpt>
      <trkpt lat="44.93105" lon="5.10188">
        <ele>346.90798950195</ele>
        <time>2009-09-17T13:21:53Z</time>
      </trkpt>
      <trkpt lat="44.93047" lon="5.10293">
        <ele>347.14001464844</ele>
        <time>2009-09-17T13:22:08Z</time>
      </trkpt>
      <trkpt lat="44.93015" lon="5.10362">
        <ele>347.72299194336</ele>
        <time>2009-09-17T13:22:18Z</time>
      </trkpt>
      <trkpt lat="44.92985" lon="5.10467">
        <ele>349.2799987793</ele>
        <time>2009-09-17T13:22:32Z</time>
      </trkpt>
      <trkpt lat="44.92977" lon="5.10505">
        <ele>349.68099975586</ele>
        <time>2009-09-17T13:22:37Z</time>
      </trkpt>
      <trkpt lat="44.92967" lon="5.10524">
        <ele>349.89999389648</ele>
        <time>2009-09-17T13:22:40Z</time>
      </trkpt>
      <trkpt lat="44.92959" lon="5.10534">
        <ele>350.15600585938</ele>
        <time>2009-09-17T13:22:42Z</time>
      </trkpt>
      <trkpt lat="44.92955" lon="5.10567">
        <ele>351.9049987793</ele>
        <time>2009-09-17T13:22:47Z</time>
      </trkpt>
      <trkpt lat="44.9297" lon="5.10614">
        <ele>352.61700439453</ele>
        <time>2009-09-17T13:22:54Z</time>
      </trkpt>
      <trkpt lat="44.92989" lon="5.10638">
        <ele>350.50799560547</ele>
        <time>2009-09-17T13:22:58Z</time>
      </trkpt>
      <trkpt lat="44.93023" lon="5.10659">
        <ele>345.9280090332</ele>
        <time>2009-09-17T13:23:02Z</time>
      </trkpt>
      <trkpt lat="44.93055" lon="5.10699">
        <ele>342.3630065918</ele>
        <time>2009-09-17T13:23:06Z</time>
      </trkpt>
      <trkpt lat="44.93093" lon="5.10776">
        <ele>344.72799682617</ele>
        <time>2009-09-17T13:23:13Z</time>
      </trkpt>
      <trkpt lat="44.93116" lon="5.10798">
        <ele>346.28500366211</ele>
        <time>2009-09-17T13:23:17Z</time>
      </trkpt>
      <trkpt lat="44.93225" lon="5.10848">
        <ele>347.25799560547</ele>
        <time>2009-09-17T13:23:34Z</time>
      </trkpt>
      <trkpt lat="44.93231" lon="5.10851">
        <ele>347.65701293945</ele>
        <time>2009-09-17T13:23:35Z</time>
      </trkpt>
      <trkpt lat="44.93252" lon="5.10877">
        <ele>349.9289855957</ele>
        <time>2009-09-17T13:23:40Z</time>
      </trkpt>
      <trkpt lat="44.93259" lon="5.10892">
        <ele>351.25399780273</ele>
        <time>2009-09-17T13:23:43Z</time>
      </trkpt>
      <trkpt lat="44.93277" lon="5.10924">
        <ele>350.82000732422</ele>
        <time>2009-09-17T13:23:49Z</time>
      </trkpt>
      <trkpt lat="44.93281" lon="5.10929">
        <ele>350.65701293945</ele>
        <time>2009-09-17T13:23:50Z</time>
      </trkpt>
      <trkpt lat="44.93275" lon="5.10957">
        <ele>349.625</ele>
        <time>2009-09-17T13:23:55Z</time>
      </trkpt>
      <trkpt lat="44.93253" lon="5.10971">
        <ele>351.10000610352</ele>
        <time>2009-09-17T13:24:00Z</time>
      </trkpt>
      <trkpt lat="44.93204" lon="5.10997">
        <ele>355.05700683594</ele>
        <time>2009-09-17T13:24:12Z</time>
      </trkpt>
      <trkpt lat="44.93168" lon="5.11019">
        <ele>357.65798950195</ele>
        <time>2009-09-17T13:24:22Z</time>
      </trkpt>
      <trkpt lat="44.93118" lon="5.11069">
        <ele>360.81100463867</ele>
        <time>2009-09-17T13:24:37Z</time>
      </trkpt>
      <trkpt lat="44.93065" lon="5.11132">
        <ele>364.60299682617</ele>
        <time>2009-09-17T13:24:52Z</time>
      </trkpt>
      <trkpt lat="44.93023" lon="5.112">
        <ele>367.49499511719</ele>
        <time>2009-09-17T13:25:07Z</time>
      </trkpt>
      <trkpt lat="44.93013" lon="5.11229">
        <ele>368.71701049805</ele>
        <time>2009-09-17T13:25:12Z</time>
      </trkpt>
      <trkpt lat="44.93002" lon="5.11276">
        <ele>371.40899658203</ele>
        <time>2009-09-17T13:25:21Z</time>
      </trkpt>
      <trkpt lat="44.93021" lon="5.11296">
        <ele>370.82501220703</ele>
        <time>2009-09-17T13:25:27Z</time>
      </trkpt>
      <trkpt lat="44.93031" lon="5.11302">
        <ele>369.67498779297</ele>
        <time>2009-09-17T13:25:29Z</time>
      </trkpt>
      <trkpt lat="44.93077" lon="5.11343">
        <ele>365.16101074219</ele>
        <time>2009-09-17T13:25:36Z</time>
      </trkpt>
      <trkpt lat="44.93084" lon="5.11352">
        <ele>364.74899291992</ele>
        <time>2009-09-17T13:25:37Z</time>
      </trkpt>
      <trkpt lat="44.93128" lon="5.11354">
        <ele>364.32299804688</ele>
        <time>2009-09-17T13:25:42Z</time>
      </trkpt>
      <trkpt lat="44.9316" lon="5.1133">
        <ele>366.31500244141</ele>
        <time>2009-09-17T13:25:47Z</time>
      </trkpt>
      <trkpt lat="44.93166" lon="5.11329">
        <ele>366.59698486328</ele>
        <time>2009-09-17T13:25:48Z</time>
      </trkpt>
      <trkpt lat="44.93226" lon="5.11322">
        <ele>365.82400512695</ele>
        <time>2009-09-17T13:25:58Z</time>
      </trkpt>
      <trkpt lat="44.93288" lon="5.11317">
        <ele>363.19799804688</ele>
        <time>2009-09-17T13:26:06Z</time>
      </trkpt>
      <trkpt lat="44.93314" lon="5.11312">
        <ele>362.38101196289</ele>
        <time>2009-09-17T13:26:09Z</time>
      </trkpt>
      <trkpt lat="44.93341" lon="5.11312">
        <ele>361.00399780273</ele>
        <time>2009-09-17T13:26:12Z</time>
      </trkpt>
      <trkpt lat="44.93365" lon="5.11328">
        <ele>361.22299194336</ele>
        <time>2009-09-17T13:26:15Z</time>
      </trkpt>
      <trkpt lat="44.93452" lon="5.11405">
        <ele>365.91000366211</ele>
        <time>2009-09-17T13:26:29Z</time>
      </trkpt>
      <trkpt lat="44.93518" lon="5.11446">
        <ele>369.23199462891</ele>
        <time>2009-09-17T13:26:42Z</time>
      </trkpt>
      <trkpt lat="44.93541" lon="5.11453">
        <ele>370.87200927734</ele>
        <time>2009-09-17T13:26:47Z</time>
      </trkpt>
      <trkpt lat="44.93562" lon="5.11462">
        <ele>372.2080078125</ele>
        <time>2009-09-17T13:26:52Z</time>
      </trkpt>
      <trkpt lat="44.93587" lon="5.11474">
        <ele>371.43301391602</ele>
        <time>2009-09-17T13:26:57Z</time>
      </trkpt>
      <trkpt lat="44.93628" lon="5.11513">
        <ele>368.42498779297</ele>
        <time>2009-09-17T13:27:04Z</time>
      </trkpt>
      <trkpt lat="44.93645" lon="5.1154">
        <ele>366.33599853516</ele>
        <time>2009-09-17T13:27:07Z</time>
      </trkpt>
      <trkpt lat="44.93678" lon="5.11569">
        <ele>363.84399414062</ele>
        <time>2009-09-17T13:27:11Z</time>
      </trkpt>
      <trkpt lat="44.93752" lon="5.11611">
        <ele>362.01501464844</ele>
        <time>2009-09-17T13:27:19Z</time>
      </trkpt>
      <trkpt lat="44.93782" lon="5.11621">
        <ele>364.01800537109</ele>
        <time>2009-09-17T13:27:23Z</time>
      </trkpt>
      <trkpt lat="44.93789" lon="5.11621">
        <ele>364.71200561523</ele>
        <time>2009-09-17T13:27:24Z</time>
      </trkpt>
      <trkpt lat="44.93795" lon="5.11622">
        <ele>364.83700561523</ele>
        <time>2009-09-17T13:27:25Z</time>
      </trkpt>
      <trkpt lat="44.93831" lon="5.1163">
        <ele>368.65600585938</ele>
        <time>2009-09-17T13:27:32Z</time>
      </trkpt>
      <trkpt lat="44.93844" lon="5.11632">
        <ele>370.47399902344</ele>
        <time>2009-09-17T13:27:35Z</time>
      </trkpt>
      <trkpt lat="44.93857" lon="5.11636">
        <ele>371.79598999023</ele>
        <time>2009-09-17T13:27:39Z</time>
      </trkpt>
      <trkpt lat="44.93872" lon="5.1164">
        <ele>372.42199707031</ele>
        <time>2009-09-17T13:27:43Z</time>
      </trkpt>
      <trkpt lat="44.93898" lon="5.11656">
        <ele>373.51599121094</ele>
        <time>2009-09-17T13:27:49Z</time>
      </trkpt>
      <trkpt lat="44.93962" lon="5.117">
        <ele>374.26501464844</ele>
        <time>2009-09-17T13:28:03Z</time>
      </trkpt>
      <trkpt lat="44.94004" lon="5.11732">
        <ele>372.30899047852</ele>
        <time>2009-09-17T13:28:10Z</time>
      </trkpt>
      <trkpt lat="44.94036" lon="5.1179">
        <ele>370.21398925781</ele>
        <time>2009-09-17T13:28:17Z</time>
      </trkpt>
      <trkpt lat="44.94066" lon="5.11817">
        <ele>368.40600585938</ele>
        <time>2009-09-17T13:28:21Z</time>
      </trkpt>
      <trkpt lat="44.94184" lon="5.11864">
        <ele>367.10000610352</ele>
        <time>2009-09-17T13:28:34Z</time>
      </trkpt>
      <trkpt lat="44.94306" lon="5.11914">
        <ele>364.55899047852</ele>
        <time>2009-09-17T13:28:48Z</time>
      </trkpt>
      <trkpt lat="44.94345" lon="5.11911">
        <ele>363.24301147461</ele>
        <time>2009-09-17T13:28:52Z</time>
      </trkpt>
      <trkpt lat="44.94419" lon="5.11902">
        <ele>359.57501220703</ele>
        <time>2009-09-17T13:28:59Z</time>
      </trkpt>
      <trkpt lat="44.94442" lon="5.11904">
        <ele>359.27801513672</ele>
        <time>2009-09-17T13:29:01Z</time>
      </trkpt>
      <trkpt lat="44.94483" lon="5.11923">
        <ele>359.64498901367</ele>
        <time>2009-09-17T13:29:05Z</time>
      </trkpt>
      <trkpt lat="44.94542" lon="5.11963">
        <ele>361.0299987793</ele>
        <time>2009-09-17T13:29:11Z</time>
      </trkpt>
      <trkpt lat="44.94551" lon="5.11968">
        <ele>361.92999267578</ele>
        <time>2009-09-17T13:29:12Z</time>
      </trkpt>
      <trkpt lat="44.94617" lon="5.11987">
        <ele>362.96798706055</ele>
        <time>2009-09-17T13:29:19Z</time>
      </trkpt>
      <trkpt lat="44.94672" lon="5.12013">
        <ele>364.32000732422</ele>
        <time>2009-09-17T13:29:25Z</time>
      </trkpt>
      <trkpt lat="44.94765" lon="5.1205">
        <ele>367.06600952148</ele>
        <time>2009-09-17T13:29:37Z</time>
      </trkpt>
      <trkpt lat="44.94871" lon="5.12097">
        <ele>364.74700927734</ele>
        <time>2009-09-17T13:29:50Z</time>
      </trkpt>
      <trkpt lat="44.94939" lon="5.12174">
        <ele>366.8219909668</ele>
        <time>2009-09-17T13:30:01Z</time>
      </trkpt>
      <trkpt lat="44.95017" lon="5.12274">
        <ele>370.63400268555</ele>
        <time>2009-09-17T13:30:18Z</time>
      </trkpt>
      <trkpt lat="44.95082" lon="5.12347">
        <ele>374.46899414062</ele>
        <time>2009-09-17T13:30:33Z</time>
      </trkpt>
      <trkpt lat="44.95152" lon="5.12417">
        <ele>376.73999023438</ele>
        <time>2009-09-17T13:30:48Z</time>
      </trkpt>
      <trkpt lat="44.9523" lon="5.12456">
        <ele>379.07501220703</ele>
        <time>2009-09-17T13:31:02Z</time>
      </trkpt>
      <trkpt lat="44.953" lon="5.12488">
        <ele>380.33499145508</ele>
        <time>2009-09-17T13:31:14Z</time>
      </trkpt>
      <trkpt lat="44.95314" lon="5.12538">
        <ele>380.95199584961</ele>
        <time>2009-09-17T13:31:21Z</time>
      </trkpt>
      <trkpt lat="44.95301" lon="5.12557">
        <ele>382.04998779297</ele>
        <time>2009-09-17T13:31:24Z</time>
      </trkpt>
      <trkpt lat="44.9528" lon="5.1262">
        <ele>384.14199829102</ele>
        <time>2009-09-17T13:31:33Z</time>
      </trkpt>
      <trkpt lat="44.95293" lon="5.12667">
        <ele>385.06201171875</ele>
        <time>2009-09-17T13:31:40Z</time>
      </trkpt>
      <trkpt lat="44.95317" lon="5.12686">
        <ele>385.81698608398</ele>
        <time>2009-09-17T13:31:45Z</time>
      </trkpt>
      <trkpt lat="44.95335" lon="5.12706">
        <ele>386.93099975586</ele>
        <time>2009-09-17T13:31:49Z</time>
      </trkpt>
      <trkpt lat="44.95356" lon="5.12747">
        <ele>386.56100463867</ele>
        <time>2009-09-17T13:31:55Z</time>
      </trkpt>
      <trkpt lat="44.95365" lon="5.12781">
        <ele>387.85400390625</ele>
        <time>2009-09-17T13:31:59Z</time>
      </trkpt>
      <trkpt lat="44.95363" lon="5.1285">
        <ele>390.74301147461</ele>
        <time>2009-09-17T13:32:08Z</time>
      </trkpt>
      <trkpt lat="44.95367" lon="5.12925">
        <ele>392.56201171875</ele>
        <time>2009-09-17T13:32:18Z</time>
      </trkpt>
      <trkpt lat="44.95359" lon="5.12955">
        <ele>392.72198486328</ele>
        <time>2009-09-17T13:32:22Z</time>
      </trkpt>
      <trkpt lat="44.95346" lon="5.12985">
        <ele>392.44500732422</ele>
        <time>2009-09-17T13:32:26Z</time>
      </trkpt>
      <trkpt lat="44.9534" lon="5.13002">
        <ele>392.3450012207</ele>
        <time>2009-09-17T13:32:28Z</time>
      </trkpt>
      <trkpt lat="44.95335" lon="5.1304">
        <ele>392.88800048828</ele>
        <time>2009-09-17T13:32:32Z</time>
      </trkpt>
      <trkpt lat="44.95337" lon="5.13074">
        <ele>394.66299438477</ele>
        <time>2009-09-17T13:32:36Z</time>
      </trkpt>
      <trkpt lat="44.95364" lon="5.13179">
        <ele>399.55801391602</ele>
        <time>2009-09-17T13:32:53Z</time>
      </trkpt>
      <trkpt lat="44.95369" lon="5.13267">
        <ele>401.76699829102</ele>
        <time>2009-09-17T13:33:06Z</time>
      </trkpt>
      <trkpt lat="44.95371" lon="5.13326">
        <ele>404.01000976562</ele>
        <time>2009-09-17T13:33:15Z</time>
      </trkpt>
      <trkpt lat="44.95373" lon="5.13454">
        <ele>408.79699707031</ele>
        <time>2009-09-17T13:33:35Z</time>
      </trkpt>
      <trkpt lat="44.95361" lon="5.13553">
        <ele>412.29598999023</ele>
        <time>2009-09-17T13:33:51Z</time>
      </trkpt>
      <trkpt lat="44.95359" lon="5.13585">
        <ele>413.52899169922</ele>
        <time>2009-09-17T13:33:56Z</time>
      </trkpt>
      <trkpt lat="44.95353" lon="5.13704">
        <ele>417.56900024414</ele>
        <time>2009-09-17T13:34:15Z</time>
      </trkpt>
      <trkpt lat="44.95353" lon="5.13804">
        <ele>420.54501342773</ele>
        <time>2009-09-17T13:34:30Z</time>
      </trkpt>
      <trkpt lat="44.95356" lon="5.13901">
        <ele>423.11401367188</ele>
        <time>2009-09-17T13:34:44Z</time>
      </trkpt>
      <trkpt lat="44.95355" lon="5.13952">
        <ele>424.34100341797</ele>
        <time>2009-09-17T13:34:51Z</time>
      </trkpt>
      <trkpt lat="44.95361" lon="5.13996">
        <ele>424.70901489258</ele>
        <time>2009-09-17T13:34:57Z</time>
      </trkpt>
      <trkpt lat="44.95353" lon="5.14023">
        <ele>425.5419921875</ele>
        <time>2009-09-17T13:35:01Z</time>
      </trkpt>
      <trkpt lat="44.95344" lon="5.14069">
        <ele>426.6130065918</ele>
        <time>2009-09-17T13:35:08Z</time>
      </trkpt>
      <trkpt lat="44.95336" lon="5.14109">
        <ele>427.44198608398</ele>
        <time>2009-09-17T13:35:14Z</time>
      </trkpt>
      <trkpt lat="44.95333" lon="5.14175">
        <ele>427.34899902344</ele>
        <time>2009-09-17T13:35:22Z</time>
      </trkpt>
      <trkpt lat="44.95326" lon="5.14208">
        <ele>427.80499267578</ele>
        <time>2009-09-17T13:35:26Z</time>
      </trkpt>
      <trkpt lat="44.95279" lon="5.14289">
        <ele>428.67098999023</ele>
        <time>2009-09-17T13:35:38Z</time>
      </trkpt>
      <trkpt lat="44.95241" lon="5.14347">
        <ele>429.44500732422</ele>
        <time>2009-09-17T13:35:47Z</time>
      </trkpt>
      <trkpt lat="44.95245" lon="5.14373">
        <ele>429.72799682617</ele>
        <time>2009-09-17T13:35:51Z</time>
      </trkpt>
      <trkpt lat="44.95263" lon="5.14379">
        <ele>428.79901123047</ele>
        <time>2009-09-17T13:35:54Z</time>
      </trkpt>
      <trkpt lat="44.9528" lon="5.14359">
        <ele>429.36700439453</ele>
        <time>2009-09-17T13:35:59Z</time>
      </trkpt>
      <trkpt lat="44.95312" lon="5.14344">
        <ele>430.67498779297</ele>
        <time>2009-09-17T13:36:05Z</time>
      </trkpt>
      <trkpt lat="44.95362" lon="5.14326">
        <ele>431.66101074219</ele>
        <time>2009-09-17T13:36:14Z</time>
      </trkpt>
      <trkpt lat="44.95396" lon="5.14306">
        <ele>431.00601196289</ele>
        <time>2009-09-17T13:36:20Z</time>
      </trkpt>
      <trkpt lat="44.95434" lon="5.14275">
        <ele>430.09799194336</ele>
        <time>2009-09-17T13:36:27Z</time>
      </trkpt>
      <trkpt lat="44.95521" lon="5.1422">
        <ele>429.44299316406</ele>
        <time>2009-09-17T13:36:41Z</time>
      </trkpt>
      <trkpt lat="44.95536" lon="5.14216">
        <ele>429.78399658203</ele>
        <time>2009-09-17T13:36:43Z</time>
      </trkpt>
      <trkpt lat="44.95568" lon="5.14191">
        <ele>429.06298828125</ele>
        <time>2009-09-17T13:36:48Z</time>
      </trkpt>
      <trkpt lat="44.95608" lon="5.14125">
        <ele>427.21701049805</ele>
        <time>2009-09-17T13:36:56Z</time>
      </trkpt>
      <trkpt lat="44.95616" lon="5.14094">
        <ele>426.37100219727</ele>
        <time>2009-09-17T13:36:59Z</time>
      </trkpt>
      <trkpt lat="44.95625" lon="5.14051">
        <ele>425.56298828125</ele>
        <time>2009-09-17T13:37:03Z</time>
      </trkpt>
      <trkpt lat="44.95636" lon="5.13998">
        <ele>424.46099853516</ele>
        <time>2009-09-17T13:37:08Z</time>
      </trkpt>
      <trkpt lat="44.95651" lon="5.13868">
        <ele>421.58801269531</ele>
        <time>2009-09-17T13:37:19Z</time>
      </trkpt>
      <trkpt lat="44.95655" lon="5.13772">
        <ele>419.17599487305</ele>
        <time>2009-09-17T13:37:27Z</time>
      </trkpt>
      <trkpt lat="44.95691" lon="5.13673">
        <ele>417.23400878906</ele>
        <time>2009-09-17T13:37:36Z</time>
      </trkpt>
      <trkpt lat="44.95757" lon="5.13556">
        <ele>413.21301269531</ele>
        <time>2009-09-17T13:37:47Z</time>
      </trkpt>
      <trkpt lat="44.95788" lon="5.135">
        <ele>411.30700683594</ele>
        <time>2009-09-17T13:37:52Z</time>
      </trkpt>
      <trkpt lat="44.9585" lon="5.1339">
        <ele>407.1789855957</ele>
        <time>2009-09-17T13:38:02Z</time>
      </trkpt>
      <trkpt lat="44.95881" lon="5.13335">
        <ele>404.67001342773</ele>
        <time>2009-09-17T13:38:07Z</time>
      </trkpt>
      <trkpt lat="44.95914" lon="5.13267">
        <ele>402.62200927734</ele>
        <time>2009-09-17T13:38:13Z</time>
      </trkpt>
      <trkpt lat="44.95928" lon="5.13251">
        <ele>401.90600585938</ele>
        <time>2009-09-17T13:38:15Z</time>
      </trkpt>
      <trkpt lat="44.95945" lon="5.13245">
        <ele>401.70999145508</ele>
        <time>2009-09-17T13:38:17Z</time>
      </trkpt>
      <trkpt lat="44.95967" lon="5.13272">
        <ele>401.50500488281</ele>
        <time>2009-09-17T13:38:21Z</time>
      </trkpt>
      <trkpt lat="44.95992" lon="5.13321">
        <ele>401.96899414062</ele>
        <time>2009-09-17T13:38:27Z</time>
      </trkpt>
      <trkpt lat="44.96009" lon="5.13357">
        <ele>402.93399047852</ele>
        <time>2009-09-17T13:38:37Z</time>
      </trkpt>
      <trkpt lat="44.96009" lon="5.13356">
        <ele>402.72900390625</ele>
        <time>2009-09-17T13:38:38Z</time>
      </trkpt>
      <trkpt lat="44.96011" lon="5.13355">
        <ele>403.48901367188</ele>
        <time>2009-09-17T13:46:18Z</time>
      </trkpt>
      <trkpt lat="44.96011" lon="5.13355">
        <ele>403.61499023438</ele>
        <time>2009-09-17T13:46:19Z</time>
      </trkpt>
      <trkpt lat="44.96025" lon="5.13381">
        <ele>403.49099731445</ele>
        <time>2009-09-17T13:46:31Z</time>
      </trkpt>
      <trkpt lat="44.96064" lon="5.13458">
        <ele>402.95498657227</ele>
        <time>2009-09-17T13:46:42Z</time>
      </trkpt>
      <trkpt lat="44.96115" lon="5.13564">
        <ele>402.26599121094</ele>
        <time>2009-09-17T13:46:54Z</time>
      </trkpt>
      <trkpt lat="44.96196" lon="5.13673">
        <ele>402.51800537109</ele>
        <time>2009-09-17T13:47:08Z</time>
      </trkpt>
      <trkpt lat="44.9631" lon="5.13792">
        <ele>400.58999633789</ele>
        <time>2009-09-17T13:47:26Z</time>
      </trkpt>
      <trkpt lat="44.96454" lon="5.13907">
        <ele>395.39099121094</ele>
        <time>2009-09-17T13:47:44Z</time>
      </trkpt>
      <trkpt lat="44.9654" lon="5.14017">
        <ele>392.23199462891</ele>
        <time>2009-09-17T13:47:56Z</time>
      </trkpt>
      <trkpt lat="44.96641" lon="5.14187">
        <ele>391.58898925781</ele>
        <time>2009-09-17T13:48:14Z</time>
      </trkpt>
      <trkpt lat="44.96711" lon="5.14321">
        <ele>392.4880065918</ele>
        <time>2009-09-17T13:48:30Z</time>
      </trkpt>
      <trkpt lat="44.96775" lon="5.14439">
        <ele>394.04400634766</ele>
        <time>2009-09-17T13:48:46Z</time>
      </trkpt>
      <trkpt lat="44.96855" lon="5.14523">
        <ele>394.87600708008</ele>
        <time>2009-09-17T13:49:02Z</time>
      </trkpt>
      <trkpt lat="44.96931" lon="5.14624">
        <ele>395.67498779297</ele>
        <time>2009-09-17T13:49:18Z</time>
      </trkpt>
      <trkpt lat="44.96974" lon="5.14687">
        <ele>393.41900634766</ele>
        <time>2009-09-17T13:49:26Z</time>
      </trkpt>
      <trkpt lat="44.97039" lon="5.14786">
        <ele>388.36401367188</ele>
        <time>2009-09-17T13:49:36Z</time>
      </trkpt>
      <trkpt lat="44.9708" lon="5.14847">
        <ele>385.20999145508</ele>
        <time>2009-09-17T13:49:42Z</time>
      </trkpt>
      <trkpt lat="44.97124" lon="5.14908">
        <ele>382.61199951172</ele>
        <time>2009-09-17T13:49:48Z</time>
      </trkpt>
      <trkpt lat="44.97144" lon="5.14938">
        <ele>382.0719909668</ele>
        <time>2009-09-17T13:49:51Z</time>
      </trkpt>
      <trkpt lat="44.97158" lon="5.14958">
        <ele>381.35598754883</ele>
        <time>2009-09-17T13:49:53Z</time>
      </trkpt>
      <trkpt lat="44.97181" lon="5.14983">
        <ele>380.72100830078</ele>
        <time>2009-09-17T13:49:56Z</time>
      </trkpt>
      <trkpt lat="44.97285" lon="5.15062">
        <ele>375.71200561523</ele>
        <time>2009-09-17T13:50:08Z</time>
      </trkpt>
      <trkpt lat="44.97313" lon="5.15106">
        <ele>377.81298828125</ele>
        <time>2009-09-17T13:50:13Z</time>
      </trkpt>
      <trkpt lat="44.97328" lon="5.1514">
        <ele>380.02301025391</ele>
        <time>2009-09-17T13:50:18Z</time>
      </trkpt>
      <trkpt lat="44.9734" lon="5.15169">
        <ele>382.37200927734</ele>
        <time>2009-09-17T13:50:23Z</time>
      </trkpt>
      <trkpt lat="44.97345" lon="5.1518">
        <ele>382.91000366211</ele>
        <time>2009-09-17T13:50:25Z</time>
      </trkpt>
      <trkpt lat="44.97355" lon="5.15201">
        <ele>384.13299560547</ele>
        <time>2009-09-17T13:50:29Z</time>
      </trkpt>
      <trkpt lat="44.97371" lon="5.15225">
        <ele>385.54998779297</ele>
        <time>2009-09-17T13:50:34Z</time>
      </trkpt>
      <trkpt lat="44.97396" lon="5.15251">
        <ele>385.875</ele>
        <time>2009-09-17T13:50:40Z</time>
      </trkpt>
      <trkpt lat="44.97445" lon="5.15275">
        <ele>388.55599975586</ele>
        <time>2009-09-17T13:50:50Z</time>
      </trkpt>
      <trkpt lat="44.97493" lon="5.15294">
        <ele>389.32901000977</ele>
        <time>2009-09-17T13:50:59Z</time>
      </trkpt>
      <trkpt lat="44.97607" lon="5.15343">
        <ele>391.1789855957</ele>
        <time>2009-09-17T13:51:18Z</time>
      </trkpt>
      <trkpt lat="44.97718" lon="5.15413">
        <ele>389.11099243164</ele>
        <time>2009-09-17T13:51:34Z</time>
      </trkpt>
      <trkpt lat="44.97849" lon="5.15532">
        <ele>391.34298706055</ele>
        <time>2009-09-17T13:51:54Z</time>
      </trkpt>
      <trkpt lat="44.97949" lon="5.15651">
        <ele>393.6969909668</ele>
        <time>2009-09-17T13:52:13Z</time>
      </trkpt>
      <trkpt lat="44.98048" lon="5.15774">
        <ele>394.03399658203</ele>
        <time>2009-09-17T13:52:31Z</time>
      </trkpt>
      <trkpt lat="44.98087" lon="5.15869">
        <ele>390.41000366211</ele>
        <time>2009-09-17T13:52:40Z</time>
      </trkpt>
      <trkpt lat="44.98082" lon="5.15936">
        <ele>387.1960144043</ele>
        <time>2009-09-17T13:52:45Z</time>
      </trkpt>
      <trkpt lat="44.98041" lon="5.16028">
        <ele>382.17001342773</ele>
        <time>2009-09-17T13:52:52Z</time>
      </trkpt>
      <trkpt lat="44.98028" lon="5.16054">
        <ele>380.59298706055</ele>
        <time>2009-09-17T13:52:54Z</time>
      </trkpt>
      <trkpt lat="44.97994" lon="5.16099">
        <ele>377.88000488281</ele>
        <time>2009-09-17T13:52:58Z</time>
      </trkpt>
      <trkpt lat="44.97965" lon="5.16167">
        <ele>375.57299804688</ele>
        <time>2009-09-17T13:53:03Z</time>
      </trkpt>
      <trkpt lat="44.97932" lon="5.16208">
        <ele>372.45199584961</ele>
        <time>2009-09-17T13:53:07Z</time>
      </trkpt>
      <trkpt lat="44.97894" lon="5.16261">
        <ele>370.36801147461</ele>
        <time>2009-09-17T13:53:12Z</time>
      </trkpt>
      <trkpt lat="44.97903" lon="5.16304">
        <ele>370.23400878906</ele>
        <time>2009-09-17T13:53:15Z</time>
      </trkpt>
      <trkpt lat="44.9792" lon="5.16321">
        <ele>370.67700195312</ele>
        <time>2009-09-17T13:53:17Z</time>
      </trkpt>
      <trkpt lat="44.97967" lon="5.16361">
        <ele>372.23300170898</ele>
        <time>2009-09-17T13:53:23Z</time>
      </trkpt>
      <trkpt lat="44.97996" lon="5.16378">
        <ele>373.39199829102</ele>
        <time>2009-09-17T13:53:27Z</time>
      </trkpt>
      <trkpt lat="44.98003" lon="5.16382">
        <ele>373.65899658203</ele>
        <time>2009-09-17T13:53:28Z</time>
      </trkpt>
      <trkpt lat="44.9801" lon="5.16386">
        <ele>374.30899047852</ele>
        <time>2009-09-17T13:53:29Z</time>
      </trkpt>
      <trkpt lat="44.98024" lon="5.16393">
        <ele>374.89001464844</ele>
        <time>2009-09-17T13:53:31Z</time>
      </trkpt>
      <trkpt lat="44.9806" lon="5.16399">
        <ele>376.44500732422</ele>
        <time>2009-09-17T13:53:36Z</time>
      </trkpt>
      <trkpt lat="44.98095" lon="5.16391">
        <ele>378.81600952148</ele>
        <time>2009-09-17T13:53:41Z</time>
      </trkpt>
      <trkpt lat="44.9812" lon="5.16379">
        <ele>380.63800048828</ele>
        <time>2009-09-17T13:53:45Z</time>
      </trkpt>
      <trkpt lat="44.98146" lon="5.16368">
        <ele>382.41101074219</ele>
        <time>2009-09-17T13:53:49Z</time>
      </trkpt>
      <trkpt lat="44.98165" lon="5.16361">
        <ele>383.99700927734</ele>
        <time>2009-09-17T13:53:52Z</time>
      </trkpt>
      <trkpt lat="44.98189" lon="5.16364">
        <ele>386.57699584961</ele>
        <time>2009-09-17T13:53:56Z</time>
      </trkpt>
      <trkpt lat="44.98222" lon="5.1636">
        <ele>389.44000244141</ele>
        <time>2009-09-17T13:54:03Z</time>
      </trkpt>
      <trkpt lat="44.98255" lon="5.16321">
        <ele>391.81600952148</ele>
        <time>2009-09-17T13:54:12Z</time>
      </trkpt>
      <trkpt lat="44.98293" lon="5.16277">
        <ele>395.24700927734</ele>
        <time>2009-09-17T13:54:22Z</time>
      </trkpt>
      <trkpt lat="44.98306" lon="5.16266">
        <ele>396.0119934082</ele>
        <time>2009-09-17T13:54:25Z</time>
      </trkpt>
      <trkpt lat="44.98315" lon="5.16259">
        <ele>396.88900756836</ele>
        <time>2009-09-17T13:54:27Z</time>
      </trkpt>
      <trkpt lat="44.98358" lon="5.16237">
        <ele>400.48599243164</ele>
        <time>2009-09-17T13:54:38Z</time>
      </trkpt>
      <trkpt lat="44.98378" lon="5.16253">
        <ele>402.0830078125</ele>
        <time>2009-09-17T13:54:44Z</time>
      </trkpt>
      <trkpt lat="44.98426" lon="5.1633">
        <ele>401.58801269531</ele>
        <time>2009-09-17T13:54:59Z</time>
      </trkpt>
      <trkpt lat="44.98495" lon="5.16421">
        <ele>401.5719909668</ele>
        <time>2009-09-17T13:55:13Z</time>
      </trkpt>
      <trkpt lat="44.98555" lon="5.16482">
        <ele>403.63900756836</ele>
        <time>2009-09-17T13:55:25Z</time>
      </trkpt>
      <trkpt lat="44.98621" lon="5.16545">
        <ele>404.53698730469</ele>
        <time>2009-09-17T13:55:38Z</time>
      </trkpt>
      <trkpt lat="44.98676" lon="5.16632">
        <ele>405.20001220703</ele>
        <time>2009-09-17T13:55:50Z</time>
      </trkpt>
      <trkpt lat="44.98755" lon="5.16738">
        <ele>406.89401245117</ele>
        <time>2009-09-17T13:56:06Z</time>
      </trkpt>
      <trkpt lat="44.98838" lon="5.16814">
        <ele>407.81100463867</ele>
        <time>2009-09-17T13:56:21Z</time>
      </trkpt>
      <trkpt lat="44.98911" lon="5.16897">
        <ele>404.37200927734</ele>
        <time>2009-09-17T13:56:32Z</time>
      </trkpt>
      <trkpt lat="44.98926" lon="5.1691">
        <ele>404.01800537109</ele>
        <time>2009-09-17T13:56:34Z</time>
      </trkpt>
      <trkpt lat="44.9895" lon="5.16923">
        <ele>404.36199951172</ele>
        <time>2009-09-17T13:56:37Z</time>
      </trkpt>
      <trkpt lat="44.99052" lon="5.16967">
        <ele>403.6549987793</ele>
        <time>2009-09-17T13:56:50Z</time>
      </trkpt>
      <trkpt lat="44.99133" lon="5.16968">
        <ele>404.81799316406</ele>
        <time>2009-09-17T13:57:00Z</time>
      </trkpt>
      <trkpt lat="44.9921" lon="5.1699">
        <ele>404.87799072266</ele>
        <time>2009-09-17T13:57:10Z</time>
      </trkpt>
      <trkpt lat="44.99282" lon="5.1706">
        <ele>406.92001342773</ele>
        <time>2009-09-17T13:57:22Z</time>
      </trkpt>
      <trkpt lat="44.9934" lon="5.1713">
        <ele>409.17300415039</ele>
        <time>2009-09-17T13:57:34Z</time>
      </trkpt>
      <trkpt lat="44.99369" lon="5.17165">
        <ele>410.4580078125</ele>
        <time>2009-09-17T13:57:40Z</time>
      </trkpt>
      <trkpt lat="44.99407" lon="5.17212">
        <ele>412.55801391602</ele>
        <time>2009-09-17T13:57:48Z</time>
      </trkpt>
      <trkpt lat="44.9942" lon="5.17228">
        <ele>413.85800170898</ele>
        <time>2009-09-17T13:57:51Z</time>
      </trkpt>
      <trkpt lat="44.99482" lon="5.17301">
        <ele>416.19400024414</ele>
        <time>2009-09-17T13:58:05Z</time>
      </trkpt>
      <trkpt lat="44.99567" lon="5.17364">
        <ele>421.30200195312</ele>
        <time>2009-09-17T13:58:23Z</time>
      </trkpt>
      <trkpt lat="44.99627" lon="5.17444">
        <ele>425.39599609375</ele>
        <time>2009-09-17T13:58:39Z</time>
      </trkpt>
      <trkpt lat="44.99654" lon="5.1752">
        <ele>428.41000366211</ele>
        <time>2009-09-17T13:58:52Z</time>
      </trkpt>
      <trkpt lat="44.99669" lon="5.17545">
        <ele>429.28601074219</ele>
        <time>2009-09-17T13:58:57Z</time>
      </trkpt>
      <trkpt lat="44.9974" lon="5.1759">
        <ele>431.83700561523</ele>
        <time>2009-09-17T13:59:13Z</time>
      </trkpt>
      <trkpt lat="44.99759" lon="5.17603">
        <ele>432.66500854492</ele>
        <time>2009-09-17T13:59:17Z</time>
      </trkpt>
      <trkpt lat="44.99818" lon="5.17678">
        <ele>436.33599853516</ele>
        <time>2009-09-17T13:59:34Z</time>
      </trkpt>
      <trkpt lat="44.99857" lon="5.17712">
        <ele>436.39898681641</ele>
        <time>2009-09-17T13:59:45Z</time>
      </trkpt>
      <trkpt lat="44.99937" lon="5.17753">
        <ele>433.63000488281</ele>
        <time>2009-09-17T13:59:57Z</time>
      </trkpt>
      <trkpt lat="44.9998" lon="5.17785">
        <ele>432.28698730469</ele>
        <time>2009-09-17T14:00:03Z</time>
      </trkpt>
      <trkpt lat="45.00063" lon="5.17862">
        <ele>428.71200561523</ele>
        <time>2009-09-17T14:00:14Z</time>
      </trkpt>
      <trkpt lat="45.00171" lon="5.17895">
        <ele>419.66198730469</ele>
        <time>2009-09-17T14:00:24Z</time>
      </trkpt>
      <trkpt lat="45.00209" lon="5.179">
        <ele>415.24899291992</ele>
        <time>2009-09-17T14:00:27Z</time>
      </trkpt>
      <trkpt lat="45.00222" lon="5.17901">
        <ele>413.89001464844</ele>
        <time>2009-09-17T14:00:28Z</time>
      </trkpt>
      <trkpt lat="45.00286" lon="5.17871">
        <ele>410.30499267578</ele>
        <time>2009-09-17T14:00:33Z</time>
      </trkpt>
      <trkpt lat="45.00309" lon="5.1779">
        <ele>406.14199829102</ele>
        <time>2009-09-17T14:00:38Z</time>
      </trkpt>
      <trkpt lat="45.00308" lon="5.17772">
        <ele>405.22900390625</ele>
        <time>2009-09-17T14:00:39Z</time>
      </trkpt>
      <trkpt lat="45.00315" lon="5.17687">
        <ele>401.19198608398</ele>
        <time>2009-09-17T14:00:44Z</time>
      </trkpt>
      <trkpt lat="45.00366" lon="5.17618">
        <ele>393.96899414062</ele>
        <time>2009-09-17T14:00:50Z</time>
      </trkpt>
      <trkpt lat="45.00391" lon="5.17634">
        <ele>392.74398803711</ele>
        <time>2009-09-17T14:00:52Z</time>
      </trkpt>
      <trkpt lat="45.00428" lon="5.17661">
        <ele>389.57800292969</ele>
        <time>2009-09-17T14:00:55Z</time>
      </trkpt>
      <trkpt lat="45.00532" lon="5.17709">
        <ele>382.4700012207</ele>
        <time>2009-09-17T14:01:03Z</time>
      </trkpt>
      <trkpt lat="45.00605" lon="5.17749">
        <ele>378.31600952148</ele>
        <time>2009-09-17T14:01:09Z</time>
      </trkpt>
      <trkpt lat="45.00723" lon="5.17814">
        <ele>372.17498779297</ele>
        <time>2009-09-17T14:01:19Z</time>
      </trkpt>
      <trkpt lat="45.0078" lon="5.17845">
        <ele>370.32901000977</ele>
        <time>2009-09-17T14:01:24Z</time>
      </trkpt>
      <trkpt lat="45.00829" lon="5.17924">
        <ele>370.60000610352</ele>
        <time>2009-09-17T14:01:31Z</time>
      </trkpt>
      <trkpt lat="45.00841" lon="5.17976">
        <ele>370.49600219727</ele>
        <time>2009-09-17T14:01:35Z</time>
      </trkpt>
      <trkpt lat="45.00844" lon="5.17988">
        <ele>370.6960144043</ele>
        <time>2009-09-17T14:01:36Z</time>
      </trkpt>
      <trkpt lat="45.00875" lon="5.18107">
        <ele>370.12200927734</ele>
        <time>2009-09-17T14:01:46Z</time>
      </trkpt>
      <trkpt lat="45.00879" lon="5.18118">
        <ele>369.97100830078</ele>
        <time>2009-09-17T14:01:47Z</time>
      </trkpt>
      <trkpt lat="45.00904" lon="5.18159">
        <ele>367.72299194336</ele>
        <time>2009-09-17T14:01:51Z</time>
      </trkpt>
      <trkpt lat="45.01023" lon="5.18287">
        <ele>363.19100952148</ele>
        <time>2009-09-17T14:02:05Z</time>
      </trkpt>
      <trkpt lat="45.01121" lon="5.18377">
        <ele>359.79998779297</ele>
        <time>2009-09-17T14:02:16Z</time>
      </trkpt>
      <trkpt lat="45.01159" lon="5.18408">
        <ele>357.87399291992</ele>
        <time>2009-09-17T14:02:20Z</time>
      </trkpt>
      <trkpt lat="45.01322" lon="5.18546">
        <ele>346.8630065918</ele>
        <time>2009-09-17T14:02:36Z</time>
      </trkpt>
      <trkpt lat="45.01332" lon="5.18557">
        <ele>345.87899780273</ele>
        <time>2009-09-17T14:02:37Z</time>
      </trkpt>
      <trkpt lat="45.0135" lon="5.18582">
        <ele>344.86199951172</ele>
        <time>2009-09-17T14:02:39Z</time>
      </trkpt>
      <trkpt lat="45.0144" lon="5.18763">
        <ele>339.92098999023</ele>
        <time>2009-09-17T14:02:52Z</time>
      </trkpt>
      <trkpt lat="45.01487" lon="5.18818">
        <ele>336.75299072266</ele>
        <time>2009-09-17T14:02:57Z</time>
      </trkpt>
      <trkpt lat="45.01626" lon="5.18953">
        <ele>325.74398803711</ele>
        <time>2009-09-17T14:03:10Z</time>
      </trkpt>
      <trkpt lat="45.0179" lon="5.19045">
        <ele>315.09899902344</ele>
        <time>2009-09-17T14:03:23Z</time>
      </trkpt>
      <trkpt lat="45.01802" lon="5.19052">
        <ele>314.94198608398</ele>
        <time>2009-09-17T14:03:24Z</time>
      </trkpt>
      <trkpt lat="45.01874" lon="5.19091">
        <ele>311.24398803711</ele>
        <time>2009-09-17T14:03:30Z</time>
      </trkpt>
      <trkpt lat="45.0191" lon="5.1911">
        <ele>309.10900878906</ele>
        <time>2009-09-17T14:03:33Z</time>
      </trkpt>
      <trkpt lat="45.01921" lon="5.19116">
        <ele>308.83898925781</ele>
        <time>2009-09-17T14:03:34Z</time>
      </trkpt>
      <trkpt lat="45.01979" lon="5.19147">
        <ele>305.67001342773</ele>
        <time>2009-09-17T14:03:39Z</time>
      </trkpt>
      <trkpt lat="45.02036" lon="5.19175">
        <ele>303.23098754883</ele>
        <time>2009-09-17T14:03:44Z</time>
      </trkpt>
      <trkpt lat="45.02103" lon="5.19208">
        <ele>300.30700683594</ele>
        <time>2009-09-17T14:03:50Z</time>
      </trkpt>
      <trkpt lat="45.02207" lon="5.19288">
        <ele>296.05899047852</ele>
        <time>2009-09-17T14:04:00Z</time>
      </trkpt>
      <trkpt lat="45.02227" lon="5.19307">
        <ele>295.33801269531</ele>
        <time>2009-09-17T14:04:02Z</time>
      </trkpt>
      <trkpt lat="45.02288" lon="5.19366">
        <ele>292.52099609375</ele>
        <time>2009-09-17T14:04:08Z</time>
      </trkpt>
      <trkpt lat="45.02402" lon="5.19494">
        <ele>288.06201171875</ele>
        <time>2009-09-17T14:04:20Z</time>
      </trkpt>
      <trkpt lat="45.02455" lon="5.19541">
        <ele>285.21899414062</ele>
        <time>2009-09-17T14:04:25Z</time>
      </trkpt>
      <trkpt lat="45.02488" lon="5.19569">
        <ele>283.54299926758</ele>
        <time>2009-09-17T14:04:28Z</time>
      </trkpt>
      <trkpt lat="45.02533" lon="5.19602">
        <ele>281.97601318359</ele>
        <time>2009-09-17T14:04:32Z</time>
      </trkpt>
      <trkpt lat="45.02613" lon="5.19648">
        <ele>278.58401489258</ele>
        <time>2009-09-17T14:04:39Z</time>
      </trkpt>
      <trkpt lat="45.02674" lon="5.19667">
        <ele>275.89898681641</ele>
        <time>2009-09-17T14:04:44Z</time>
      </trkpt>
      <trkpt lat="45.02748" lon="5.19684">
        <ele>272.61401367188</ele>
        <time>2009-09-17T14:04:50Z</time>
      </trkpt>
      <trkpt lat="45.02848" lon="5.19707">
        <ele>269.02200317383</ele>
        <time>2009-09-17T14:04:58Z</time>
      </trkpt>
      <trkpt lat="45.02887" lon="5.19717">
        <ele>267.56900024414</ele>
        <time>2009-09-17T14:05:01Z</time>
      </trkpt>
      <trkpt lat="45.02963" lon="5.19735">
        <ele>264.63800048828</ele>
        <time>2009-09-17T14:05:07Z</time>
      </trkpt>
      <trkpt lat="45.02999" lon="5.19746">
        <ele>262.9169921875</ele>
        <time>2009-09-17T14:05:10Z</time>
      </trkpt>
      <trkpt lat="45.03042" lon="5.19776">
        <ele>263.49899291992</ele>
        <time>2009-09-17T14:05:14Z</time>
      </trkpt>
      <trkpt lat="45.0306" lon="5.19796">
        <ele>262.64801025391</ele>
        <time>2009-09-17T14:05:16Z</time>
      </trkpt>
      <trkpt lat="45.03104" lon="5.19818">
        <ele>260.55899047852</ele>
        <time>2009-09-17T14:05:20Z</time>
      </trkpt>
      <trkpt lat="45.03115" lon="5.1982">
        <ele>260.35198974609</ele>
        <time>2009-09-17T14:05:21Z</time>
      </trkpt>
      <trkpt lat="45.03205" lon="5.1982">
        <ele>256.97900390625</ele>
        <time>2009-09-17T14:05:29Z</time>
      </trkpt>
      <trkpt lat="45.03339" lon="5.19789">
        <ele>253.63000488281</ele>
        <time>2009-09-17T14:05:42Z</time>
      </trkpt>
      <trkpt lat="45.03384" lon="5.19756">
        <ele>252.56900024414</ele>
        <time>2009-09-17T14:05:47Z</time>
      </trkpt>
      <trkpt lat="45.03435" lon="5.19739">
        <ele>250.56799316406</ele>
        <time>2009-09-17T14:05:52Z</time>
      </trkpt>
      <trkpt lat="45.03627" lon="5.19749">
        <ele>245.31900024414</ele>
        <time>2009-09-17T14:06:10Z</time>
      </trkpt>
      <trkpt lat="45.03657" lon="5.19749">
        <ele>245.25900268555</ele>
        <time>2009-09-17T14:06:13Z</time>
      </trkpt>
      <trkpt lat="45.03831" lon="5.19764">
        <ele>240.75500488281</ele>
        <time>2009-09-17T14:06:30Z</time>
      </trkpt>
      <trkpt lat="45.03996" lon="5.19778">
        <ele>237.07699584961</ele>
        <time>2009-09-17T14:06:46Z</time>
      </trkpt>
      <trkpt lat="45.04043" lon="5.19785">
        <ele>236.28799438477</ele>
        <time>2009-09-17T14:06:51Z</time>
      </trkpt>
      <trkpt lat="45.04173" lon="5.19817">
        <ele>233.5059967041</ele>
        <time>2009-09-17T14:07:05Z</time>
      </trkpt>
      <trkpt lat="45.04208" lon="5.19843">
        <ele>233.41000366211</ele>
        <time>2009-09-17T14:07:09Z</time>
      </trkpt>
      <trkpt lat="45.04241" lon="5.19895">
        <ele>232.28799438477</ele>
        <time>2009-09-17T14:07:14Z</time>
      </trkpt>
      <trkpt lat="45.04282" lon="5.19979">
        <ele>230.01899719238</ele>
        <time>2009-09-17T14:07:21Z</time>
      </trkpt>
      <trkpt lat="45.04341" lon="5.20091">
        <ele>227.09100341797</ele>
        <time>2009-09-17T14:07:30Z</time>
      </trkpt>
      <trkpt lat="45.04402" lon="5.20212">
        <ele>225.70300292969</ele>
        <time>2009-09-17T14:07:40Z</time>
      </trkpt>
      <trkpt lat="45.04464" lon="5.20385">
        <ele>223.33599853516</ele>
        <time>2009-09-17T14:07:54Z</time>
      </trkpt>
      <trkpt lat="45.04522" lon="5.2056">
        <ele>224.11500549316</ele>
        <time>2009-09-17T14:08:10Z</time>
      </trkpt>
      <trkpt lat="45.04597" lon="5.20698">
        <ele>222.38499450684</ele>
        <time>2009-09-17T14:08:25Z</time>
      </trkpt>
      <trkpt lat="45.0472" lon="5.20886">
        <ele>222.01600646973</ele>
        <time>2009-09-17T14:08:46Z</time>
      </trkpt>
      <trkpt lat="45.04801" lon="5.20983">
        <ele>222.7619934082</ele>
        <time>2009-09-17T14:09:00Z</time>
      </trkpt>
      <trkpt lat="45.04912" lon="5.21095">
        <ele>220.3390045166</ele>
        <time>2009-09-17T14:09:17Z</time>
      </trkpt>
      <trkpt lat="45.05017" lon="5.212">
        <ele>219.75300598144</ele>
        <time>2009-09-17T14:09:32Z</time>
      </trkpt>
      <trkpt lat="45.05183" lon="5.21367">
        <ele>219.39799499512</ele>
        <time>2009-09-17T14:09:56Z</time>
      </trkpt>
      <trkpt lat="45.05364" lon="5.21552">
        <ele>218.92999267578</ele>
        <time>2009-09-17T14:10:22Z</time>
      </trkpt>
      <trkpt lat="45.05534" lon="5.21724">
        <ele>218.98399353027</ele>
        <time>2009-09-17T14:10:46Z</time>
      </trkpt>
      <trkpt lat="45.05706" lon="5.21887">
        <ele>220.07200622559</ele>
        <time>2009-09-17T14:11:10Z</time>
      </trkpt>
      <trkpt lat="45.05805" lon="5.22008">
        <ele>219.19400024414</ele>
        <time>2009-09-17T14:11:25Z</time>
      </trkpt>
      <trkpt lat="45.05908" lon="5.22183">
        <ele>219.75900268555</ele>
        <time>2009-09-17T14:11:45Z</time>
      </trkpt>
      <trkpt lat="45.06007" lon="5.22304">
        <ele>219.6130065918</ele>
        <time>2009-09-17T14:12:02Z</time>
      </trkpt>
      <trkpt lat="45.06019" lon="5.2232">
        <ele>219.57299804688</ele>
        <time>2009-09-17T14:12:04Z</time>
      </trkpt>
      <trkpt lat="45.06039" lon="5.22361">
        <ele>218.29699707031</ele>
        <time>2009-09-17T14:12:08Z</time>
      </trkpt>
      <trkpt lat="45.06089" lon="5.22507">
        <ele>218.42100524902</ele>
        <time>2009-09-17T14:12:22Z</time>
      </trkpt>
      <trkpt lat="45.06155" lon="5.22697">
        <ele>217.97599792481</ele>
        <time>2009-09-17T14:12:40Z</time>
      </trkpt>
      <trkpt lat="45.06213" lon="5.22869">
        <ele>215.26800537109</ele>
        <time>2009-09-17T14:12:56Z</time>
      </trkpt>
      <trkpt lat="45.06261" lon="5.22937">
        <ele>212.94700622559</ele>
        <time>2009-09-17T14:13:04Z</time>
      </trkpt>
      <trkpt lat="45.06282" lon="5.22962">
        <ele>211.63800048828</ele>
        <time>2009-09-17T14:13:07Z</time>
      </trkpt>
      <trkpt lat="45.06419" lon="5.23097">
        <ele>207.54699707031</ele>
        <time>2009-09-17T14:13:24Z</time>
      </trkpt>
      <trkpt lat="45.06577" lon="5.23226">
        <ele>203.1609954834</ele>
        <time>2009-09-17T14:13:42Z</time>
      </trkpt>
      <trkpt lat="45.06593" lon="5.23238">
        <ele>203.01499938965</ele>
        <time>2009-09-17T14:13:44Z</time>
      </trkpt>
      <trkpt lat="45.06608" lon="5.23277">
        <ele>201.96800231934</ele>
        <time>2009-09-17T14:13:48Z</time>
      </trkpt>
      <trkpt lat="45.06608" lon="5.23456">
        <ele>200.50300598144</ele>
        <time>2009-09-17T14:14:01Z</time>
      </trkpt>
      <trkpt lat="45.06602" lon="5.23556">
        <ele>197.87199401856</ele>
        <time>2009-09-17T14:14:08Z</time>
      </trkpt>
      <trkpt lat="45.0658" lon="5.23608">
        <ele>196.86199951172</ele>
        <time>2009-09-17T14:14:12Z</time>
      </trkpt>
      <trkpt lat="45.06559" lon="5.23643">
        <ele>195.52000427246</ele>
        <time>2009-09-17T14:14:15Z</time>
      </trkpt>
      <trkpt lat="45.0655" lon="5.23733">
        <ele>193.88600158691</ele>
        <time>2009-09-17T14:14:21Z</time>
      </trkpt>
      <trkpt lat="45.06553" lon="5.23749">
        <ele>193.28799438477</ele>
        <time>2009-09-17T14:14:22Z</time>
      </trkpt>
      <trkpt lat="45.06559" lon="5.23781">
        <ele>192.76899719238</ele>
        <time>2009-09-17T14:14:24Z</time>
      </trkpt>
      <trkpt lat="45.06558" lon="5.23957">
        <ele>190.45899963379</ele>
        <time>2009-09-17T14:14:35Z</time>
      </trkpt>
      <trkpt lat="45.06557" lon="5.24045">
        <ele>191.57600402832</ele>
        <time>2009-09-17T14:14:41Z</time>
      </trkpt>
      <trkpt lat="45.06532" lon="5.24105">
        <ele>193.34899902344</ele>
        <time>2009-09-17T14:14:47Z</time>
      </trkpt>
      <trkpt lat="45.0652" lon="5.24146">
        <ele>193.27900695801</ele>
        <time>2009-09-17T14:14:52Z</time>
      </trkpt>
      <trkpt lat="45.06533" lon="5.24175">
        <ele>192.03399658203</ele>
        <time>2009-09-17T14:14:55Z</time>
      </trkpt>
      <trkpt lat="45.06549" lon="5.24221">
        <ele>189.65800476074</ele>
        <time>2009-09-17T14:14:59Z</time>
      </trkpt>
      <trkpt lat="45.06579" lon="5.24256">
        <ele>187.65600585938</ele>
        <time>2009-09-17T14:15:03Z</time>
      </trkpt>
      <trkpt lat="45.06589" lon="5.2426">
        <ele>187.14500427246</ele>
        <time>2009-09-17T14:15:04Z</time>
      </trkpt>
      <trkpt lat="45.06609" lon="5.24269">
        <ele>186.17399597168</ele>
        <time>2009-09-17T14:15:06Z</time>
      </trkpt>
      <trkpt lat="45.06638" lon="5.2428">
        <ele>187.06199645996</ele>
        <time>2009-09-17T14:15:09Z</time>
      </trkpt>
      <trkpt lat="45.06711" lon="5.24306">
        <ele>189.17300415039</ele>
        <time>2009-09-17T14:15:18Z</time>
      </trkpt>
      <trkpt lat="45.06802" lon="5.24338">
        <ele>191.07499694824</ele>
        <time>2009-09-17T14:15:32Z</time>
      </trkpt>
      <trkpt lat="45.06871" lon="5.24364">
        <ele>194.24499511719</ele>
        <time>2009-09-17T14:15:46Z</time>
      </trkpt>
      <trkpt lat="45.06921" lon="5.24381">
        <ele>196.52400207519</ele>
        <time>2009-09-17T14:15:57Z</time>
      </trkpt>
      <trkpt lat="45.06926" lon="5.24383">
        <ele>196.5059967041</ele>
        <time>2009-09-17T14:15:58Z</time>
      </trkpt>
      <trkpt lat="45.06939" lon="5.2439">
        <ele>196.96499633789</ele>
        <time>2009-09-17T14:16:01Z</time>
      </trkpt>
      <trkpt lat="45.06961" lon="5.244">
        <ele>198.7859954834</ele>
        <time>2009-09-17T14:16:06Z</time>
      </trkpt>
      <trkpt lat="45.06965" lon="5.24407">
        <ele>199.42999267578</ele>
        <time>2009-09-17T14:16:08Z</time>
      </trkpt>
      <trkpt lat="45.06958" lon="5.24414">
        <ele>199.44500732422</ele>
        <time>2009-09-17T14:16:11Z</time>
      </trkpt>
      <trkpt lat="45.06934" lon="5.24413">
        <ele>199.52400207519</ele>
        <time>2009-09-17T14:16:16Z</time>
      </trkpt>
      <trkpt lat="45.06875" lon="5.24404">
        <ele>198.68400573731</ele>
        <time>2009-09-17T14:16:26Z</time>
      </trkpt>
      <trkpt lat="45.06838" lon="5.24434">
        <ele>197.95899963379</ele>
        <time>2009-09-17T14:16:33Z</time>
      </trkpt>
      <trkpt lat="45.06824" lon="5.24454">
        <ele>197.72700500488</ele>
        <time>2009-09-17T14:16:36Z</time>
      </trkpt>
      <trkpt lat="45.06824" lon="5.24505">
        <ele>198.00999450684</ele>
        <time>2009-09-17T14:16:42Z</time>
      </trkpt>
      <trkpt lat="45.06836" lon="5.24542">
        <ele>198.71200561523</ele>
        <time>2009-09-17T14:16:47Z</time>
      </trkpt>
      <trkpt lat="45.06849" lon="5.24625">
        <ele>199.49099731445</ele>
        <time>2009-09-17T14:16:57Z</time>
      </trkpt>
      <trkpt lat="45.0685" lon="5.24719">
        <ele>199.05400085449</ele>
        <time>2009-09-17T14:17:07Z</time>
      </trkpt>
      <trkpt lat="45.06858" lon="5.24758">
        <ele>198.95799255371</ele>
        <time>2009-09-17T14:17:11Z</time>
      </trkpt>
      <trkpt lat="45.06878" lon="5.24816">
        <ele>198.55000305176</ele>
        <time>2009-09-17T14:17:17Z</time>
      </trkpt>
      <trkpt lat="45.0693" lon="5.24952">
        <ele>197.24499511719</ele>
        <time>2009-09-17T14:17:31Z</time>
      </trkpt>
      <trkpt lat="45.06937" lon="5.2497">
        <ele>197.2440032959</ele>
        <time>2009-09-17T14:17:33Z</time>
      </trkpt>
      <trkpt lat="45.0695" lon="5.24995">
        <ele>197.55099487305</ele>
        <time>2009-09-17T14:17:36Z</time>
      </trkpt>
      <trkpt lat="45.06985" lon="5.25046">
        <ele>199.94799804688</ele>
        <time>2009-09-17T14:17:44Z</time>
      </trkpt>
      <trkpt lat="45.06992" lon="5.25058">
        <ele>200.28700256348</ele>
        <time>2009-09-17T14:17:46Z</time>
      </trkpt>
      <trkpt lat="45.07014" lon="5.25092">
        <ele>202.66000366211</ele>
        <time>2009-09-17T14:17:52Z</time>
      </trkpt>
      <trkpt lat="45.07026" lon="5.25111">
        <ele>204.87600708008</ele>
        <time>2009-09-17T14:17:56Z</time>
      </trkpt>
      <trkpt lat="45.07029" lon="5.25116">
        <ele>205.34399414062</ele>
        <time>2009-09-17T14:17:57Z</time>
      </trkpt>
      <trkpt lat="45.07035" lon="5.25144">
        <ele>206.40800476074</ele>
        <time>2009-09-17T14:18:02Z</time>
      </trkpt>
      <trkpt lat="45.07048" lon="5.2519">
        <ele>207.20599365234</ele>
        <time>2009-09-17T14:18:08Z</time>
      </trkpt>
      <trkpt lat="45.07079" lon="5.25304">
        <ele>206.83000183106</ele>
        <time>2009-09-17T14:18:21Z</time>
      </trkpt>
      <trkpt lat="45.07116" lon="5.25421">
        <ele>205.94900512695</ele>
        <time>2009-09-17T14:18:33Z</time>
      </trkpt>
      <trkpt lat="45.0715" lon="5.25548">
        <ele>206.88000488281</ele>
        <time>2009-09-17T14:18:46Z</time>
      </trkpt>
      <trkpt lat="45.07167" lon="5.25607">
        <ele>206.33799743652</ele>
        <time>2009-09-17T14:18:52Z</time>
      </trkpt>
      <trkpt lat="45.07199" lon="5.25727">
        <ele>202.49000549316</ele>
        <time>2009-09-17T14:19:02Z</time>
      </trkpt>
      <trkpt lat="45.07233" lon="5.25784">
        <ele>202.23100280762</ele>
        <time>2009-09-17T14:19:08Z</time>
      </trkpt>
      <trkpt lat="45.07283" lon="5.2582">
        <ele>203.05900573731</ele>
        <time>2009-09-17T14:19:15Z</time>
      </trkpt>
      <trkpt lat="45.07316" lon="5.25856">
        <ele>201.92700195312</ele>
        <time>2009-09-17T14:19:20Z</time>
      </trkpt>
      <trkpt lat="45.07334" lon="5.25884">
        <ele>202.33299255371</ele>
        <time>2009-09-17T14:19:23Z</time>
      </trkpt>
      <trkpt lat="45.07371" lon="5.25926">
        <ele>203.38400268555</ele>
        <time>2009-09-17T14:19:29Z</time>
      </trkpt>
      <trkpt lat="45.07448" lon="5.26035">
        <ele>203.30499267578</ele>
        <time>2009-09-17T14:19:42Z</time>
      </trkpt>
      <trkpt lat="45.07562" lon="5.26172">
        <ele>203.55700683594</ele>
        <time>2009-09-17T14:20:00Z</time>
      </trkpt>
      <trkpt lat="45.07595" lon="5.26223">
        <ele>203.37199401856</ele>
        <time>2009-09-17T14:20:06Z</time>
      </trkpt>
      <trkpt lat="45.07628" lon="5.26277">
        <ele>203.36099243164</ele>
        <time>2009-09-17T14:20:13Z</time>
      </trkpt>
      <trkpt lat="45.07656" lon="5.26299">
        <ele>203.16299438477</ele>
        <time>2009-09-17T14:20:17Z</time>
      </trkpt>
      <trkpt lat="45.07749" lon="5.26323">
        <ele>202.70899963379</ele>
        <time>2009-09-17T14:20:28Z</time>
      </trkpt>
      <trkpt lat="45.07832" lon="5.26361">
        <ele>202.65699768066</ele>
        <time>2009-09-17T14:20:38Z</time>
      </trkpt>
      <trkpt lat="45.07896" lon="5.26406">
        <ele>201.78300476074</ele>
        <time>2009-09-17T14:20:46Z</time>
      </trkpt>
      <trkpt lat="45.0792" lon="5.26416">
        <ele>201.85499572754</ele>
        <time>2009-09-17T14:20:49Z</time>
      </trkpt>
      <trkpt lat="45.07946" lon="5.26446">
        <ele>201.44999694824</ele>
        <time>2009-09-17T14:20:53Z</time>
      </trkpt>
      <trkpt lat="45.08023" lon="5.26537">
        <ele>200.7380065918</ele>
        <time>2009-09-17T14:21:04Z</time>
      </trkpt>
      <trkpt lat="45.08088" lon="5.26599">
        <ele>200.78500366211</ele>
        <time>2009-09-17T14:21:13Z</time>
      </trkpt>
      <trkpt lat="45.08191" lon="5.2669">
        <ele>200.56300354004</ele>
        <time>2009-09-17T14:21:27Z</time>
      </trkpt>
      <trkpt lat="45.08236" lon="5.26729">
        <ele>201.14700317383</ele>
        <time>2009-09-17T14:21:33Z</time>
      </trkpt>
      <trkpt lat="45.08279" lon="5.26744">
        <ele>201.27600097656</ele>
        <time>2009-09-17T14:21:38Z</time>
      </trkpt>
      <trkpt lat="45.08347" lon="5.26747">
        <ele>201.61799621582</ele>
        <time>2009-09-17T14:21:46Z</time>
      </trkpt>
      <trkpt lat="45.08444" lon="5.26792">
        <ele>201.25799560547</ele>
        <time>2009-09-17T14:21:58Z</time>
      </trkpt>
      <trkpt lat="45.08585" lon="5.26876">
        <ele>200.70899963379</ele>
        <time>2009-09-17T14:22:15Z</time>
      </trkpt>
      <trkpt lat="45.08683" lon="5.26913">
        <ele>200.69400024414</ele>
        <time>2009-09-17T14:22:27Z</time>
      </trkpt>
      <trkpt lat="45.08734" lon="5.26926">
        <ele>200.55799865723</ele>
        <time>2009-09-17T14:22:33Z</time>
      </trkpt>
      <trkpt lat="45.08759" lon="5.26927">
        <ele>200.6549987793</ele>
        <time>2009-09-17T14:22:36Z</time>
      </trkpt>
      <trkpt lat="45.08835" lon="5.26947">
        <ele>201.66700744629</ele>
        <time>2009-09-17T14:22:46Z</time>
      </trkpt>
      <trkpt lat="45.0895" lon="5.26937">
        <ele>202.29699707031</ele>
        <time>2009-09-17T14:23:00Z</time>
      </trkpt>
      <trkpt lat="45.08958" lon="5.26938">
        <ele>202.41600036621</ele>
        <time>2009-09-17T14:23:01Z</time>
      </trkpt>
      <trkpt lat="45.09083" lon="5.26919">
        <ele>203.50700378418</ele>
        <time>2009-09-17T14:23:16Z</time>
      </trkpt>
      <trkpt lat="45.09193" lon="5.26914">
        <ele>202.94700622559</ele>
        <time>2009-09-17T14:23:29Z</time>
      </trkpt>
      <trkpt lat="45.09305" lon="5.26895">
        <ele>201.92799377441</ele>
        <time>2009-09-17T14:23:42Z</time>
      </trkpt>
      <trkpt lat="45.09401" lon="5.26858">
        <ele>201.67500305176</ele>
        <time>2009-09-17T14:23:54Z</time>
      </trkpt>
      <trkpt lat="45.09475" lon="5.26859">
        <ele>201.2140045166</ele>
        <time>2009-09-17T14:24:03Z</time>
      </trkpt>
      <trkpt lat="45.09539" lon="5.26877">
        <ele>196.20799255371</ele>
        <time>2009-09-17T14:24:10Z</time>
      </trkpt>
      <trkpt lat="45.09593" lon="5.26892">
        <ele>194.44999694824</ele>
        <time>2009-09-17T14:24:15Z</time>
      </trkpt>
      <trkpt lat="45.09657" lon="5.26911">
        <ele>195.50500488281</ele>
        <time>2009-09-17T14:24:22Z</time>
      </trkpt>
      <trkpt lat="45.09759" lon="5.26945">
        <ele>195.41499328613</ele>
        <time>2009-09-17T14:24:35Z</time>
      </trkpt>
      <trkpt lat="45.09792" lon="5.26949">
        <ele>193.18400573731</ele>
        <time>2009-09-17T14:24:39Z</time>
      </trkpt>
      <trkpt lat="45.0981" lon="5.26953">
        <ele>192.14500427246</ele>
        <time>2009-09-17T14:24:41Z</time>
      </trkpt>
      <trkpt lat="45.09872" lon="5.2699">
        <ele>188.53199768066</ele>
        <time>2009-09-17T14:24:48Z</time>
      </trkpt>
      <trkpt lat="45.09893" lon="5.26994">
        <ele>187.64599609375</ele>
        <time>2009-09-17T14:24:50Z</time>
      </trkpt>
      <trkpt lat="45.09912" lon="5.26999">
        <ele>186.98399353027</ele>
        <time>2009-09-17T14:24:52Z</time>
      </trkpt>
      <trkpt lat="45.09975" lon="5.27014">
        <ele>187.84399414062</ele>
        <time>2009-09-17T14:24:59Z</time>
      </trkpt>
      <trkpt lat="45.09998" lon="5.27015">
        <ele>187.87899780273</ele>
        <time>2009-09-17T14:25:02Z</time>
      </trkpt>
      <trkpt lat="45.10028" lon="5.27003">
        <ele>188.17199707031</ele>
        <time>2009-09-17T14:25:06Z</time>
      </trkpt>
      <trkpt lat="45.10063" lon="5.26973">
        <ele>188.37800598144</ele>
        <time>2009-09-17T14:25:11Z</time>
      </trkpt>
      <trkpt lat="45.10096" lon="5.26969">
        <ele>188.56100463867</ele>
        <time>2009-09-17T14:25:15Z</time>
      </trkpt>
      <trkpt lat="45.10147" lon="5.26974">
        <ele>188.53799438477</ele>
        <time>2009-09-17T14:25:21Z</time>
      </trkpt>
      <trkpt lat="45.10191" lon="5.26952">
        <ele>188.88200378418</ele>
        <time>2009-09-17T14:25:26Z</time>
      </trkpt>
      <trkpt lat="45.10209" lon="5.26952">
        <ele>189.03999328613</ele>
        <time>2009-09-17T14:25:28Z</time>
      </trkpt>
      <trkpt lat="45.10236" lon="5.26955">
        <ele>189.88299560547</ele>
        <time>2009-09-17T14:25:31Z</time>
      </trkpt>
      <trkpt lat="45.10271" lon="5.26951">
        <ele>189.62899780273</ele>
        <time>2009-09-17T14:25:35Z</time>
      </trkpt>
      <trkpt lat="45.10316" lon="5.26969">
        <ele>189.88900756836</ele>
        <time>2009-09-17T14:25:40Z</time>
      </trkpt>
      <trkpt lat="45.1033" lon="5.26983">
        <ele>189.79299926758</ele>
        <time>2009-09-17T14:25:42Z</time>
      </trkpt>
      <trkpt lat="45.10402" lon="5.27032">
        <ele>186.97999572754</ele>
        <time>2009-09-17T14:25:51Z</time>
      </trkpt>
      <trkpt lat="45.10411" lon="5.27036">
        <ele>186.79899597168</ele>
        <time>2009-09-17T14:25:52Z</time>
      </trkpt>
      <trkpt lat="45.10421" lon="5.27039">
        <ele>186.11700439453</ele>
        <time>2009-09-17T14:25:53Z</time>
      </trkpt>
      <trkpt lat="45.10462" lon="5.27042">
        <ele>184.14799499512</ele>
        <time>2009-09-17T14:25:57Z</time>
      </trkpt>
      <trkpt lat="45.10538" lon="5.27053">
        <ele>181.19200134277</ele>
        <time>2009-09-17T14:26:04Z</time>
      </trkpt>
      <trkpt lat="45.10574" lon="5.27081">
        <ele>180.07000732422</ele>
        <time>2009-09-17T14:26:08Z</time>
      </trkpt>
      <trkpt lat="45.106" lon="5.27107">
        <ele>178.65699768066</ele>
        <time>2009-09-17T14:26:11Z</time>
      </trkpt>
      <trkpt lat="45.10619" lon="5.27119">
        <ele>177.62699890137</ele>
        <time>2009-09-17T14:26:13Z</time>
      </trkpt>
      <trkpt lat="45.1064" lon="5.27128">
        <ele>176.96099853516</ele>
        <time>2009-09-17T14:26:15Z</time>
      </trkpt>
      <trkpt lat="45.10747" lon="5.27208">
        <ele>172.57600402832</ele>
        <time>2009-09-17T14:26:26Z</time>
      </trkpt>
      <trkpt lat="45.10844" lon="5.27306">
        <ele>170.42900085449</ele>
        <time>2009-09-17T14:26:37Z</time>
      </trkpt>
      <trkpt lat="45.10913" lon="5.27411">
        <ele>168.49200439453</ele>
        <time>2009-09-17T14:26:47Z</time>
      </trkpt>
      <trkpt lat="45.1095" lon="5.27525">
        <ele>169.1309967041</ele>
        <time>2009-09-17T14:26:57Z</time>
      </trkpt>
      <trkpt lat="45.10969" lon="5.27592">
        <ele>169.94500732422</ele>
        <time>2009-09-17T14:27:03Z</time>
      </trkpt>
      <trkpt lat="45.10978" lon="5.27621">
        <ele>172.52400207519</ele>
        <time>2009-09-17T14:27:06Z</time>
      </trkpt>
      <trkpt lat="45.1099" lon="5.27649">
        <ele>175.58999633789</ele>
        <time>2009-09-17T14:27:10Z</time>
      </trkpt>
      <trkpt lat="45.11015" lon="5.27679">
        <ele>177.25300598144</ele>
        <time>2009-09-17T14:27:18Z</time>
      </trkpt>
      <trkpt lat="45.11018" lon="5.27683">
        <ele>177.22099304199</ele>
        <time>2009-09-17T14:27:19Z</time>
      </trkpt>
      <trkpt lat="45.11035" lon="5.27711">
        <ele>178.80999755859</ele>
        <time>2009-09-17T14:27:25Z</time>
      </trkpt>
      <trkpt lat="45.11044" lon="5.27733">
        <ele>180.20199584961</ele>
        <time>2009-09-17T14:27:29Z</time>
      </trkpt>
      <trkpt lat="45.11066" lon="5.27789">
        <ele>182.96200561523</ele>
        <time>2009-09-17T14:27:39Z</time>
      </trkpt>
      <trkpt lat="45.11078" lon="5.27826">
        <ele>184.59599304199</ele>
        <time>2009-09-17T14:27:46Z</time>
      </trkpt>
      <trkpt lat="45.11113" lon="5.27881">
        <ele>187.95599365234</ele>
        <time>2009-09-17T14:28:01Z</time>
      </trkpt>
      <trkpt lat="45.11147" lon="5.27918">
        <ele>190.77099609375</ele>
        <time>2009-09-17T14:28:15Z</time>
      </trkpt>
      <trkpt lat="45.11172" lon="5.27915">
        <ele>192.41299438477</ele>
        <time>2009-09-17T14:28:26Z</time>
      </trkpt>
      <trkpt lat="45.11182" lon="5.27882">
        <ele>192.46200561523</ele>
        <time>2009-09-17T14:28:34Z</time>
      </trkpt>
      <trkpt lat="45.11175" lon="5.27851">
        <ele>192.54200744629</ele>
        <time>2009-09-17T14:28:39Z</time>
      </trkpt>
      <trkpt lat="45.11169" lon="5.2784">
        <ele>192.67500305176</ele>
        <time>2009-09-17T14:28:41Z</time>
      </trkpt>
      <trkpt lat="45.11163" lon="5.27822">
        <ele>193.05299377441</ele>
        <time>2009-09-17T14:28:44Z</time>
      </trkpt>
      <trkpt lat="45.11155" lon="5.27786">
        <ele>193.41299438477</ele>
        <time>2009-09-17T14:28:49Z</time>
      </trkpt>
      <trkpt lat="45.11153" lon="5.27768">
        <ele>193.67999267578</ele>
        <time>2009-09-17T14:28:51Z</time>
      </trkpt>
      <trkpt lat="45.11143" lon="5.27741">
        <ele>193.69799804688</ele>
        <time>2009-09-17T14:28:55Z</time>
      </trkpt>
      <trkpt lat="45.11135" lon="5.27708">
        <ele>193.85099792481</ele>
        <time>2009-09-17T14:28:59Z</time>
      </trkpt>
      <trkpt lat="45.11127" lon="5.27618">
        <ele>197.07800292969</ele>
        <time>2009-09-17T14:29:11Z</time>
      </trkpt>
      <trkpt lat="45.11131" lon="5.27583">
        <ele>197.90199279785</ele>
        <time>2009-09-17T14:29:16Z</time>
      </trkpt>
      <trkpt lat="45.11143" lon="5.27558">
        <ele>198.26300048828</ele>
        <time>2009-09-17T14:29:20Z</time>
      </trkpt>
      <trkpt lat="45.11155" lon="5.27542">
        <ele>199.24899291992</ele>
        <time>2009-09-17T14:29:23Z</time>
      </trkpt>
      <trkpt lat="45.11172" lon="5.27518">
        <ele>200.3809967041</ele>
        <time>2009-09-17T14:29:28Z</time>
      </trkpt>
      <trkpt lat="45.11211" lon="5.27487">
        <ele>202.35800170898</ele>
        <time>2009-09-17T14:29:38Z</time>
      </trkpt>
      <trkpt lat="45.11279" lon="5.2747">
        <ele>205.35299682617</ele>
        <time>2009-09-17T14:29:52Z</time>
      </trkpt>
      <trkpt lat="45.11345" lon="5.2747">
        <ele>209.26699829102</ele>
        <time>2009-09-17T14:30:09Z</time>
      </trkpt>
      <trkpt lat="45.1142" lon="5.27467">
        <ele>213.28900146484</ele>
        <time>2009-09-17T14:30:28Z</time>
      </trkpt>
      <trkpt lat="45.11491" lon="5.27466">
        <ele>217.32299804688</ele>
        <time>2009-09-17T14:30:45Z</time>
      </trkpt>
      <trkpt lat="45.11571" lon="5.27479">
        <ele>221.92399597168</ele>
        <time>2009-09-17T14:31:03Z</time>
      </trkpt>
      <trkpt lat="45.11637" lon="5.27506">
        <ele>226.23899841309</ele>
        <time>2009-09-17T14:31:19Z</time>
      </trkpt>
      <trkpt lat="45.11684" lon="5.2756">
        <ele>229.46000671387</ele>
        <time>2009-09-17T14:31:33Z</time>
      </trkpt>
      <trkpt lat="45.11687" lon="5.27564">
        <ele>229.70500183106</ele>
        <time>2009-09-17T14:31:34Z</time>
      </trkpt>
      <trkpt lat="45.11742" lon="5.27633">
        <ele>233.82099914551</ele>
        <time>2009-09-17T14:31:51Z</time>
      </trkpt>
      <trkpt lat="45.11774" lon="5.27663">
        <ele>235.69500732422</ele>
        <time>2009-09-17T14:32:00Z</time>
      </trkpt>
      <trkpt lat="45.11836" lon="5.27701">
        <ele>238.97999572754</ele>
        <time>2009-09-17T14:32:15Z</time>
      </trkpt>
      <trkpt lat="45.11887" lon="5.2773">
        <ele>241.97099304199</ele>
        <time>2009-09-17T14:32:28Z</time>
      </trkpt>
      <trkpt lat="45.11944" lon="5.27786">
        <ele>245.52900695801</ele>
        <time>2009-09-17T14:32:45Z</time>
      </trkpt>
      <trkpt lat="45.11977" lon="5.27849">
        <ele>248.48699951172</ele>
        <time>2009-09-17T14:32:58Z</time>
      </trkpt>
      <trkpt lat="45.12042" lon="5.27907">
        <ele>252.18699645996</ele>
        <time>2009-09-17T14:33:16Z</time>
      </trkpt>
      <trkpt lat="45.12098" lon="5.27948">
        <ele>255.17799377441</ele>
        <time>2009-09-17T14:33:32Z</time>
      </trkpt>
      <trkpt lat="45.12104" lon="5.27955">
        <ele>255.70899963379</ele>
        <time>2009-09-17T14:33:34Z</time>
      </trkpt>
      <trkpt lat="45.12174" lon="5.28065">
        <ele>260.17300415039</ele>
        <time>2009-09-17T14:33:58Z</time>
      </trkpt>
      <trkpt lat="45.12236" lon="5.28143">
        <ele>261.76300048828</ele>
        <time>2009-09-17T14:34:15Z</time>
      </trkpt>
      <trkpt lat="45.12241" lon="5.28146">
        <ele>261.79800415039</ele>
        <time>2009-09-17T14:34:16Z</time>
      </trkpt>
      <trkpt lat="45.12296" lon="5.28158">
        <ele>262.20098876953</ele>
        <time>2009-09-17T14:34:26Z</time>
      </trkpt>
      <trkpt lat="45.12319" lon="5.28153">
        <ele>262.33499145508</ele>
        <time>2009-09-17T14:34:30Z</time>
      </trkpt>
      <trkpt lat="45.12404" lon="5.2812">
        <ele>263.54598999023</ele>
        <time>2009-09-17T14:34:46Z</time>
      </trkpt>
      <trkpt lat="45.12411" lon="5.28116">
        <ele>263.52499389648</ele>
        <time>2009-09-17T14:34:48Z</time>
      </trkpt>
      <trkpt lat="45.12451" lon="5.28067">
        <ele>264.49200439453</ele>
        <time>2009-09-17T14:35:00Z</time>
      </trkpt>
      <trkpt lat="45.12457" lon="5.2806">
        <ele>264.98699951172</ele>
        <time>2009-09-17T14:35:05Z</time>
      </trkpt>
      <trkpt lat="45.1246" lon="5.28055">
        <ele>264.72698974609</ele>
        <time>2009-09-17T14:35:27Z</time>
      </trkpt>
      <trkpt lat="45.12469" lon="5.28042">
        <ele>264.35998535156</ele>
        <time>2009-09-17T14:35:32Z</time>
      </trkpt>
      <trkpt lat="45.12489" lon="5.28003">
        <ele>264.38299560547</ele>
        <time>2009-09-17T14:35:40Z</time>
      </trkpt>
      <trkpt lat="45.12495" lon="5.27994">
        <ele>264.20999145508</ele>
        <time>2009-09-17T14:35:42Z</time>
      </trkpt>
      <trkpt lat="45.12506" lon="5.27971">
        <ele>264.10299682617</ele>
        <time>2009-09-17T14:35:46Z</time>
      </trkpt>
      <trkpt lat="45.12511" lon="5.27924">
        <ele>264.09100341797</ele>
        <time>2009-09-17T14:35:52Z</time>
      </trkpt>
      <trkpt lat="45.12497" lon="5.27876">
        <ele>263.77801513672</ele>
        <time>2009-09-17T14:35:58Z</time>
      </trkpt>
      <trkpt lat="45.12448" lon="5.27799">
        <ele>263.74398803711</ele>
        <time>2009-09-17T14:36:09Z</time>
      </trkpt>
      <trkpt lat="45.12441" lon="5.27716">
        <ele>263.5719909668</ele>
        <time>2009-09-17T14:36:18Z</time>
      </trkpt>
      <trkpt lat="45.12476" lon="5.27638">
        <ele>263.2919921875</ele>
        <time>2009-09-17T14:36:28Z</time>
      </trkpt>
      <trkpt lat="45.12502" lon="5.2762">
        <ele>262.8210144043</ele>
        <time>2009-09-17T14:36:32Z</time>
      </trkpt>
      <trkpt lat="45.12535" lon="5.2764">
        <ele>262.10000610352</ele>
        <time>2009-09-17T14:36:37Z</time>
      </trkpt>
      <trkpt lat="45.12587" lon="5.27695">
        <ele>262.42199707031</ele>
        <time>2009-09-17T14:36:46Z</time>
      </trkpt>
      <trkpt lat="45.12645" lon="5.27743">
        <ele>262.89498901367</ele>
        <time>2009-09-17T14:36:56Z</time>
      </trkpt>
      <trkpt lat="45.12672" lon="5.27752">
        <ele>262.97799682617</ele>
        <time>2009-09-17T14:37:00Z</time>
      </trkpt>
      <trkpt lat="45.12793" lon="5.2776">
        <ele>264.7919921875</ele>
        <time>2009-09-17T14:37:17Z</time>
      </trkpt>
      <trkpt lat="45.12867" lon="5.27756">
        <ele>265.71301269531</ele>
        <time>2009-09-17T14:37:27Z</time>
      </trkpt>
      <trkpt lat="45.12965" lon="5.2776">
        <ele>266.86099243164</ele>
        <time>2009-09-17T14:37:41Z</time>
      </trkpt>
      <trkpt lat="45.13092" lon="5.27786">
        <ele>269.26098632812</ele>
        <time>2009-09-17T14:38:00Z</time>
      </trkpt>
      <trkpt lat="45.13171" lon="5.27812">
        <ele>270.0710144043</ele>
        <time>2009-09-17T14:38:12Z</time>
      </trkpt>
      <trkpt lat="45.13305" lon="5.27866">
        <ele>272.17300415039</ele>
        <time>2009-09-17T14:38:32Z</time>
      </trkpt>
      <trkpt lat="45.13438" lon="5.27932">
        <ele>273.72500610352</ele>
        <time>2009-09-17T14:38:52Z</time>
      </trkpt>
      <trkpt lat="45.13548" lon="5.27971">
        <ele>274.90100097656</ele>
        <time>2009-09-17T14:39:08Z</time>
      </trkpt>
      <trkpt lat="45.13649" lon="5.28001">
        <ele>276.41299438477</ele>
        <time>2009-09-17T14:39:23Z</time>
      </trkpt>
      <trkpt lat="45.13744" lon="5.28026">
        <ele>278.08401489258</ele>
        <time>2009-09-17T14:39:38Z</time>
      </trkpt>
      <trkpt lat="45.13783" lon="5.28027">
        <ele>278.89999389648</ele>
        <time>2009-09-17T14:39:44Z</time>
      </trkpt>
      <trkpt lat="45.13879" lon="5.28061">
        <ele>280.38800048828</ele>
        <time>2009-09-17T14:39:59Z</time>
      </trkpt>
      <trkpt lat="45.13972" lon="5.281">
        <ele>282.43499755859</ele>
        <time>2009-09-17T14:40:14Z</time>
      </trkpt>
      <trkpt lat="45.13996" lon="5.28118">
        <ele>282.96398925781</ele>
        <time>2009-09-17T14:40:19Z</time>
      </trkpt>
      <trkpt lat="45.14003" lon="5.28096">
        <ele>282.89599609375</ele>
        <time>2009-09-17T14:40:25Z</time>
      </trkpt>
      <trkpt lat="45.14012" lon="5.28094">
        <ele>282.75900268555</ele>
        <time>2009-09-17T14:40:27Z</time>
      </trkpt>
      <trkpt lat="45.14024" lon="5.28096">
        <ele>282.73098754883</ele>
        <time>2009-09-17T14:40:29Z</time>
      </trkpt>
      <trkpt lat="45.14128" lon="5.28091">
        <ele>283.48199462891</ele>
        <time>2009-09-17T14:40:45Z</time>
      </trkpt>
      <trkpt lat="45.14149" lon="5.28088">
        <ele>283.33599853516</ele>
        <time>2009-09-17T14:40:48Z</time>
      </trkpt>
      <trkpt lat="45.14167" lon="5.28077">
        <ele>283.78100585938</ele>
        <time>2009-09-17T14:40:51Z</time>
      </trkpt>
      <trkpt lat="45.14209" lon="5.28079">
        <ele>284.16198730469</ele>
        <time>2009-09-17T14:40:58Z</time>
      </trkpt>
      <trkpt lat="45.14221" lon="5.28079">
        <ele>284.05099487305</ele>
        <time>2009-09-17T14:41:00Z</time>
      </trkpt>
      <trkpt lat="45.14301" lon="5.2808">
        <ele>284.21899414062</ele>
        <time>2009-09-17T14:41:12Z</time>
      </trkpt>
      <trkpt lat="45.14327" lon="5.28089">
        <ele>284.44900512695</ele>
        <time>2009-09-17T14:41:16Z</time>
      </trkpt>
      <trkpt lat="45.1436" lon="5.28131">
        <ele>284.80999755859</ele>
        <time>2009-09-17T14:41:24Z</time>
      </trkpt>
      <trkpt lat="45.14363" lon="5.28151">
        <ele>285.48001098633</ele>
        <time>2009-09-17T14:41:26Z</time>
      </trkpt>
      <trkpt lat="45.1435" lon="5.28238">
        <ele>287.02899169922</ele>
        <time>2009-09-17T14:41:36Z</time>
      </trkpt>
      <trkpt lat="45.14341" lon="5.28279">
        <ele>286.66400146484</ele>
        <time>2009-09-17T14:41:41Z</time>
      </trkpt>
      <trkpt lat="45.14333" lon="5.28297">
        <ele>286.01098632812</ele>
        <time>2009-09-17T14:41:43Z</time>
      </trkpt>
      <trkpt lat="45.14317" lon="5.28329">
        <ele>286.46798706055</ele>
        <time>2009-09-17T14:41:47Z</time>
      </trkpt>
      <trkpt lat="45.14297" lon="5.28368">
        <ele>287.5</ele>
        <time>2009-09-17T14:41:56Z</time>
      </trkpt>
      <trkpt lat="45.14293" lon="5.28373">
        <ele>287.03399658203</ele>
        <time>2009-09-17T14:42:29Z</time>
      </trkpt>
      <trkpt lat="45.1429" lon="5.28373">
        <ele>286.95901489258</ele>
        <time>2009-09-17T14:42:30Z</time>
      </trkpt>
      <trkpt lat="45.14294" lon="5.28377">
        <ele>287.1789855957</ele>
        <time>2009-09-17T14:42:35Z</time>
      </trkpt>
      <trkpt lat="45.14298" lon="5.28371">
        <ele>287.25299072266</ele>
        <time>2009-09-17T14:42:39Z</time>
      </trkpt>
      <trkpt lat="45.14316" lon="5.28336">
        <ele>286.41101074219</ele>
        <time>2009-09-17T14:42:50Z</time>
      </trkpt>
      <trkpt lat="45.14343" lon="5.28267">
        <ele>287.55700683594</ele>
        <time>2009-09-17T14:43:03Z</time>
      </trkpt>
      <trkpt lat="45.14345" lon="5.28259">
        <ele>287.73098754883</ele>
        <time>2009-09-17T14:43:05Z</time>
      </trkpt>
      <trkpt lat="45.14351" lon="5.2822">
        <ele>286.79501342773</ele>
        <time>2009-09-17T14:43:11Z</time>
      </trkpt>
      <trkpt lat="45.14355" lon="5.28154">
        <ele>285.5530090332</ele>
        <time>2009-09-17T14:43:18Z</time>
      </trkpt>
      <trkpt lat="45.1436" lon="5.28105">
        <ele>285.48001098633</ele>
        <time>2009-09-17T14:43:23Z</time>
      </trkpt>
      <trkpt lat="45.14366" lon="5.28089">
        <ele>285.95901489258</ele>
        <time>2009-09-17T14:43:25Z</time>
      </trkpt>
      <trkpt lat="45.14437" lon="5.2795">
        <ele>286.39599609375</ele>
        <time>2009-09-17T14:43:43Z</time>
      </trkpt>
      <trkpt lat="45.14474" lon="5.27875">
        <ele>287.38198852539</ele>
        <time>2009-09-17T14:43:53Z</time>
      </trkpt>
      <trkpt lat="45.14517" lon="5.27769">
        <ele>289.46798706055</ele>
        <time>2009-09-17T14:44:08Z</time>
      </trkpt>
      <trkpt lat="45.14532" lon="5.2772">
        <ele>290.81900024414</ele>
        <time>2009-09-17T14:44:15Z</time>
      </trkpt>
      <trkpt lat="45.1454" lon="5.27686">
        <ele>291.44299316406</ele>
        <time>2009-09-17T14:44:20Z</time>
      </trkpt>
      <trkpt lat="45.14548" lon="5.27654">
        <ele>292.59799194336</ele>
        <time>2009-09-17T14:44:25Z</time>
      </trkpt>
      <trkpt lat="45.14563" lon="5.2762">
        <ele>293.72100830078</ele>
        <time>2009-09-17T14:44:31Z</time>
      </trkpt>
      <trkpt lat="45.14581" lon="5.27588">
        <ele>294.1780090332</ele>
        <time>2009-09-17T14:44:37Z</time>
      </trkpt>
      <trkpt lat="45.14585" lon="5.27583">
        <ele>294.25399780273</ele>
        <time>2009-09-17T14:44:38Z</time>
      </trkpt>
      <trkpt lat="45.14647" lon="5.27536">
        <ele>296.99301147461</ele>
        <time>2009-09-17T14:44:52Z</time>
      </trkpt>
      <trkpt lat="45.14732" lon="5.27483">
        <ele>299.29299926758</ele>
        <time>2009-09-17T14:45:10Z</time>
      </trkpt>
      <trkpt lat="45.1481" lon="5.27431">
        <ele>300.02801513672</ele>
        <time>2009-09-17T14:45:24Z</time>
      </trkpt>
      <trkpt lat="45.14935" lon="5.2731">
        <ele>300.75900268555</ele>
        <time>2009-09-17T14:45:44Z</time>
      </trkpt>
      <trkpt lat="45.15057" lon="5.27186">
        <ele>302.0950012207</ele>
        <time>2009-09-17T14:46:03Z</time>
      </trkpt>
      <trkpt lat="45.15136" lon="5.27097">
        <ele>303.4880065918</ele>
        <time>2009-09-17T14:46:16Z</time>
      </trkpt>
      <trkpt lat="45.15201" lon="5.27037">
        <ele>304.61801147461</ele>
        <time>2009-09-17T14:46:28Z</time>
      </trkpt>
      <trkpt lat="45.15294" lon="5.26939">
        <ele>306.61401367188</ele>
        <time>2009-09-17T14:46:46Z</time>
      </trkpt>
      <trkpt lat="45.15392" lon="5.26835">
        <ele>308.40100097656</ele>
        <time>2009-09-17T14:47:04Z</time>
      </trkpt>
      <trkpt lat="45.15426" lon="5.2679">
        <ele>309.0119934082</ele>
        <time>2009-09-17T14:47:11Z</time>
      </trkpt>
      <trkpt lat="45.15494" lon="5.26633">
        <ele>310.94500732422</ele>
        <time>2009-09-17T14:47:31Z</time>
      </trkpt>
      <trkpt lat="45.15496" lon="5.26626">
        <ele>311.47698974609</ele>
        <time>2009-09-17T14:47:32Z</time>
      </trkpt>
      <trkpt lat="45.15508" lon="5.26591">
        <ele>312.27899169922</ele>
        <time>2009-09-17T14:47:37Z</time>
      </trkpt>
      <trkpt lat="45.15521" lon="5.26519">
        <ele>315.20199584961</ele>
        <time>2009-09-17T14:47:47Z</time>
      </trkpt>
      <trkpt lat="45.15525" lon="5.26488">
        <ele>316.58599853516</ele>
        <time>2009-09-17T14:47:52Z</time>
      </trkpt>
      <trkpt lat="45.15545" lon="5.26431">
        <ele>320.34298706055</ele>
        <time>2009-09-17T14:48:04Z</time>
      </trkpt>
      <trkpt lat="45.15568" lon="5.26376">
        <ele>323.79400634766</ele>
        <time>2009-09-17T14:48:17Z</time>
      </trkpt>
      <trkpt lat="45.15598" lon="5.26312">
        <ele>327.99798583984</ele>
        <time>2009-09-17T14:48:33Z</time>
      </trkpt>
      <trkpt lat="45.15613" lon="5.26247">
        <ele>331.17300415039</ele>
        <time>2009-09-17T14:48:48Z</time>
      </trkpt>
      <trkpt lat="45.15617" lon="5.26196">
        <ele>334.07901000977</ele>
        <time>2009-09-17T14:49:00Z</time>
      </trkpt>
      <trkpt lat="45.15625" lon="5.26124">
        <ele>338.01699829102</ele>
        <time>2009-09-17T14:49:16Z</time>
      </trkpt>
      <trkpt lat="45.15636" lon="5.26063">
        <ele>341.5710144043</ele>
        <time>2009-09-17T14:49:30Z</time>
      </trkpt>
      <trkpt lat="45.1565" lon="5.26015">
        <ele>344.57699584961</ele>
        <time>2009-09-17T14:49:41Z</time>
      </trkpt>
      <trkpt lat="45.15664" lon="5.25956">
        <ele>347.76400756836</ele>
        <time>2009-09-17T14:49:55Z</time>
      </trkpt>
      <trkpt lat="45.15655" lon="5.25908">
        <ele>350.40200805664</ele>
        <time>2009-09-17T14:50:06Z</time>
      </trkpt>
      <trkpt lat="45.15633" lon="5.25859">
        <ele>353.31298828125</ele>
        <time>2009-09-17T14:50:18Z</time>
      </trkpt>
      <trkpt lat="45.15602" lon="5.25813">
        <ele>355.80499267578</ele>
        <time>2009-09-17T14:50:30Z</time>
      </trkpt>
      <trkpt lat="45.15559" lon="5.2577">
        <ele>358.66799926758</ele>
        <time>2009-09-17T14:50:44Z</time>
      </trkpt>
      <trkpt lat="45.15517" lon="5.25705">
        <ele>360.6969909668</ele>
        <time>2009-09-17T14:50:58Z</time>
      </trkpt>
      <trkpt lat="45.15457" lon="5.25603">
        <ele>357.84298706055</ele>
        <time>2009-09-17T14:51:14Z</time>
      </trkpt>
      <trkpt lat="45.15453" lon="5.25594">
        <ele>357.79000854492</ele>
        <time>2009-09-17T14:51:15Z</time>
      </trkpt>
      <trkpt lat="45.15446" lon="5.25564">
        <ele>356.48300170898</ele>
        <time>2009-09-17T14:51:18Z</time>
      </trkpt>
      <trkpt lat="45.1544" lon="5.25533">
        <ele>355.64099121094</ele>
        <time>2009-09-17T14:51:21Z</time>
      </trkpt>
      <trkpt lat="45.15456" lon="5.25493">
        <ele>357.1780090332</ele>
        <time>2009-09-17T14:51:26Z</time>
      </trkpt>
      <trkpt lat="45.15462" lon="5.25491">
        <ele>357.75698852539</ele>
        <time>2009-09-17T14:51:27Z</time>
      </trkpt>
      <trkpt lat="45.15559" lon="5.2544">
        <ele>353.79501342773</ele>
        <time>2009-09-17T14:51:41Z</time>
      </trkpt>
      <trkpt lat="45.15625" lon="5.25422">
        <ele>351.13400268555</ele>
        <time>2009-09-17T14:51:48Z</time>
      </trkpt>
      <trkpt lat="45.15663" lon="5.25412">
        <ele>349.71398925781</ele>
        <time>2009-09-17T14:51:52Z</time>
      </trkpt>
      <trkpt lat="45.15738" lon="5.2541">
        <ele>347.77200317383</ele>
        <time>2009-09-17T14:52:00Z</time>
      </trkpt>
      <trkpt lat="45.15793" lon="5.2542">
        <ele>346.66299438477</ele>
        <time>2009-09-17T14:52:07Z</time>
      </trkpt>
      <trkpt lat="45.15818" lon="5.25426">
        <ele>346.36801147461</ele>
        <time>2009-09-17T14:52:10Z</time>
      </trkpt>
      <trkpt lat="45.15849" lon="5.25434">
        <ele>346.18301391602</ele>
        <time>2009-09-17T14:52:14Z</time>
      </trkpt>
      <trkpt lat="45.1588" lon="5.25439">
        <ele>345.94198608398</ele>
        <time>2009-09-17T14:52:18Z</time>
      </trkpt>
      <trkpt lat="45.15902" lon="5.25436">
        <ele>346.67001342773</ele>
        <time>2009-09-17T14:52:21Z</time>
      </trkpt>
      <trkpt lat="45.1596" lon="5.25402">
        <ele>350.42599487305</ele>
        <time>2009-09-17T14:52:32Z</time>
      </trkpt>
      <trkpt lat="45.15965" lon="5.25399">
        <ele>351.07000732422</ele>
        <time>2009-09-17T14:52:33Z</time>
      </trkpt>
      <trkpt lat="45.15998" lon="5.25365">
        <ele>352.03201293945</ele>
        <time>2009-09-17T14:52:41Z</time>
      </trkpt>
      <trkpt lat="45.16027" lon="5.2534">
        <ele>353.30801391602</ele>
        <time>2009-09-17T14:52:47Z</time>
      </trkpt>
      <trkpt lat="45.16056" lon="5.25317">
        <ele>355.32598876953</ele>
        <time>2009-09-17T14:52:53Z</time>
      </trkpt>
      <trkpt lat="45.161" lon="5.25304">
        <ele>357.39498901367</ele>
        <time>2009-09-17T14:53:01Z</time>
      </trkpt>
      <trkpt lat="45.16155" lon="5.25292">
        <ele>360.62100219727</ele>
        <time>2009-09-17T14:53:12Z</time>
      </trkpt>
      <trkpt lat="45.16175" lon="5.25285">
        <ele>361.49200439453</ele>
        <time>2009-09-17T14:53:17Z</time>
      </trkpt>
      <trkpt lat="45.16184" lon="5.2528">
        <ele>362.16500854492</ele>
        <time>2009-09-17T14:53:19Z</time>
      </trkpt>
      <trkpt lat="45.1628" lon="5.2523">
        <ele>364.92700195312</ele>
        <time>2009-09-17T14:53:39Z</time>
      </trkpt>
      <trkpt lat="45.16361" lon="5.25191">
        <ele>365.4049987793</ele>
        <time>2009-09-17T14:53:52Z</time>
      </trkpt>
      <trkpt lat="45.16423" lon="5.25134">
        <ele>365.08099365234</ele>
        <time>2009-09-17T14:54:03Z</time>
      </trkpt>
      <trkpt lat="45.16497" lon="5.2506">
        <ele>365.37399291992</ele>
        <time>2009-09-17T14:54:15Z</time>
      </trkpt>
      <trkpt lat="45.16547" lon="5.24963">
        <ele>367.43499755859</ele>
        <time>2009-09-17T14:54:27Z</time>
      </trkpt>
      <trkpt lat="45.16571" lon="5.24919">
        <ele>368.3330078125</ele>
        <time>2009-09-17T14:54:33Z</time>
      </trkpt>
      <trkpt lat="45.16666" lon="5.24829">
        <ele>369.35101318359</ele>
        <time>2009-09-17T14:54:50Z</time>
      </trkpt>
      <trkpt lat="45.16753" lon="5.24724">
        <ele>370.94100952148</ele>
        <time>2009-09-17T14:55:07Z</time>
      </trkpt>
      <trkpt lat="45.16854" lon="5.24599">
        <ele>372.6369934082</ele>
        <time>2009-09-17T14:55:27Z</time>
      </trkpt>
      <trkpt lat="45.16944" lon="5.2449">
        <ele>370.02200317383</ele>
        <time>2009-09-17T14:55:42Z</time>
      </trkpt>
      <trkpt lat="45.1695" lon="5.24408">
        <ele>369.53698730469</ele>
        <time>2009-09-17T14:55:49Z</time>
      </trkpt>
      <trkpt lat="45.16932" lon="5.24366">
        <ele>369.17001342773</ele>
        <time>2009-09-17T14:55:53Z</time>
      </trkpt>
      <trkpt lat="45.16907" lon="5.24334">
        <ele>368.92001342773</ele>
        <time>2009-09-17T14:55:57Z</time>
      </trkpt>
      <trkpt lat="45.16878" lon="5.24315">
        <ele>368.59201049805</ele>
        <time>2009-09-17T14:56:01Z</time>
      </trkpt>
      <trkpt lat="45.16738" lon="5.24272">
        <ele>368.69900512695</ele>
        <time>2009-09-17T14:56:20Z</time>
      </trkpt>
      <trkpt lat="45.1659" lon="5.24224">
        <ele>368.10699462891</ele>
        <time>2009-09-17T14:56:40Z</time>
      </trkpt>
      <trkpt lat="45.16583" lon="5.24219">
        <ele>367.9880065918</ele>
        <time>2009-09-17T14:56:41Z</time>
      </trkpt>
      <trkpt lat="45.16542" lon="5.24146">
        <ele>366.51300048828</ele>
        <time>2009-09-17T14:56:49Z</time>
      </trkpt>
      <trkpt lat="45.16483" lon="5.23866">
        <ele>361.17199707031</ele>
        <time>2009-09-17T14:57:11Z</time>
      </trkpt>
      <trkpt lat="45.16487" lon="5.238">
        <ele>359.97698974609</ele>
        <time>2009-09-17T14:57:16Z</time>
      </trkpt>
      <trkpt lat="45.16504" lon="5.23755">
        <ele>359.88598632812</ele>
        <time>2009-09-17T14:57:20Z</time>
      </trkpt>
      <trkpt lat="45.16537" lon="5.23719">
        <ele>360.24301147461</ele>
        <time>2009-09-17T14:57:25Z</time>
      </trkpt>
      <trkpt lat="45.16669" lon="5.23678">
        <ele>360.25900268555</ele>
        <time>2009-09-17T14:57:43Z</time>
      </trkpt>
      <trkpt lat="45.16792" lon="5.23651">
        <ele>359.25900268555</ele>
        <time>2009-09-17T14:57:59Z</time>
      </trkpt>
      <trkpt lat="45.16881" lon="5.23689">
        <ele>357.93701171875</ele>
        <time>2009-09-17T14:58:10Z</time>
      </trkpt>
      <trkpt lat="45.16906" lon="5.23697">
        <ele>357.47500610352</ele>
        <time>2009-09-17T14:58:13Z</time>
      </trkpt>
      <trkpt lat="45.16956" lon="5.2368">
        <ele>356.51501464844</ele>
        <time>2009-09-17T14:58:19Z</time>
      </trkpt>
      <trkpt lat="45.1697" lon="5.23666">
        <ele>356.30700683594</ele>
        <time>2009-09-17T14:58:21Z</time>
      </trkpt>
      <trkpt lat="45.16995" lon="5.23585">
        <ele>357.88400268555</ele>
        <time>2009-09-17T14:58:30Z</time>
      </trkpt>
      <trkpt lat="45.16994" lon="5.23567">
        <ele>358.43600463867</ele>
        <time>2009-09-17T14:58:32Z</time>
      </trkpt>
      <trkpt lat="45.16988" lon="5.23537">
        <ele>358.83599853516</ele>
        <time>2009-09-17T14:58:36Z</time>
      </trkpt>
      <trkpt lat="45.16968" lon="5.23499">
        <ele>360.37298583984</ele>
        <time>2009-09-17T14:58:42Z</time>
      </trkpt>
      <trkpt lat="45.16956" lon="5.23484">
        <ele>360.71701049805</ele>
        <time>2009-09-17T14:58:45Z</time>
      </trkpt>
      <trkpt lat="45.16935" lon="5.23471">
        <ele>361.24798583984</ele>
        <time>2009-09-17T14:58:49Z</time>
      </trkpt>
      <trkpt lat="45.16889" lon="5.23461">
        <ele>362.80200195312</ele>
        <time>2009-09-17T14:58:57Z</time>
      </trkpt>
      <trkpt lat="45.16878" lon="5.23458">
        <ele>363.14898681641</ele>
        <time>2009-09-17T14:58:59Z</time>
      </trkpt>
      <trkpt lat="45.16867" lon="5.23455">
        <ele>363.61999511719</ele>
        <time>2009-09-17T14:59:01Z</time>
      </trkpt>
      <trkpt lat="45.16845" lon="5.23436">
        <ele>364.91198730469</ele>
        <time>2009-09-17T14:59:06Z</time>
      </trkpt>
      <trkpt lat="45.16836" lon="5.23421">
        <ele>365.29998779297</ele>
        <time>2009-09-17T14:59:09Z</time>
      </trkpt>
      <trkpt lat="45.16829" lon="5.23397">
        <ele>365.84899902344</ele>
        <time>2009-09-17T14:59:13Z</time>
      </trkpt>
      <trkpt lat="45.1683" lon="5.23363">
        <ele>366.7380065918</ele>
        <time>2009-09-17T14:59:18Z</time>
      </trkpt>
      <trkpt lat="45.16843" lon="5.23326">
        <ele>367.43200683594</ele>
        <time>2009-09-17T14:59:24Z</time>
      </trkpt>
      <trkpt lat="45.16902" lon="5.23227">
        <ele>370.25698852539</ele>
        <time>2009-09-17T14:59:43Z</time>
      </trkpt>
      <trkpt lat="45.16916" lon="5.232">
        <ele>371.30700683594</ele>
        <time>2009-09-17T14:59:48Z</time>
      </trkpt>
      <trkpt lat="45.16929" lon="5.23156">
        <ele>372.59899902344</ele>
        <time>2009-09-17T14:59:55Z</time>
      </trkpt>
      <trkpt lat="45.16929" lon="5.23121">
        <ele>373.14700317383</ele>
        <time>2009-09-17T15:00:00Z</time>
      </trkpt>
      <trkpt lat="45.1692" lon="5.23049">
        <ele>373.49700927734</ele>
        <time>2009-09-17T15:00:10Z</time>
      </trkpt>
      <trkpt lat="45.16928" lon="5.2302">
        <ele>373.86801147461</ele>
        <time>2009-09-17T15:00:15Z</time>
      </trkpt>
      <trkpt lat="45.16998" lon="5.2294">
        <ele>372.44198608398</ele>
        <time>2009-09-17T15:00:29Z</time>
      </trkpt>
      <trkpt lat="45.17043" lon="5.2289">
        <ele>369.73300170898</ele>
        <time>2009-09-17T15:00:36Z</time>
      </trkpt>
      <trkpt lat="45.17068" lon="5.22857">
        <ele>368.04501342773</ele>
        <time>2009-09-17T15:00:40Z</time>
      </trkpt>
      <trkpt lat="45.17086" lon="5.2281">
        <ele>365.98999023438</ele>
        <time>2009-09-17T15:00:44Z</time>
      </trkpt>
      <trkpt lat="45.17093" lon="5.2278">
        <ele>364.51098632812</ele>
        <time>2009-09-17T15:00:46Z</time>
      </trkpt>
      <trkpt lat="45.17129" lon="5.22706">
        <ele>361.22500610352</ele>
        <time>2009-09-17T15:00:52Z</time>
      </trkpt>
      <trkpt lat="45.17154" lon="5.22656">
        <ele>359.01998901367</ele>
        <time>2009-09-17T15:00:56Z</time>
      </trkpt>
      <trkpt lat="45.17164" lon="5.22629">
        <ele>357.79998779297</ele>
        <time>2009-09-17T15:00:58Z</time>
      </trkpt>
      <trkpt lat="45.17171" lon="5.22569">
        <ele>355.90701293945</ele>
        <time>2009-09-17T15:01:02Z</time>
      </trkpt>
      <trkpt lat="45.17194" lon="5.22468">
        <ele>352.52499389648</ele>
        <time>2009-09-17T15:01:09Z</time>
      </trkpt>
      <trkpt lat="45.17266" lon="5.22377">
        <ele>351.10501098633</ele>
        <time>2009-09-17T15:01:18Z</time>
      </trkpt>
      <trkpt lat="45.17336" lon="5.22273">
        <ele>351.17999267578</ele>
        <time>2009-09-17T15:01:29Z</time>
      </trkpt>
      <trkpt lat="45.17343" lon="5.22231">
        <ele>351.20999145508</ele>
        <time>2009-09-17T15:01:33Z</time>
      </trkpt>
      <trkpt lat="45.1734" lon="5.22075">
        <ele>351.55899047852</ele>
        <time>2009-09-17T15:01:47Z</time>
      </trkpt>
      <trkpt lat="45.17337" lon="5.21952">
        <ele>352.02099609375</ele>
        <time>2009-09-17T15:02:01Z</time>
      </trkpt>
      <trkpt lat="45.17336" lon="5.21888">
        <ele>353.06201171875</ele>
        <time>2009-09-17T15:02:10Z</time>
      </trkpt>
      <trkpt lat="45.17339" lon="5.21861">
        <ele>353.58401489258</ele>
        <time>2009-09-17T15:02:14Z</time>
      </trkpt>
      <trkpt lat="45.17346" lon="5.21838">
        <ele>353.97900390625</ele>
        <time>2009-09-17T15:02:18Z</time>
      </trkpt>
      <trkpt lat="45.17365" lon="5.21796">
        <ele>354.80499267578</ele>
        <time>2009-09-17T15:02:26Z</time>
      </trkpt>
      <trkpt lat="45.17383" lon="5.21762">
        <ele>355.24499511719</ele>
        <time>2009-09-17T15:02:32Z</time>
      </trkpt>
      <trkpt lat="45.1741" lon="5.21707">
        <ele>356.36099243164</ele>
        <time>2009-09-17T15:02:45Z</time>
      </trkpt>
      <trkpt lat="45.17441" lon="5.21639">
        <ele>357.95700073242</ele>
        <time>2009-09-17T15:02:58Z</time>
      </trkpt>
      <trkpt lat="45.17483" lon="5.21555">
        <ele>358.00799560547</ele>
        <time>2009-09-17T15:03:13Z</time>
      </trkpt>
      <trkpt lat="45.17496" lon="5.21529">
        <ele>357.30999755859</ele>
        <time>2009-09-17T15:03:17Z</time>
      </trkpt>
      <trkpt lat="45.17505" lon="5.21517">
        <ele>356.85900878906</ele>
        <time>2009-09-17T15:03:19Z</time>
      </trkpt>
      <trkpt lat="45.17572" lon="5.21463">
        <ele>355.94299316406</ele>
        <time>2009-09-17T15:03:31Z</time>
      </trkpt>
      <trkpt lat="45.17596" lon="5.2145">
        <ele>356.09600830078</ele>
        <time>2009-09-17T15:03:35Z</time>
      </trkpt>
      <trkpt lat="45.17621" lon="5.21449">
        <ele>356.89300537109</ele>
        <time>2009-09-17T15:03:39Z</time>
      </trkpt>
      <trkpt lat="45.1765" lon="5.21457">
        <ele>358.0299987793</ele>
        <time>2009-09-17T15:03:44Z</time>
      </trkpt>
      <trkpt lat="45.17672" lon="5.21464">
        <ele>359.28601074219</ele>
        <time>2009-09-17T15:03:48Z</time>
      </trkpt>
      <trkpt lat="45.17696" lon="5.21455">
        <ele>360.25900268555</ele>
        <time>2009-09-17T15:03:53Z</time>
      </trkpt>
      <trkpt lat="45.17705" lon="5.21446">
        <ele>360.45901489258</ele>
        <time>2009-09-17T15:03:55Z</time>
      </trkpt>
      <trkpt lat="45.17738" lon="5.21402">
        <ele>361.72698974609</ele>
        <time>2009-09-17T15:04:04Z</time>
      </trkpt>
      <trkpt lat="45.17756" lon="5.21381">
        <ele>361.58999633789</ele>
        <time>2009-09-17T15:04:08Z</time>
      </trkpt>
      <trkpt lat="45.17826" lon="5.21364">
        <ele>361.82800292969</ele>
        <time>2009-09-17T15:04:20Z</time>
      </trkpt>
      <trkpt lat="45.17886" lon="5.21349">
        <ele>364.10501098633</ele>
        <time>2009-09-17T15:04:31Z</time>
      </trkpt>
      <trkpt lat="45.17918" lon="5.21358">
        <ele>365.65798950195</ele>
        <time>2009-09-17T15:04:37Z</time>
      </trkpt>
      <trkpt lat="45.1794" lon="5.21378">
        <ele>366.62200927734</ele>
        <time>2009-09-17T15:04:42Z</time>
      </trkpt>
      <trkpt lat="45.18007" lon="5.21425">
        <ele>369.49899291992</ele>
        <time>2009-09-17T15:04:56Z</time>
      </trkpt>
      <trkpt lat="45.18011" lon="5.21428">
        <ele>369.68301391602</ele>
        <time>2009-09-17T15:04:57Z</time>
      </trkpt>
      <trkpt lat="45.181" lon="5.21423">
        <ele>373.72601318359</ele>
        <time>2009-09-17T15:05:14Z</time>
      </trkpt>
      <trkpt lat="45.18159" lon="5.21429">
        <ele>376.27099609375</ele>
        <time>2009-09-17T15:05:25Z</time>
      </trkpt>
      <trkpt lat="45.18247" lon="5.21431">
        <ele>381.42498779297</ele>
        <time>2009-09-17T15:05:43Z</time>
      </trkpt>
      <trkpt lat="45.18342" lon="5.2139">
        <ele>387.43701171875</ele>
        <time>2009-09-17T15:06:04Z</time>
      </trkpt>
      <trkpt lat="45.18424" lon="5.21343">
        <ele>393.05599975586</ele>
        <time>2009-09-17T15:06:24Z</time>
      </trkpt>
      <trkpt lat="45.18511" lon="5.2129">
        <ele>398.72399902344</ele>
        <time>2009-09-17T15:06:46Z</time>
      </trkpt>
      <trkpt lat="45.18567" lon="5.21257">
        <ele>402.48400878906</ele>
        <time>2009-09-17T15:07:00Z</time>
      </trkpt>
      <trkpt lat="45.18584" lon="5.21248">
        <ele>403.54400634766</ele>
        <time>2009-09-17T15:07:04Z</time>
      </trkpt>
      <trkpt lat="45.18656" lon="5.21205">
        <ele>408.34899902344</ele>
        <time>2009-09-17T15:07:21Z</time>
      </trkpt>
      <trkpt lat="45.18733" lon="5.21161">
        <ele>413.60800170898</ele>
        <time>2009-09-17T15:07:39Z</time>
      </trkpt>
      <trkpt lat="45.18793" lon="5.21147">
        <ele>417.45599365234</ele>
        <time>2009-09-17T15:07:53Z</time>
      </trkpt>
      <trkpt lat="45.18824" lon="5.21139">
        <ele>419.53500366211</ele>
        <time>2009-09-17T15:08:00Z</time>
      </trkpt>
      <trkpt lat="45.18912" lon="5.21107">
        <ele>424.98400878906</ele>
        <time>2009-09-17T15:08:20Z</time>
      </trkpt>
      <trkpt lat="45.18941" lon="5.21094">
        <ele>426.99099731445</ele>
        <time>2009-09-17T15:08:27Z</time>
      </trkpt>
      <trkpt lat="45.19002" lon="5.2104">
        <ele>431.02499389648</ele>
        <time>2009-09-17T15:08:42Z</time>
      </trkpt>
      <trkpt lat="45.19045" lon="5.20993">
        <ele>434.61999511719</ele>
        <time>2009-09-17T15:08:53Z</time>
      </trkpt>
      <trkpt lat="45.19091" lon="5.20877">
        <ele>438.00399780273</ele>
        <time>2009-09-17T15:09:11Z</time>
      </trkpt>
      <trkpt lat="45.19118" lon="5.20826">
        <ele>438.95599365234</ele>
        <time>2009-09-17T15:09:19Z</time>
      </trkpt>
      <trkpt lat="45.1922" lon="5.20726">
        <ele>443.86801147461</ele>
        <time>2009-09-17T15:09:43Z</time>
      </trkpt>
      <trkpt lat="45.19257" lon="5.20691">
        <ele>446.04901123047</ele>
        <time>2009-09-17T15:09:52Z</time>
      </trkpt>
      <trkpt lat="45.19341" lon="5.20657">
        <ele>449.86898803711</ele>
        <time>2009-09-17T15:10:09Z</time>
      </trkpt>
      <trkpt lat="45.19362" lon="5.20651">
        <ele>450.64199829102</ele>
        <time>2009-09-17T15:10:13Z</time>
      </trkpt>
      <trkpt lat="45.19447" lon="5.20623">
        <ele>454.22100830078</ele>
        <time>2009-09-17T15:10:30Z</time>
      </trkpt>
      <trkpt lat="45.19505" lon="5.20568">
        <ele>459.19799804688</ele>
        <time>2009-09-17T15:10:46Z</time>
      </trkpt>
      <trkpt lat="45.19532" lon="5.205">
        <ele>463.10900878906</ele>
        <time>2009-09-17T15:11:00Z</time>
      </trkpt>
      <trkpt lat="45.19535" lon="5.2048">
        <ele>463.99398803711</ele>
        <time>2009-09-17T15:11:04Z</time>
      </trkpt>
      <trkpt lat="45.19538" lon="5.20437">
        <ele>465.81900024414</ele>
        <time>2009-09-17T15:11:12Z</time>
      </trkpt>
      <trkpt lat="45.19553" lon="5.20344">
        <ele>469.95599365234</ele>
        <time>2009-09-17T15:11:30Z</time>
      </trkpt>
      <trkpt lat="45.19582" lon="5.20277">
        <ele>474.23498535156</ele>
        <time>2009-09-17T15:11:45Z</time>
      </trkpt>
      <trkpt lat="45.19616" lon="5.20234">
        <ele>477.72500610352</ele>
        <time>2009-09-17T15:11:59Z</time>
      </trkpt>
      <trkpt lat="45.19658" lon="5.20221">
        <ele>481.03100585938</ele>
        <time>2009-09-17T15:12:12Z</time>
      </trkpt>
      <trkpt lat="45.19671" lon="5.2019">
        <ele>482.19299316406</ele>
        <time>2009-09-17T15:12:19Z</time>
      </trkpt>
      <trkpt lat="45.19664" lon="5.20168">
        <ele>483.03201293945</ele>
        <time>2009-09-17T15:12:23Z</time>
      </trkpt>
      <trkpt lat="45.19634" lon="5.20108">
        <ele>486.30200195312</ele>
        <time>2009-09-17T15:12:36Z</time>
      </trkpt>
      <trkpt lat="45.19632" lon="5.20019">
        <ele>490.48199462891</ele>
        <time>2009-09-17T15:12:53Z</time>
      </trkpt>
      <trkpt lat="45.19632" lon="5.19939">
        <ele>491.05499267578</ele>
        <time>2009-09-17T15:13:07Z</time>
      </trkpt>
      <trkpt lat="45.19632" lon="5.19917">
        <ele>491.03201293945</ele>
        <time>2009-09-17T15:13:10Z</time>
      </trkpt>
      <trkpt lat="45.19632" lon="5.19901">
        <ele>491.02200317383</ele>
        <time>2009-09-17T15:13:12Z</time>
      </trkpt>
      <trkpt lat="45.19629" lon="5.19869">
        <ele>490.6960144043</ele>
        <time>2009-09-17T15:13:16Z</time>
      </trkpt>
      <trkpt lat="45.19616" lon="5.19774">
        <ele>489.85000610352</ele>
        <time>2009-09-17T15:13:28Z</time>
      </trkpt>
      <trkpt lat="45.19607" lon="5.1965">
        <ele>487.24301147461</ele>
        <time>2009-09-17T15:13:42Z</time>
      </trkpt>
      <trkpt lat="45.19609" lon="5.196">
        <ele>486.05700683594</ele>
        <time>2009-09-17T15:13:47Z</time>
      </trkpt>
      <trkpt lat="45.1961" lon="5.19546">
        <ele>484.61199951172</ele>
        <time>2009-09-17T15:13:52Z</time>
      </trkpt>
      <trkpt lat="45.19611" lon="5.19503">
        <ele>484.28601074219</ele>
        <time>2009-09-17T15:13:56Z</time>
      </trkpt>
      <trkpt lat="45.19613" lon="5.19327">
        <ele>481.79699707031</ele>
        <time>2009-09-17T15:14:12Z</time>
      </trkpt>
      <trkpt lat="45.19624" lon="5.19157">
        <ele>477.63900756836</ele>
        <time>2009-09-17T15:14:27Z</time>
      </trkpt>
      <trkpt lat="45.19639" lon="5.19008">
        <ele>473.93301391602</ele>
        <time>2009-09-17T15:14:39Z</time>
      </trkpt>
      <trkpt lat="45.19642" lon="5.18916">
        <ele>471.61898803711</ele>
        <time>2009-09-17T15:14:46Z</time>
      </trkpt>
      <trkpt lat="45.19644" lon="5.18886">
        <ele>471.44100952148</ele>
        <time>2009-09-17T15:14:48Z</time>
      </trkpt>
      <trkpt lat="45.19662" lon="5.18807">
        <ele>469.25900268555</ele>
        <time>2009-09-17T15:14:54Z</time>
      </trkpt>
      <trkpt lat="45.19656" lon="5.18668">
        <ele>465.70901489258</ele>
        <time>2009-09-17T15:15:04Z</time>
      </trkpt>
      <trkpt lat="45.19658" lon="5.18521">
        <ele>462.82501220703</ele>
        <time>2009-09-17T15:15:15Z</time>
      </trkpt>
      <trkpt lat="45.19661" lon="5.18439">
        <ele>461.24600219727</ele>
        <time>2009-09-17T15:15:21Z</time>
      </trkpt>
      <trkpt lat="45.19674" lon="5.18387">
        <ele>459.69900512695</ele>
        <time>2009-09-17T15:15:25Z</time>
      </trkpt>
      <trkpt lat="45.19718" lon="5.18216">
        <ele>455.79699707031</ele>
        <time>2009-09-17T15:15:38Z</time>
      </trkpt>
      <trkpt lat="45.19733" lon="5.18004">
        <ele>451.48001098633</ele>
        <time>2009-09-17T15:15:53Z</time>
      </trkpt>
      <trkpt lat="45.19735" lon="5.17976">
        <ele>450.40899658203</ele>
        <time>2009-09-17T15:15:55Z</time>
      </trkpt>
      <trkpt lat="45.19723" lon="5.17909">
        <ele>448.81600952148</ele>
        <time>2009-09-17T15:16:00Z</time>
      </trkpt>
      <trkpt lat="45.19712" lon="5.17885">
        <ele>448.2380065918</ele>
        <time>2009-09-17T15:16:02Z</time>
      </trkpt>
      <trkpt lat="45.19722" lon="5.17808">
        <ele>446.99398803711</ele>
        <time>2009-09-17T15:16:08Z</time>
      </trkpt>
      <trkpt lat="45.19726" lon="5.17796">
        <ele>446.74798583984</ele>
        <time>2009-09-17T15:16:09Z</time>
      </trkpt>
      <trkpt lat="45.19773" lon="5.17629">
        <ele>444.10101318359</ele>
        <time>2009-09-17T15:16:22Z</time>
      </trkpt>
      <trkpt lat="45.19783" lon="5.17566">
        <ele>443.35800170898</ele>
        <time>2009-09-17T15:16:27Z</time>
      </trkpt>
      <trkpt lat="45.19781" lon="5.17526">
        <ele>442.47100830078</ele>
        <time>2009-09-17T15:16:30Z</time>
      </trkpt>
      <trkpt lat="45.19798" lon="5.17434">
        <ele>441.26400756836</ele>
        <time>2009-09-17T15:16:37Z</time>
      </trkpt>
      <trkpt lat="45.19863" lon="5.17272">
        <ele>439.00601196289</ele>
        <time>2009-09-17T15:16:51Z</time>
      </trkpt>
      <trkpt lat="45.19878" lon="5.17207">
        <ele>438.27499389648</ele>
        <time>2009-09-17T15:16:56Z</time>
      </trkpt>
      <trkpt lat="45.19884" lon="5.1705">
        <ele>436.11999511719</ele>
        <time>2009-09-17T15:17:08Z</time>
      </trkpt>
      <trkpt lat="45.19891" lon="5.16858">
        <ele>433.60900878906</ele>
        <time>2009-09-17T15:17:22Z</time>
      </trkpt>
      <trkpt lat="45.19876" lon="5.16807">
        <ele>432.96499633789</ele>
        <time>2009-09-17T15:17:26Z</time>
      </trkpt>
      <trkpt lat="45.19801" lon="5.16618">
        <ele>429.0539855957</ele>
        <time>2009-09-17T15:17:41Z</time>
      </trkpt>
      <trkpt lat="45.19789" lon="5.16576">
        <ele>427.23901367188</ele>
        <time>2009-09-17T15:17:44Z</time>
      </trkpt>
      <trkpt lat="45.19786" lon="5.16499">
        <ele>424.94500732422</ele>
        <time>2009-09-17T15:17:49Z</time>
      </trkpt>
      <trkpt lat="45.19796" lon="5.16436">
        <ele>422.65600585938</ele>
        <time>2009-09-17T15:17:53Z</time>
      </trkpt>
      <trkpt lat="45.19809" lon="5.16291">
        <ele>417.86499023438</ele>
        <time>2009-09-17T15:18:02Z</time>
      </trkpt>
      <trkpt lat="45.19839" lon="5.16177">
        <ele>419.75601196289</ele>
        <time>2009-09-17T15:18:11Z</time>
      </trkpt>
      <trkpt lat="45.19881" lon="5.16053">
        <ele>421.69799804688</ele>
        <time>2009-09-17T15:18:24Z</time>
      </trkpt>
      <trkpt lat="45.19901" lon="5.15925">
        <ele>423.0719909668</ele>
        <time>2009-09-17T15:18:39Z</time>
      </trkpt>
      <trkpt lat="45.19906" lon="5.15747">
        <ele>424.58898925781</ele>
        <time>2009-09-17T15:18:59Z</time>
      </trkpt>
      <trkpt lat="45.19888" lon="5.15591">
        <ele>424.36599731445</ele>
        <time>2009-09-17T15:19:16Z</time>
      </trkpt>
      <trkpt lat="45.19845" lon="5.15435">
        <ele>422.56799316406</ele>
        <time>2009-09-17T15:19:32Z</time>
      </trkpt>
      <trkpt lat="45.19799" lon="5.15287">
        <ele>421.65701293945</ele>
        <time>2009-09-17T15:19:47Z</time>
      </trkpt>
      <trkpt lat="45.19757" lon="5.15147">
        <ele>420.06100463867</ele>
        <time>2009-09-17T15:20:01Z</time>
      </trkpt>
      <trkpt lat="45.19732" lon="5.14997">
        <ele>417.2200012207</ele>
        <time>2009-09-17T15:20:14Z</time>
      </trkpt>
      <trkpt lat="45.19727" lon="5.1486">
        <ele>416.07501220703</ele>
        <time>2009-09-17T15:20:26Z</time>
      </trkpt>
      <trkpt lat="45.19726" lon="5.14837">
        <ele>415.52301025391</ele>
        <time>2009-09-17T15:20:28Z</time>
      </trkpt>
      <trkpt lat="45.19722" lon="5.14791">
        <ele>414.95199584961</ele>
        <time>2009-09-17T15:20:32Z</time>
      </trkpt>
      <trkpt lat="45.19677" lon="5.14707">
        <ele>412.40100097656</ele>
        <time>2009-09-17T15:20:41Z</time>
      </trkpt>
      <trkpt lat="45.19638" lon="5.14677">
        <ele>410.35400390625</ele>
        <time>2009-09-17T15:20:46Z</time>
      </trkpt>
      <trkpt lat="45.19622" lon="5.14663">
        <ele>410.08599853516</ele>
        <time>2009-09-17T15:20:48Z</time>
      </trkpt>
      <trkpt lat="45.19591" lon="5.14593">
        <ele>410.9880065918</ele>
        <time>2009-09-17T15:20:56Z</time>
      </trkpt>
      <trkpt lat="45.19591" lon="5.14583">
        <ele>411.68499755859</ele>
        <time>2009-09-17T15:20:57Z</time>
      </trkpt>
      <trkpt lat="45.19591" lon="5.14536">
        <ele>412.61099243164</ele>
        <time>2009-09-17T15:21:02Z</time>
      </trkpt>
      <trkpt lat="45.1959" lon="5.14518">
        <ele>413.18798828125</ele>
        <time>2009-09-17T15:21:04Z</time>
      </trkpt>
      <trkpt lat="45.19589" lon="5.14472">
        <ele>412.24600219727</ele>
        <time>2009-09-17T15:21:09Z</time>
      </trkpt>
      <trkpt lat="45.19584" lon="5.14442">
        <ele>411.25698852539</ele>
        <time>2009-09-17T15:21:12Z</time>
      </trkpt>
      <trkpt lat="45.19565" lon="5.1441">
        <ele>409.08999633789</ele>
        <time>2009-09-17T15:21:16Z</time>
      </trkpt>
      <trkpt lat="45.19529" lon="5.14375">
        <ele>405.57501220703</ele>
        <time>2009-09-17T15:21:21Z</time>
      </trkpt>
      <trkpt lat="45.19508" lon="5.14334">
        <ele>403.13500976562</ele>
        <time>2009-09-17T15:21:25Z</time>
      </trkpt>
      <trkpt lat="45.1951" lon="5.14285">
        <ele>402.28500366211</ele>
        <time>2009-09-17T15:21:30Z</time>
      </trkpt>
      <trkpt lat="45.19522" lon="5.14261">
        <ele>402.64999389648</ele>
        <time>2009-09-17T15:21:33Z</time>
      </trkpt>
      <trkpt lat="45.19537" lon="5.14201">
        <ele>404.41299438477</ele>
        <time>2009-09-17T15:21:41Z</time>
      </trkpt>
      <trkpt lat="45.19527" lon="5.14157">
        <ele>403.9289855957</ele>
        <time>2009-09-17T15:21:46Z</time>
      </trkpt>
      <trkpt lat="45.19518" lon="5.14115">
        <ele>402.44000244141</ele>
        <time>2009-09-17T15:21:50Z</time>
      </trkpt>
      <trkpt lat="45.19512" lon="5.14067">
        <ele>400.31698608398</ele>
        <time>2009-09-17T15:21:54Z</time>
      </trkpt>
      <trkpt lat="45.19507" lon="5.1403">
        <ele>399.07400512695</ele>
        <time>2009-09-17T15:21:57Z</time>
      </trkpt>
      <trkpt lat="45.19483" lon="5.13849">
        <ele>394.19400024414</ele>
        <time>2009-09-17T15:22:11Z</time>
      </trkpt>
      <trkpt lat="45.19481" lon="5.13822">
        <ele>393.23098754883</ele>
        <time>2009-09-17T15:22:13Z</time>
      </trkpt>
      <trkpt lat="45.19479" lon="5.13779">
        <ele>391.64099121094</ele>
        <time>2009-09-17T15:22:16Z</time>
      </trkpt>
      <trkpt lat="45.19477" lon="5.13672">
        <ele>386.64801025391</ele>
        <time>2009-09-17T15:22:23Z</time>
      </trkpt>
      <trkpt lat="45.19477" lon="5.13606">
        <ele>383.78900146484</ele>
        <time>2009-09-17T15:22:27Z</time>
      </trkpt>
      <trkpt lat="45.19476" lon="5.1354">
        <ele>381.83200073242</ele>
        <time>2009-09-17T15:22:31Z</time>
      </trkpt>
      <trkpt lat="45.19475" lon="5.13476">
        <ele>381.1960144043</ele>
        <time>2009-09-17T15:22:35Z</time>
      </trkpt>
      <trkpt lat="45.19474" lon="5.13317">
        <ele>380.98300170898</ele>
        <time>2009-09-17T15:22:47Z</time>
      </trkpt>
      <trkpt lat="45.19477" lon="5.13279">
        <ele>381.40301513672</ele>
        <time>2009-09-17T15:22:50Z</time>
      </trkpt>
      <trkpt lat="45.19481" lon="5.13255">
        <ele>381.12899780273</ele>
        <time>2009-09-17T15:22:52Z</time>
      </trkpt>
      <trkpt lat="45.19484" lon="5.13243">
        <ele>380.94799804688</ele>
        <time>2009-09-17T15:22:53Z</time>
      </trkpt>
      <trkpt lat="45.1949" lon="5.13206">
        <ele>380.92300415039</ele>
        <time>2009-09-17T15:22:56Z</time>
      </trkpt>
      <trkpt lat="45.19502" lon="5.13129">
        <ele>378.79699707031</ele>
        <time>2009-09-17T15:23:02Z</time>
      </trkpt>
      <trkpt lat="45.19506" lon="5.13102">
        <ele>377.71398925781</ele>
        <time>2009-09-17T15:23:04Z</time>
      </trkpt>
      <trkpt lat="45.19511" lon="5.13044">
        <ele>375.71798706055</ele>
        <time>2009-09-17T15:23:08Z</time>
      </trkpt>
      <trkpt lat="45.19518" lon="5.12969">
        <ele>374.17498779297</ele>
        <time>2009-09-17T15:23:13Z</time>
      </trkpt>
      <trkpt lat="45.19519" lon="5.12787">
        <ele>370.34600830078</ele>
        <time>2009-09-17T15:23:25Z</time>
      </trkpt>
      <trkpt lat="45.19525" lon="5.12697">
        <ele>366.27600097656</ele>
        <time>2009-09-17T15:23:31Z</time>
      </trkpt>
      <trkpt lat="45.19565" lon="5.12624">
        <ele>359.77801513672</ele>
        <time>2009-09-17T15:23:37Z</time>
      </trkpt>
      <trkpt lat="45.19653" lon="5.12573">
        <ele>359.37100219727</ele>
        <time>2009-09-17T15:23:46Z</time>
      </trkpt>
      <trkpt lat="45.19681" lon="5.12501">
        <ele>359.40200805664</ele>
        <time>2009-09-17T15:23:53Z</time>
      </trkpt>
      <trkpt lat="45.19679" lon="5.12489">
        <ele>359.09799194336</ele>
        <time>2009-09-17T15:23:54Z</time>
      </trkpt>
      <trkpt lat="45.1961" lon="5.12211">
        <ele>356.36801147461</ele>
        <time>2009-09-17T15:24:16Z</time>
      </trkpt>
      <trkpt lat="45.19575" lon="5.1206">
        <ele>355.69799804688</ele>
        <time>2009-09-17T15:24:28Z</time>
      </trkpt>
      <trkpt lat="45.19593" lon="5.11986">
        <ele>356.07299804688</ele>
        <time>2009-09-17T15:24:35Z</time>
      </trkpt>
      <trkpt lat="45.19602" lon="5.11942">
        <ele>355.73001098633</ele>
        <time>2009-09-17T15:24:39Z</time>
      </trkpt>
      <trkpt lat="45.19591" lon="5.11797">
        <ele>359.0719909668</ele>
        <time>2009-09-17T15:24:54Z</time>
      </trkpt>
      <trkpt lat="45.19587" lon="5.11744">
        <ele>360.94299316406</ele>
        <time>2009-09-17T15:25:01Z</time>
      </trkpt>
      <trkpt lat="45.19583" lon="5.11726">
        <ele>361.52200317383</ele>
        <time>2009-09-17T15:25:06Z</time>
      </trkpt>
      <trkpt lat="45.19534" lon="5.11683">
        <ele>360.29901123047</ele>
        <time>2009-09-17T15:25:16Z</time>
      </trkpt>
      <trkpt lat="45.19528" lon="5.11677">
        <ele>359.99200439453</ele>
        <time>2009-09-17T15:25:17Z</time>
      </trkpt>
      <trkpt lat="45.19514" lon="5.11654">
        <ele>359.55999755859</ele>
        <time>2009-09-17T15:25:20Z</time>
      </trkpt>
      <trkpt lat="45.19471" lon="5.11524">
        <ele>358.13900756836</ele>
        <time>2009-09-17T15:25:33Z</time>
      </trkpt>
      <trkpt lat="45.19413" lon="5.11329">
        <ele>356.36700439453</ele>
        <time>2009-09-17T15:25:51Z</time>
      </trkpt>
      <trkpt lat="45.1937" lon="5.11183">
        <ele>352.57901000977</ele>
        <time>2009-09-17T15:26:03Z</time>
      </trkpt>
      <trkpt lat="45.1931" lon="5.10977">
        <ele>347.98498535156</ele>
        <time>2009-09-17T15:26:17Z</time>
      </trkpt>
      <trkpt lat="45.19226" lon="5.10676">
        <ele>342.20001220703</ele>
        <time>2009-09-17T15:26:37Z</time>
      </trkpt>
      <trkpt lat="45.19155" lon="5.10421">
        <ele>339.76000976562</ele>
        <time>2009-09-17T15:26:56Z</time>
      </trkpt>
      <trkpt lat="45.191" lon="5.1022">
        <ele>337.77499389648</ele>
        <time>2009-09-17T15:27:12Z</time>
      </trkpt>
      <trkpt lat="45.19022" lon="5.0994">
        <ele>334.52099609375</ele>
        <time>2009-09-17T15:27:35Z</time>
      </trkpt>
      <trkpt lat="45.18956" lon="5.09705">
        <ele>333.46301269531</ele>
        <time>2009-09-17T15:27:55Z</time>
      </trkpt>
      <trkpt lat="45.18935" lon="5.0964">
        <ele>332.5419921875</ele>
        <time>2009-09-17T15:28:02Z</time>
      </trkpt>
      <trkpt lat="45.18908" lon="5.09562">
        <ele>332.02801513672</ele>
        <time>2009-09-17T15:28:10Z</time>
      </trkpt>
      <trkpt lat="45.18873" lon="5.09456">
        <ele>331.72698974609</ele>
        <time>2009-09-17T15:28:20Z</time>
      </trkpt>
      <trkpt lat="45.18826" lon="5.09321">
        <ele>329.00299072266</ele>
        <time>2009-09-17T15:28:31Z</time>
      </trkpt>
      <trkpt lat="45.18809" lon="5.09265">
        <ele>329.07800292969</ele>
        <time>2009-09-17T15:28:35Z</time>
      </trkpt>
      <trkpt lat="45.1879" lon="5.09209">
        <ele>328.42999267578</ele>
        <time>2009-09-17T15:28:39Z</time>
      </trkpt>
      <trkpt lat="45.18725" lon="5.09015">
        <ele>325.64401245117</ele>
        <time>2009-09-17T15:28:53Z</time>
      </trkpt>
      <trkpt lat="45.18662" lon="5.08824">
        <ele>323.4580078125</ele>
        <time>2009-09-17T15:29:07Z</time>
      </trkpt>
      <trkpt lat="45.18581" lon="5.08636">
        <ele>321.30899047852</ele>
        <time>2009-09-17T15:29:22Z</time>
      </trkpt>
      <trkpt lat="45.18444" lon="5.08444">
        <ele>317.86801147461</ele>
        <time>2009-09-17T15:29:41Z</time>
      </trkpt>
      <trkpt lat="45.18376" lon="5.08348">
        <ele>315.32699584961</ele>
        <time>2009-09-17T15:29:50Z</time>
      </trkpt>
      <trkpt lat="45.1824" lon="5.08157">
        <ele>312.25201416016</ele>
        <time>2009-09-17T15:30:08Z</time>
      </trkpt>
      <trkpt lat="45.1808" lon="5.07933">
        <ele>308.00799560547</ele>
        <time>2009-09-17T15:30:30Z</time>
      </trkpt>
      <trkpt lat="45.17962" lon="5.07766">
        <ele>306.00601196289</ele>
        <time>2009-09-17T15:30:48Z</time>
      </trkpt>
      <trkpt lat="45.17832" lon="5.07583">
        <ele>303.57800292969</ele>
        <time>2009-09-17T15:31:08Z</time>
      </trkpt>
      <trkpt lat="45.17707" lon="5.07408">
        <ele>302.01699829102</ele>
        <time>2009-09-17T15:31:28Z</time>
      </trkpt>
      <trkpt lat="45.17591" lon="5.07244">
        <ele>301.47500610352</ele>
        <time>2009-09-17T15:31:47Z</time>
      </trkpt>
      <trkpt lat="45.17501" lon="5.07114">
        <ele>300.50201416016</ele>
        <time>2009-09-17T15:32:02Z</time>
      </trkpt>
      <trkpt lat="45.17471" lon="5.07073">
        <ele>299.58401489258</ele>
        <time>2009-09-17T15:32:07Z</time>
      </trkpt>
      <trkpt lat="45.17451" lon="5.07061">
        <ele>300.41198730469</ele>
        <time>2009-09-17T15:32:10Z</time>
      </trkpt>
      <trkpt lat="45.17375" lon="5.07012">
        <ele>297.90399169922</ele>
        <time>2009-09-17T15:32:22Z</time>
      </trkpt>
      <trkpt lat="45.1734" lon="5.07004">
        <ele>298.11401367188</ele>
        <time>2009-09-17T15:32:27Z</time>
      </trkpt>
      <trkpt lat="45.17327" lon="5.07001">
        <ele>298.41400146484</ele>
        <time>2009-09-17T15:32:29Z</time>
      </trkpt>
      <trkpt lat="45.17257" lon="5.06961">
        <ele>297.08999633789</ele>
        <time>2009-09-17T15:32:40Z</time>
      </trkpt>
      <trkpt lat="45.17237" lon="5.06948">
        <ele>296.2799987793</ele>
        <time>2009-09-17T15:32:43Z</time>
      </trkpt>
      <trkpt lat="45.17205" lon="5.0694">
        <ele>295.07699584961</ele>
        <time>2009-09-17T15:32:47Z</time>
      </trkpt>
      <trkpt lat="45.17175" lon="5.06924">
        <ele>294.58599853516</ele>
        <time>2009-09-17T15:32:51Z</time>
      </trkpt>
      <trkpt lat="45.17065" lon="5.06817">
        <ele>292.6549987793</ele>
        <time>2009-09-17T15:33:07Z</time>
      </trkpt>
      <trkpt lat="45.16936" lon="5.06687">
        <ele>290.98599243164</ele>
        <time>2009-09-17T15:33:26Z</time>
      </trkpt>
      <trkpt lat="45.16838" lon="5.06587">
        <ele>290.6969909668</ele>
        <time>2009-09-17T15:33:41Z</time>
      </trkpt>
      <trkpt lat="45.16773" lon="5.06515">
        <ele>290.69799804688</ele>
        <time>2009-09-17T15:33:52Z</time>
      </trkpt>
      <trkpt lat="45.16737" lon="5.0643">
        <ele>291.14300537109</ele>
        <time>2009-09-17T15:34:03Z</time>
      </trkpt>
      <trkpt lat="45.16715" lon="5.06314">
        <ele>292.57800292969</ele>
        <time>2009-09-17T15:34:15Z</time>
      </trkpt>
      <trkpt lat="45.16681" lon="5.06149">
        <ele>294.69799804688</ele>
        <time>2009-09-17T15:34:34Z</time>
      </trkpt>
      <trkpt lat="45.16644" lon="5.05996">
        <ele>296.5719909668</ele>
        <time>2009-09-17T15:34:53Z</time>
      </trkpt>
      <trkpt lat="45.16583" lon="5.05835">
        <ele>291.97299194336</ele>
        <time>2009-09-17T15:35:09Z</time>
      </trkpt>
      <trkpt lat="45.16496" lon="5.05619">
        <ele>287.08401489258</ele>
        <time>2009-09-17T15:35:27Z</time>
      </trkpt>
      <trkpt lat="45.16373" lon="5.05388">
        <ele>282.85598754883</ele>
        <time>2009-09-17T15:35:47Z</time>
      </trkpt>
      <trkpt lat="45.1624" lon="5.05148">
        <ele>277.26901245117</ele>
        <time>2009-09-17T15:36:07Z</time>
      </trkpt>
      <trkpt lat="45.16179" lon="5.04956">
        <ele>275.47799682617</ele>
        <time>2009-09-17T15:36:21Z</time>
      </trkpt>
      <trkpt lat="45.16155" lon="5.04794">
        <ele>273.83898925781</ele>
        <time>2009-09-17T15:36:32Z</time>
      </trkpt>
      <trkpt lat="45.16166" lon="5.0455">
        <ele>272.61898803711</ele>
        <time>2009-09-17T15:36:49Z</time>
      </trkpt>
      <trkpt lat="45.16228" lon="5.04319">
        <ele>271.00900268555</ele>
        <time>2009-09-17T15:37:07Z</time>
      </trkpt>
      <trkpt lat="45.16234" lon="5.04294">
        <ele>270.76800537109</ele>
        <time>2009-09-17T15:37:09Z</time>
      </trkpt>
      <trkpt lat="45.16233" lon="5.04227">
        <ele>270.23498535156</ele>
        <time>2009-09-17T15:37:14Z</time>
      </trkpt>
      <trkpt lat="45.16188" lon="5.03987">
        <ele>270.00601196289</ele>
        <time>2009-09-17T15:37:34Z</time>
      </trkpt>
      <trkpt lat="45.16173" lon="5.0393">
        <ele>271.57299804688</ele>
        <time>2009-09-17T15:37:41Z</time>
      </trkpt>
      <trkpt lat="45.16177" lon="5.03896">
        <ele>271.34201049805</ele>
        <time>2009-09-17T15:37:46Z</time>
      </trkpt>
      <trkpt lat="45.16186" lon="5.03872">
        <ele>271.31100463867</ele>
        <time>2009-09-17T15:37:49Z</time>
      </trkpt>
      <trkpt lat="45.16192" lon="5.03834">
        <ele>271.23300170898</ele>
        <time>2009-09-17T15:37:53Z</time>
      </trkpt>
      <trkpt lat="45.16192" lon="5.03668">
        <ele>270.02398681641</ele>
        <time>2009-09-17T15:38:08Z</time>
      </trkpt>
      <trkpt lat="45.16174" lon="5.03491">
        <ele>269.8330078125</ele>
        <time>2009-09-17T15:38:23Z</time>
      </trkpt>
      <trkpt lat="45.16121" lon="5.03347">
        <ele>270.79400634766</ele>
        <time>2009-09-17T15:38:37Z</time>
      </trkpt>
      <trkpt lat="45.16012" lon="5.03148">
        <ele>270.08898925781</ele>
        <time>2009-09-17T15:38:59Z</time>
      </trkpt>
      <trkpt lat="45.1591" lon="5.02998">
        <ele>266.92098999023</ele>
        <time>2009-09-17T15:39:15Z</time>
      </trkpt>
      <trkpt lat="45.15791" lon="5.02858">
        <ele>264.06500244141</ele>
        <time>2009-09-17T15:39:31Z</time>
      </trkpt>
      <trkpt lat="45.15671" lon="5.02742">
        <ele>262.83999633789</ele>
        <time>2009-09-17T15:39:47Z</time>
      </trkpt>
      <trkpt lat="45.15597" lon="5.02665">
        <ele>261.13800048828</ele>
        <time>2009-09-17T15:39:58Z</time>
      </trkpt>
      <trkpt lat="45.15486" lon="5.02517">
        <ele>258.71099853516</ele>
        <time>2009-09-17T15:40:14Z</time>
      </trkpt>
      <trkpt lat="45.15351" lon="5.02351">
        <ele>256.66299438477</ele>
        <time>2009-09-17T15:40:33Z</time>
      </trkpt>
      <trkpt lat="45.15276" lon="5.02244">
        <ele>256.87100219727</ele>
        <time>2009-09-17T15:40:45Z</time>
      </trkpt>
      <trkpt lat="45.15194" lon="5.02101">
        <ele>257.23498535156</ele>
        <time>2009-09-17T15:41:01Z</time>
      </trkpt>
      <trkpt lat="45.15188" lon="5.02092">
        <ele>257.29299926758</ele>
        <time>2009-09-17T15:41:02Z</time>
      </trkpt>
      <trkpt lat="45.15154" lon="5.02039">
        <ele>256.92300415039</ele>
        <time>2009-09-17T15:41:08Z</time>
      </trkpt>
      <trkpt lat="45.15118" lon="5.01985">
        <ele>256.89898681641</ele>
        <time>2009-09-17T15:41:14Z</time>
      </trkpt>
      <trkpt lat="45.15068" lon="5.01915">
        <ele>256.75500488281</ele>
        <time>2009-09-17T15:41:22Z</time>
      </trkpt>
      <trkpt lat="45.14986" lon="5.01799">
        <ele>255.94500732422</ele>
        <time>2009-09-17T15:41:36Z</time>
      </trkpt>
      <trkpt lat="45.14951" lon="5.01753">
        <ele>255.38200378418</ele>
        <time>2009-09-17T15:41:42Z</time>
      </trkpt>
      <trkpt lat="45.14892" lon="5.01673">
        <ele>254.33700561523</ele>
        <time>2009-09-17T15:41:52Z</time>
      </trkpt>
      <trkpt lat="45.14831" lon="5.01606">
        <ele>256.32699584961</ele>
        <time>2009-09-17T15:42:03Z</time>
      </trkpt>
      <trkpt lat="45.1482" lon="5.01585">
        <ele>257.03601074219</ele>
        <time>2009-09-17T15:42:06Z</time>
      </trkpt>
      <trkpt lat="45.14811" lon="5.01576">
        <ele>256.60800170898</ele>
        <time>2009-09-17T15:42:08Z</time>
      </trkpt>
      <trkpt lat="45.14769" lon="5.01535">
        <ele>254.45100402832</ele>
        <time>2009-09-17T15:42:16Z</time>
      </trkpt>
      <trkpt lat="45.14745" lon="5.01512">
        <ele>252.92199707031</ele>
        <time>2009-09-17T15:42:20Z</time>
      </trkpt>
      <trkpt lat="45.14697" lon="5.01408">
        <ele>249.80299377441</ele>
        <time>2009-09-17T15:42:30Z</time>
      </trkpt>
      <trkpt lat="45.14627" lon="5.01232">
        <ele>249.42900085449</ele>
        <time>2009-09-17T15:42:46Z</time>
      </trkpt>
      <trkpt lat="45.14546" lon="5.0117">
        <ele>250.19599914551</ele>
        <time>2009-09-17T15:42:58Z</time>
      </trkpt>
      <trkpt lat="45.1445" lon="5.01088">
        <ele>250.31300354004</ele>
        <time>2009-09-17T15:43:12Z</time>
      </trkpt>
      <trkpt lat="45.1435" lon="5.00977">
        <ele>250.21200561523</ele>
        <time>2009-09-17T15:43:27Z</time>
      </trkpt>
      <trkpt lat="45.14248" lon="5.00892">
        <ele>248.79499816894</ele>
        <time>2009-09-17T15:43:40Z</time>
      </trkpt>
      <trkpt lat="45.14095" lon="5.00815">
        <ele>247.84300231934</ele>
        <time>2009-09-17T15:43:58Z</time>
      </trkpt>
      <trkpt lat="45.13965" lon="5.0075">
        <ele>246.97700500488</ele>
        <time>2009-09-17T15:44:14Z</time>
      </trkpt>
      <trkpt lat="45.13828" lon="5.00678">
        <ele>246.83200073242</ele>
        <time>2009-09-17T15:44:31Z</time>
      </trkpt>
      <trkpt lat="45.13712" lon="5.00578">
        <ele>244.80099487305</ele>
        <time>2009-09-17T15:44:46Z</time>
      </trkpt>
      <trkpt lat="45.1364" lon="5.00498">
        <ele>244.30599975586</ele>
        <time>2009-09-17T15:44:56Z</time>
      </trkpt>
      <trkpt lat="45.13607" lon="5.00477">
        <ele>244.2859954834</ele>
        <time>2009-09-17T15:45:00Z</time>
      </trkpt>
      <trkpt lat="45.13479" lon="5.00432">
        <ele>242.53300476074</ele>
        <time>2009-09-17T15:45:14Z</time>
      </trkpt>
      <trkpt lat="45.13329" lon="5.00343">
        <ele>240.42700195312</ele>
        <time>2009-09-17T15:45:32Z</time>
      </trkpt>
      <trkpt lat="45.13205" lon="5.00342">
        <ele>238.06900024414</ele>
        <time>2009-09-17T15:45:45Z</time>
      </trkpt>
      <trkpt lat="45.13195" lon="5.00343">
        <ele>237.57600402832</ele>
        <time>2009-09-17T15:45:46Z</time>
      </trkpt>
      <trkpt lat="45.13084" lon="5.00301">
        <ele>235.74800109863</ele>
        <time>2009-09-17T15:45:58Z</time>
      </trkpt>
      <trkpt lat="45.12961" lon="5.00249">
        <ele>235.37699890137</ele>
        <time>2009-09-17T15:46:12Z</time>
      </trkpt>
      <trkpt lat="45.12889" lon="5.00175">
        <ele>231.89999389648</ele>
        <time>2009-09-17T15:46:22Z</time>
      </trkpt>
      <trkpt lat="45.1285" lon="5.00106">
        <ele>230.66200256348</ele>
        <time>2009-09-17T15:46:29Z</time>
      </trkpt>
      <trkpt lat="45.12811" lon="5.00074">
        <ele>229.44299316406</ele>
        <time>2009-09-17T15:46:34Z</time>
      </trkpt>
      <trkpt lat="45.12732" lon="5.00044">
        <ele>225.64399719238</ele>
        <time>2009-09-17T15:46:42Z</time>
      </trkpt>
      <trkpt lat="45.12697" lon="5.00013">
        <ele>224.31599426269</ele>
        <time>2009-09-17T15:46:46Z</time>
      </trkpt>
      <trkpt lat="45.12669" lon="4.99973">
        <ele>224.08599853516</ele>
        <time>2009-09-17T15:46:50Z</time>
      </trkpt>
      <trkpt lat="45.12643" lon="4.99891">
        <ele>224.27099609375</ele>
        <time>2009-09-17T15:46:57Z</time>
      </trkpt>
      <trkpt lat="45.12613" lon="4.99838">
        <ele>224.96699523926</ele>
        <time>2009-09-17T15:47:03Z</time>
      </trkpt>
      <trkpt lat="45.12539" lon="4.9973">
        <ele>225.95199584961</ele>
        <time>2009-09-17T15:47:16Z</time>
      </trkpt>
      <trkpt lat="45.12469" lon="4.99648">
        <ele>225.8390045166</ele>
        <time>2009-09-17T15:47:27Z</time>
      </trkpt>
      <trkpt lat="45.12396" lon="4.99522">
        <ele>226.8390045166</ele>
        <time>2009-09-17T15:47:42Z</time>
      </trkpt>
      <trkpt lat="45.12367" lon="4.99395">
        <ele>227.33500671387</ele>
        <time>2009-09-17T15:47:55Z</time>
      </trkpt>
      <trkpt lat="45.1234" lon="4.99251">
        <ele>228.48699951172</ele>
        <time>2009-09-17T15:48:09Z</time>
      </trkpt>
      <trkpt lat="45.12337" lon="4.99241">
        <ele>228.54100036621</ele>
        <time>2009-09-17T15:48:10Z</time>
      </trkpt>
      <trkpt lat="45.12288" lon="4.99142">
        <ele>225.58000183106</ele>
        <time>2009-09-17T15:48:20Z</time>
      </trkpt>
      <trkpt lat="45.12251" lon="4.99071">
        <ele>221.50900268555</ele>
        <time>2009-09-17T15:48:27Z</time>
      </trkpt>
      <trkpt lat="45.12231" lon="4.99018">
        <ele>219.01600646973</ele>
        <time>2009-09-17T15:48:31Z</time>
      </trkpt>
      <trkpt lat="45.12241" lon="4.98981">
        <ele>220.04600524902</ele>
        <time>2009-09-17T15:48:34Z</time>
      </trkpt>
      <trkpt lat="45.12246" lon="4.98956">
        <ele>220.05200195312</ele>
        <time>2009-09-17T15:48:36Z</time>
      </trkpt>
      <trkpt lat="45.12247" lon="4.9891">
        <ele>219.79499816894</ele>
        <time>2009-09-17T15:48:40Z</time>
      </trkpt>
      <trkpt lat="45.12241" lon="4.98844">
        <ele>218.64999389648</ele>
        <time>2009-09-17T15:48:46Z</time>
      </trkpt>
      <trkpt lat="45.1224" lon="4.98823">
        <ele>218.59899902344</ele>
        <time>2009-09-17T15:48:48Z</time>
      </trkpt>
      <trkpt lat="45.12254" lon="4.98699">
        <ele>216.14199829102</ele>
        <time>2009-09-17T15:48:59Z</time>
      </trkpt>
      <trkpt lat="45.12262" lon="4.98636">
        <ele>215.27299499512</ele>
        <time>2009-09-17T15:49:07Z</time>
      </trkpt>
      <trkpt lat="45.12284" lon="4.98624">
        <ele>216.10000610352</ele>
        <time>2009-09-17T15:49:12Z</time>
      </trkpt>
      <trkpt lat="45.12315" lon="4.98606">
        <ele>216.52699279785</ele>
        <time>2009-09-17T15:49:18Z</time>
      </trkpt>
      <trkpt lat="45.12378" lon="4.98572">
        <ele>216.89500427246</ele>
        <time>2009-09-17T15:49:30Z</time>
      </trkpt>
      <trkpt lat="45.1242" lon="4.9855">
        <ele>217.31500244141</ele>
        <time>2009-09-17T15:49:37Z</time>
      </trkpt>
      <trkpt lat="45.12466" lon="4.98557">
        <ele>218.93499755859</ele>
        <time>2009-09-17T15:49:45Z</time>
      </trkpt>
      <trkpt lat="45.12507" lon="4.98561">
        <ele>221.84300231934</ele>
        <time>2009-09-17T15:49:52Z</time>
      </trkpt>
      <trkpt lat="45.1253" lon="4.98571">
        <ele>223.3630065918</ele>
        <time>2009-09-17T15:49:56Z</time>
      </trkpt>
      <trkpt lat="45.12543" lon="4.98596">
        <ele>225.5890045166</ele>
        <time>2009-09-17T15:50:00Z</time>
      </trkpt>
      <trkpt lat="45.1254" lon="4.98611">
        <ele>226.58500671387</ele>
        <time>2009-09-17T15:50:02Z</time>
      </trkpt>
      <trkpt lat="45.12528" lon="4.98647">
        <ele>231.42399597168</ele>
        <time>2009-09-17T15:50:08Z</time>
      </trkpt>
      <trkpt lat="45.12525" lon="4.98649">
        <ele>231.55400085449</ele>
        <time>2009-09-17T15:50:09Z</time>
      </trkpt>
      <trkpt lat="45.12509" lon="4.98647">
        <ele>231.72700500488</ele>
        <time>2009-09-17T15:50:13Z</time>
      </trkpt>
      <trkpt lat="45.12483" lon="4.98649">
        <ele>232.1130065918</ele>
        <time>2009-09-17T15:50:21Z</time>
      </trkpt>
      <trkpt lat="45.12467" lon="4.98664">
        <ele>232.46299743652</ele>
        <time>2009-09-17T15:50:29Z</time>
      </trkpt>
      <trkpt lat="45.12462" lon="4.98665">
        <ele>232.55700683594</ele>
        <time>2009-09-17T15:50:34Z</time>
      </trkpt>
      <trkpt lat="45.12464" lon="4.98663">
        <ele>234.0119934082</ele>
        <time>2009-09-17T16:13:48Z</time>
      </trkpt>
      <trkpt lat="45.12462" lon="4.98663">
        <ele>234.16600036621</ele>
        <time>2009-09-17T16:13:51Z</time>
      </trkpt>
      <trkpt lat="45.12461" lon="4.98663">
        <ele>234.11799621582</ele>
        <time>2009-09-17T16:13:52Z</time>
      </trkpt>
      <trkpt lat="45.12461" lon="4.98663">
        <ele>234.11599731445</ele>
        <time>2009-09-17T16:13:54Z</time>
      </trkpt>
      <trkpt lat="45.12458" lon="4.98663">
        <ele>234.12800598144</ele>
        <time>2009-09-17T16:14:02Z</time>
      </trkpt>
      <trkpt lat="45.12457" lon="4.98663">
        <ele>234.03799438477</ele>
        <time>2009-09-17T16:14:03Z</time>
      </trkpt>
      <trkpt lat="45.12455" lon="4.98663">
        <ele>233.92100524902</ele>
        <time>2009-09-17T16:14:05Z</time>
      </trkpt>
      <trkpt lat="45.12449" lon="4.98663">
        <ele>234.03500366211</ele>
        <time>2009-09-17T16:14:13Z</time>
      </trkpt>
      <trkpt lat="45.1245" lon="4.98663">
        <ele>233.94400024414</ele>
        <time>2009-09-17T16:14:17Z</time>
      </trkpt>
      <trkpt lat="45.12447" lon="4.98662">
        <ele>234.08700561523</ele>
        <time>2009-09-17T16:14:21Z</time>
      </trkpt>
      <trkpt lat="45.12484" lon="4.98681">
        <ele>231.1369934082</ele>
        <time>2009-09-17T16:19:14Z</time>
      </trkpt>
      <trkpt lat="45.12485" lon="4.98681">
        <ele>231.10600280762</ele>
        <time>2009-09-17T16:19:15Z</time>
      </trkpt>
      <trkpt lat="45.12499" lon="4.98691">
        <ele>230.50999450684</ele>
        <time>2009-09-17T16:19:30Z</time>
      </trkpt>
      <trkpt lat="45.12502" lon="4.98694">
        <ele>230.22799682617</ele>
        <time>2009-09-17T16:19:38Z</time>
      </trkpt>
      <trkpt lat="45.12469" lon="4.98671">
        <ele>229.08599853516</ele>
        <time>2009-09-17T16:20:21Z</time>
      </trkpt>
      <trkpt lat="45.12467" lon="4.98669">
        <ele>229.02799987793</ele>
        <time>2009-09-17T16:20:25Z</time>
      </trkpt>
      <trkpt lat="45.12464" lon="4.98667">
        <ele>229.10200500488</ele>
        <time>2009-09-17T16:20:28Z</time>
      </trkpt>
      <trkpt lat="45.12463" lon="4.98666">
        <ele>229.16799926758</ele>
        <time>2009-09-17T16:20:29Z</time>
      </trkpt>
      <trkpt lat="45.12469" lon="4.98672">
        <ele>228.9880065918</ele>
        <time>2009-09-17T16:21:38Z</time>
      </trkpt>
      <trkpt lat="45.12493" lon="4.98656">
        <ele>228.58000183106</ele>
        <time>2009-09-17T16:22:04Z</time>
      </trkpt>
      <trkpt lat="45.12508" lon="4.98651">
        <ele>228.4700012207</ele>
        <time>2009-09-17T16:22:08Z</time>
      </trkpt>
      <trkpt lat="45.12543" lon="4.98639">
        <ele>226.46299743652</ele>
        <time>2009-09-17T16:22:16Z</time>
      </trkpt>
      <trkpt lat="45.12548" lon="4.98606">
        <ele>223.9109954834</ele>
        <time>2009-09-17T16:22:19Z</time>
      </trkpt>
      <trkpt lat="45.12549" lon="4.98582">
        <ele>222.04600524902</ele>
        <time>2009-09-17T16:22:22Z</time>
      </trkpt>
      <trkpt lat="45.12532" lon="4.98566">
        <ele>219.9880065918</ele>
        <time>2009-09-17T16:22:29Z</time>
      </trkpt>
      <trkpt lat="45.12504" lon="4.98556">
        <ele>217.86099243164</ele>
        <time>2009-09-17T16:22:33Z</time>
      </trkpt>
      <trkpt lat="45.12478" lon="4.98554">
        <ele>215.4109954834</ele>
        <time>2009-09-17T16:22:36Z</time>
      </trkpt>
      <trkpt lat="45.12436" lon="4.98533">
        <ele>212.67500305176</ele>
        <time>2009-09-17T16:22:41Z</time>
      </trkpt>
      <trkpt lat="45.12425" lon="4.98513">
        <ele>212.23100280762</ele>
        <time>2009-09-17T16:22:43Z</time>
      </trkpt>
      <trkpt lat="45.12417" lon="4.9849">
        <ele>212.07400512695</ele>
        <time>2009-09-17T16:22:45Z</time>
      </trkpt>
      <trkpt lat="45.12404" lon="4.98445">
        <ele>211.49099731445</ele>
        <time>2009-09-17T16:22:49Z</time>
      </trkpt>
      <trkpt lat="45.12389" lon="4.98399">
        <ele>210.37199401856</ele>
        <time>2009-09-17T16:22:53Z</time>
      </trkpt>
      <trkpt lat="45.12385" lon="4.98366">
        <ele>210.16999816894</ele>
        <time>2009-09-17T16:22:56Z</time>
      </trkpt>
      <trkpt lat="45.12383" lon="4.98363">
        <ele>210.7380065918</ele>
        <time>2009-09-17T16:22:57Z</time>
      </trkpt>
      <trkpt lat="45.12378" lon="4.9836">
        <ele>211.24699401856</ele>
        <time>2009-09-17T16:23:01Z</time>
      </trkpt>
      <trkpt lat="45.12363" lon="4.98364">
        <ele>210.68600463867</ele>
        <time>2009-09-17T16:23:19Z</time>
      </trkpt>
      <trkpt lat="45.12346" lon="4.98396">
        <ele>210.31599426269</ele>
        <time>2009-09-17T16:23:24Z</time>
      </trkpt>
      <trkpt lat="45.12333" lon="4.98418">
        <ele>209.74200439453</ele>
        <time>2009-09-17T16:23:27Z</time>
      </trkpt>
      <trkpt lat="45.12321" lon="4.98422">
        <ele>209.52099609375</ele>
        <time>2009-09-17T16:23:29Z</time>
      </trkpt>
      <trkpt lat="45.12312" lon="4.9842">
        <ele>209.17500305176</ele>
        <time>2009-09-17T16:23:30Z</time>
      </trkpt>
      <trkpt lat="45.12228" lon="4.98416">
        <ele>208.41299438477</ele>
        <time>2009-09-17T16:23:41Z</time>
      </trkpt>
      <trkpt lat="45.12169" lon="4.9841">
        <ele>207.90199279785</ele>
        <time>2009-09-17T16:23:50Z</time>
      </trkpt>
      <trkpt lat="45.1207" lon="4.98406">
        <ele>207.64300537109</ele>
        <time>2009-09-17T16:24:03Z</time>
      </trkpt>
      <trkpt lat="45.12052" lon="4.98363">
        <ele>207.47200012207</ele>
        <time>2009-09-17T16:24:08Z</time>
      </trkpt>
      <trkpt lat="45.12073" lon="4.9819">
        <ele>205.79699707031</ele>
        <time>2009-09-17T16:24:22Z</time>
      </trkpt>
      <trkpt lat="45.12041" lon="4.98023">
        <ele>204.27900695801</ele>
        <time>2009-09-17T16:24:35Z</time>
      </trkpt>
      <trkpt lat="45.11988" lon="4.97772">
        <ele>202.28500366211</ele>
        <time>2009-09-17T16:24:55Z</time>
      </trkpt>
      <trkpt lat="45.11945" lon="4.97521">
        <ele>200.89999389648</ele>
        <time>2009-09-17T16:25:16Z</time>
      </trkpt>
      <trkpt lat="45.119" lon="4.97256">
        <ele>199.2440032959</ele>
        <time>2009-09-17T16:25:38Z</time>
      </trkpt>
      <trkpt lat="45.11882" lon="4.97157">
        <ele>199.95700073242</ele>
        <time>2009-09-17T16:25:47Z</time>
      </trkpt>
      <trkpt lat="45.11896" lon="4.97092">
        <ele>202.17500305176</ele>
        <time>2009-09-17T16:25:54Z</time>
      </trkpt>
      <trkpt lat="45.11886" lon="4.97052">
        <ele>201.87600708008</ele>
        <time>2009-09-17T16:26:01Z</time>
      </trkpt>
      <trkpt lat="45.11873" lon="4.9704">
        <ele>201.48199462891</ele>
        <time>2009-09-17T16:26:03Z</time>
      </trkpt>
      <trkpt lat="45.11777" lon="4.96899">
        <ele>201.05700683594</ele>
        <time>2009-09-17T16:26:20Z</time>
      </trkpt>
      <trkpt lat="45.11772" lon="4.9689">
        <ele>201.04400634766</ele>
        <time>2009-09-17T16:26:21Z</time>
      </trkpt>
      <trkpt lat="45.11764" lon="4.96851">
        <ele>201.14199829102</ele>
        <time>2009-09-17T16:26:25Z</time>
      </trkpt>
      <trkpt lat="45.11734" lon="4.96815">
        <ele>200.91999816894</ele>
        <time>2009-09-17T16:26:31Z</time>
      </trkpt>
      <trkpt lat="45.11715" lon="4.96797">
        <ele>200.69900512695</ele>
        <time>2009-09-17T16:26:34Z</time>
      </trkpt>
      <trkpt lat="45.11641" lon="4.96652">
        <ele>199.22799682617</ele>
        <time>2009-09-17T16:26:49Z</time>
      </trkpt>
      <trkpt lat="45.11597" lon="4.96539">
        <ele>198.96499633789</ele>
        <time>2009-09-17T16:27:00Z</time>
      </trkpt>
      <trkpt lat="45.11583" lon="4.96505">
        <ele>199.08700561523</ele>
        <time>2009-09-17T16:27:04Z</time>
      </trkpt>
      <trkpt lat="45.1158" lon="4.96465">
        <ele>199.80700683594</ele>
        <time>2009-09-17T16:27:09Z</time>
      </trkpt>
      <trkpt lat="45.11581" lon="4.96454">
        <ele>200.31700134277</ele>
        <time>2009-09-17T16:27:11Z</time>
      </trkpt>
      <trkpt lat="45.11576" lon="4.96444">
        <ele>200.95300292969</ele>
        <time>2009-09-17T16:27:18Z</time>
      </trkpt>
      <trkpt lat="45.11574" lon="4.9645">
        <ele>200.65199279785</ele>
        <time>2009-09-17T16:27:40Z</time>
      </trkpt>
      <trkpt lat="45.11573" lon="4.96451">
        <ele>200.83500671387</ele>
        <time>2009-09-17T16:27:41Z</time>
      </trkpt>
      <trkpt lat="45.1156" lon="4.96427">
        <ele>201.16000366211</ele>
        <time>2009-09-17T16:27:51Z</time>
      </trkpt>
      <trkpt lat="45.11565" lon="4.96426">
        <ele>201.46800231934</ele>
        <time>2009-09-17T16:27:55Z</time>
      </trkpt>
      <trkpt lat="45.11565" lon="4.96426">
        <ele>201.63200378418</ele>
        <time>2009-09-17T16:27:56Z</time>
      </trkpt>
      <trkpt lat="45.11567" lon="4.96428">
        <ele>201.54299926758</ele>
        <time>2009-09-17T16:28:03Z</time>
      </trkpt>
      <trkpt lat="45.11567" lon="4.96428">
        <ele>201.4640045166</ele>
        <time>2009-09-17T16:28:04Z</time>
      </trkpt>
    </trkseg>
  </trk>
</gpx>